Provisional Data: Chiques Creek near Route 283


Please select a monitoring station.
Please select start date.
Please select start date.

Toggle Unit: C/F Toggle Unit: C/F
Sample Time Temperature (C) Temperature (F) Specific Conductivity (mS/cm) pH   Turbidity (NTU+) DO (mg/L)
8/11/2023 12:00:00 AM 21.27 70.286 0.61 7.74 8.29 7.62
8/11/2023 12:15:00 AM 21.24 70.232 0.61 7.74 6.6 7.63
8/11/2023 12:30:00 AM 21.2 70.16 0.61 7.74 7.11 7.62
8/11/2023 12:45:00 AM 21.18 70.124 0.61 7.75 6.12 7.62
8/11/2023 1:00:00 AM 21.15 70.07 0.61 7.74 6.19 7.65
8/11/2023 1:15:00 AM 21.11 69.998 0.61 7.75 7.26 7.63
8/11/2023 1:30:00 AM 21.08 69.944 0.61 7.74 6.34 7.63
8/11/2023 1:45:00 AM 21.05 69.89 0.61 7.74 6.41 7.63
8/11/2023 2:00:00 AM 21.03 69.854 0.61 7.73 6.95 7.6
8/11/2023 2:15:00 AM 21 69.8 0.61 7.73 7.67 7.65
8/11/2023 2:30:00 AM 20.97 69.746 0.61 7.73 6.64 7.63
8/11/2023 2:45:00 AM 20.95 69.71 0.61 7.73 7.19 7.61
8/11/2023 3:00:00 AM 20.93 69.674 0.61 7.73 6.81 7.63
8/11/2023 3:15:00 AM 20.91 69.638 0.611 7.73 6.69 7.6
8/11/2023 3:30:00 AM 20.87 69.566 0.611 7.74 7.28 7.62
8/11/2023 3:45:00 AM 20.85 69.53 0.611 7.71 7.08 7.62
8/11/2023 4:00:00 AM 20.82 69.476 0.611 7.74 6.98 7.61
8/11/2023 4:15:00 AM 20.8 69.44 0.611 7.73 9.44 7.6
8/11/2023 4:30:00 AM 20.76 69.368 0.612 7.74 8.22 7.61
8/11/2023 4:45:00 AM 20.73 69.314 0.612 7.72 8.2 7.58
8/11/2023 5:00:00 AM 20.69 69.242 0.612 7.72 7.55 7.63
8/11/2023 5:15:00 AM 20.66 69.188 0.612 7.72 7.29 7.65
8/11/2023 5:30:00 AM 20.62 69.116 0.613 7.71 7.58 7.62
8/11/2023 5:45:00 AM 20.6 69.08 0.613 7.72 7.02 7.63
8/11/2023 6:00:00 AM 20.57 69.026 0.613 7.72 7.41 7.63
8/11/2023 6:15:00 AM 20.54 68.972 0.613 7.73 8.36 7.64
8/11/2023 6:30:00 AM 20.52 68.936 0.613 7.72 7.16 7.6
8/11/2023 6:45:00 AM 20.5 68.9 0.614 7.72 6.76 7.66
8/11/2023 7:00:00 AM 20.49 68.882 0.614 7.72 7.74 7.7
8/11/2023 7:15:00 AM 20.48 68.864 0.614 7.73 7.32 7.54
8/11/2023 7:30:00 AM 20.48 68.864 0.614 7.71 8.98 7.65
8/11/2023 7:45:00 AM 20.47 68.846 0.614 7.73 5.68 7.76
8/11/2023 8:00:00 AM 20.47 68.846 0.614 7.74 6.35 7.71
8/11/2023 8:15:00 AM 20.48 68.864 0.614 7.74 7.14 7.8
8/11/2023 8:30:00 AM 20.49 68.882 0.614 7.73 38.99 7.72
8/11/2023 8:45:00 AM 20.5 68.9 0.614 7.72 88.98 7.75
8/11/2023 9:00:00 AM 20.53 68.954 0.614 7.73 27.95 7.9
8/11/2023 9:15:00 AM 20.57 69.026 0.614 7.75 76.24 7.91
8/11/2023 9:30:00 AM 20.63 69.134 0.614 7.75 14.32 7.95
8/11/2023 9:45:00 AM 20.69 69.242 0.615 7.77 29.71 8.08
8/11/2023 10:00:00 AM 20.74 69.332 0.614 7.74 8.36 8.16
8/11/2023 10:15:00 AM 20.81 69.458 0.615 7.76 6.78 8.22
8/11/2023 10:30:00 AM 20.9 69.62 0.615 7.78 5.45 8.29
8/11/2023 10:45:00 AM 20.98 69.764 0.614 7.77 5.3 8.36
8/11/2023 11:00:00 AM 21.07 69.926 0.614 7.79 6.01 8.37
8/11/2023 11:15:00 AM 21.15 70.07 0.614 7.8 4.52 8.4
8/11/2023 11:30:00 AM 21.23 70.214 0.614 7.79 4.73 8.43
8/11/2023 11:45:00 AM 21.2 70.16 0.614 7.79 4.97 8.36
8/11/2023 12:00:00 PM 21.29 70.32201 0.614 7.79 5.17 8.43
8/11/2023 12:15:00 PM 21.3 70.34 0.613 7.79 5.19 8.42
8/11/2023 12:30:00 PM 21.36 70.448 0.613 7.81 4.78 8.42
8/11/2023 12:45:00 PM 21.43 70.574 0.613 7.8 5.28 8.43
8/11/2023 1:00:00 PM 21.45 70.61 0.613 7.8 4.74 8.4
8/11/2023 1:15:00 PM 21.51 70.718 0.613 7.81 4.59 8.41
8/11/2023 1:30:00 PM 21.5 70.7 0.612 7.81 5.44 8.39
8/11/2023 1:45:00 PM 21.46 70.628 0.612 7.81 3.98 8.32
8/11/2023 2:00:00 PM 21.41 70.538 0.612 7.81 5.42 8.27
8/11/2023 2:15:00 PM 21.49 70.682 0.611 7.81 4.16 8.36
8/11/2023 2:30:00 PM 21.59 70.862 0.611 7.82 4.24 8.39
8/11/2023 2:45:00 PM 21.64 70.952 0.611 7.82 4.53 8.34
8/11/2023 3:00:00 PM 21.69 71.042 0.61 7.82 6.34 8.38
8/11/2023 3:15:00 PM 21.77 71.186 0.61 7.83 3.87 8.39
8/11/2023 3:30:00 PM 21.8 71.24 0.61 7.84 4.19 8.34
8/11/2023 3:45:00 PM 21.88 71.384 0.609 7.84 3.54 8.35
8/11/2023 4:00:00 PM 21.93 71.474 0.609 7.85 3.93 8.32
8/11/2023 4:15:00 PM 21.94 71.492 0.609 7.83 3.99 8.3
8/11/2023 4:30:00 PM 21.93 71.474 0.608 7.82 3.36 8.27
8/11/2023 4:45:00 PM 21.89 71.402 0.608 7.84 4.15 8.27
8/11/2023 5:00:00 PM 21.86 71.348 0.608 7.84 4.74 8.22
8/11/2023 5:15:00 PM 21.84 71.312 0.607 7.83 3.9 8.18
8/11/2023 5:30:00 PM 21.81 71.258 0.607 7.83 3.96 8.22
8/11/2023 5:45:00 PM 21.81 71.258 0.607 7.84 4.69 8.1
8/11/2023 6:00:00 PM 21.82 71.276 0.607 7.84 4.16 8.13
8/11/2023 6:15:00 PM 21.82 71.276 0.607 7.83 4.41 8.03
8/11/2023 6:30:00 PM 21.83 71.294 0.607 7.84 4.01 8.1
8/11/2023 6:45:00 PM 21.78 71.204 0.607 7.82 4.13 8.07
8/11/2023 7:00:00 PM 21.76 71.168 0.607 7.83 4.03 7.91
8/11/2023 7:15:00 PM 21.78 71.204 0.607 7.84 5.22 7.88
8/11/2023 7:30:00 PM 21.8 71.24 0.608 7.83 5.03 8.01
8/11/2023 7:45:00 PM 21.84 71.312 0.608 7.83 4.25 7.95
8/11/2023 8:00:00 PM 21.89 71.402 0.608 7.82 4.08 7.88
8/11/2023 8:15:00 PM 21.94 71.492 0.608 7.82 3.93 7.91
8/11/2023 8:30:00 PM 21.96 71.528 0.608 7.83 4.73 7.92
8/11/2023 8:45:00 PM 21.97 71.546 0.608 7.82 4.04 7.93
8/11/2023 9:00:00 PM 21.95 71.51 0.608 7.83 4.18 7.93
8/11/2023 9:15:00 PM 21.9 71.42 0.608 7.84 4.25 7.93
8/11/2023 9:30:00 PM 21.86 71.348 0.608 7.82 4.5 7.95
8/11/2023 9:45:00 PM 21.84 71.312 0.608 7.83 4.63 7.93
8/11/2023 10:00:00 PM 21.8 71.24 0.608 7.83 4.36 7.97
8/11/2023 10:15:00 PM 21.76 71.168 0.608 7.83 4.41 7.97
8/11/2023 10:30:00 PM 21.72 71.096 0.608 7.84 4.6 7.96
8/11/2023 10:45:00 PM 21.68 71.024 0.608 7.81 4.75 7.98
8/11/2023 11:00:00 PM 21.64 70.952 0.608 7.81 4.37 7.97
8/11/2023 11:15:00 PM 21.6 70.88 0.608 7.81 4.9 8
8/11/2023 11:30:00 PM 21.56 70.808 0.608 7.81 4.62 7.98
8/11/2023 11:45:00 PM 21.52 70.736 0.608 7.81 4.84 7.98
8/12/2023 12:00:00 AM 21.49 70.682 0.608 7.81 4.93 7.95
8/12/2023 12:15:00 AM 21.45 70.61 0.608 7.79 4.42 7.95
8/12/2023 12:30:00 AM 21.41 70.538 0.608 7.81 11.91 7.96
8/12/2023 12:45:00 AM 21.38 70.484 0.608 7.8 6.89 7.93
8/12/2023 1:00:00 AM 21.36 70.448 0.608 7.8 9.85 7.97
8/12/2023 1:15:00 AM 21.34 70.412 0.609 7.8 5.22 7.94
8/12/2023 1:30:00 AM 21.32 70.376 0.609 7.8 10.37 7.93
8/12/2023 1:45:00 AM 21.29 70.32201 0.609 7.8 7.47 7.95
8/12/2023 2:00:00 AM 21.25 70.25 0.609 7.79 5.46 7.96
8/12/2023 2:15:00 AM 21.21 70.17799 0.609 7.79 6.14 7.88
8/12/2023 2:30:00 AM 21.18 70.124 0.609 7.79 8.43 7.88
8/12/2023 2:45:00 AM 21.16 70.088 0.609 7.78 5.64 7.84
8/12/2023 3:00:00 AM 21.14 70.052 0.609 7.79 6.23 7.89
8/12/2023 3:15:00 AM 21.11 69.998 0.61 7.79 5.26 7.79
8/12/2023 3:30:00 AM 21.09 69.962 0.61 7.78 6.47 7.8
8/12/2023 3:45:00 AM 21.06 69.908 0.61 7.78 5.23 7.73
8/12/2023 4:00:00 AM 21.04 69.872 0.61 7.78 6.44 7.92
8/12/2023 4:15:00 AM 21 69.8 0.61 7.78 5.67 7.86
8/12/2023 4:30:00 AM 20.97 69.746 0.611 7.77 5.42 7.82
8/12/2023 4:45:00 AM 20.94 69.692 0.611 7.77 6.12 7.86
8/12/2023 5:00:00 AM 20.92 69.656 0.611 7.77 6.32 7.94
8/12/2023 5:15:00 AM 20.89 69.602 0.611 7.76 5.37 7.92
8/12/2023 5:30:00 AM 20.87 69.566 0.611 7.76 6.71 7.92
8/12/2023 5:45:00 AM 20.85 69.53 0.611 7.79 6.23 7.94
8/12/2023 6:00:00 AM 20.83 69.494 0.611 7.77 11.12 7.94
8/12/2023 6:15:00 AM 20.83 69.494 0.611 7.76 6.82 7.95
8/12/2023 6:30:00 AM 20.82 69.476 0.611 7.77 6.26 7.94
8/12/2023 6:45:00 AM 20.81 69.458 0.611 7.76 6.89 7.94
8/12/2023 7:00:00 AM 20.8 69.44 0.611 7.76 6.86 7.97
8/12/2023 7:15:00 AM 20.8 69.44 0.611 7.77 7.52 8.02
8/12/2023 7:30:00 AM 20.81 69.458 0.611 7.77 6.41 8.07
8/12/2023 7:45:00 AM 20.81 69.458 0.611 7.79 6.21 8.09
8/12/2023 8:00:00 AM 20.81 69.458 0.611 7.75 8.33 8.09
8/12/2023 8:15:00 AM 20.8 69.44 0.612 7.79 6.95 8.07
8/12/2023 8:30:00 AM 20.79 69.422 0.612 7.77 5.83 8.03
8/12/2023 8:45:00 AM 20.79 69.422 0.612 7.78 6.15 8.06
8/12/2023 9:00:00 AM 20.8 69.44 0.612 7.8 10.1 7.85
8/12/2023 9:15:00 AM 20.83 69.494 0.612 7.79 6.45 8.01
8/12/2023 9:30:00 AM 20.87 69.566 0.613 7.77 6.47 8.09
8/12/2023 9:45:00 AM 20.9 69.62 0.613 7.8 7.78 8.12
8/12/2023 10:00:00 AM 20.96 69.728 0.613 7.81 5.95 8.31
8/12/2023 10:15:00 AM 21.11 69.998 0.613 7.82 5.62 8.48
8/12/2023 10:30:00 AM 21.22 70.196 0.614 7.84 5.76 8.55
8/12/2023 10:45:00 AM 21.32 70.376 0.614 7.85 8.42 8.58
8/12/2023 11:00:00 AM 21.45 70.61 0.614 7.83 9.31 8.63
8/12/2023 11:15:00 AM 21.58 70.844 0.615 7.86 5.33 8.65
8/12/2023 11:30:00 AM 21.73 71.114 0.615 7.86 4.96 8.67
8/12/2023 11:45:00 AM 21.86 71.348 0.616 7.87 7.33 8.66
8/12/2023 12:00:00 PM 22.01 71.618 0.616 7.84 5.45 8.66
8/12/2023 12:15:00 PM 22.13 71.834 0.618 7.88 5.13 8.66
8/12/2023 12:30:00 PM 22.27 72.086 0.618 7.87 7.2 8.63
8/12/2023 12:45:00 PM 22.33 72.194 0.619 7.87 4.37 8.6
8/12/2023 1:00:00 PM 22.43 72.374 0.619 7.88 4.71 8.62
8/12/2023 1:15:00 PM 22.44 72.392 0.62 7.87 4.53 8.6
8/12/2023 1:30:00 PM 22.45 72.41 0.62 7.88 5.84 8.59
8/12/2023 1:45:00 PM 22.48 72.464 0.62 7.89 5.07 8.59
8/12/2023 2:00:00 PM 22.6 72.68 0.62 7.88 5.16 8.53
8/12/2023 2:15:00 PM 22.63 72.734 0.62 7.9 4.63 8.53
8/12/2023 2:30:00 PM 22.58 72.644 0.621 7.88 4 8.46
8/12/2023 2:45:00 PM 22.42 72.356 0.621 7.86 5.3 8.29
8/12/2023 3:00:00 PM 22.39 72.302 0.622 7.86 7.26 8.3
8/12/2023 3:15:00 PM 22.48 72.464 0.622 7.88 5.18 8.4
8/12/2023 3:30:00 PM 22.52 72.536 0.622 7.88 4.37 8.38
8/12/2023 3:45:00 PM 22.52 72.536 0.623 7.88 4.43 8.31
8/12/2023 4:00:00 PM 22.54 72.57201 0.623 7.87 5.8 8.34
8/12/2023 4:15:00 PM 22.58 72.644 0.623 7.88 4.28 8.36
8/12/2023 4:30:00 PM 22.61 72.698 0.624 7.88 4.46 8.31
8/12/2023 4:45:00 PM 22.62 72.716 0.624 7.89 3.99 8.31
8/12/2023 5:00:00 PM 22.62 72.716 0.625 7.87 4.27 8.25
8/12/2023 5:15:00 PM 22.59 72.662 0.625 7.89 5.33 8.21
8/12/2023 5:30:00 PM 22.52 72.536 0.625 7.89 4.23 8.25
8/12/2023 5:45:00 PM 22.47 72.446 0.625 7.87 4.11 8.22
8/12/2023 6:00:00 PM 22.43 72.374 0.626 7.88 5.72 8.2
8/12/2023 6:15:00 PM 22.4 72.32 0.626 7.86 4.94 8.18
8/12/2023 6:30:00 PM 22.42 72.356 0.626 7.87 8.16 8.12
8/12/2023 6:45:00 PM 22.45 72.41 0.627 7.86 3.96 8.06
8/12/2023 7:00:00 PM 22.49 72.482 0.627 7.87 3.89 8.04
8/12/2023 7:15:00 PM 22.52 72.536 0.628 7.86 3.85 8
8/12/2023 7:30:00 PM 22.55 72.59 0.628 7.86 4 7.93
8/12/2023 7:45:00 PM 22.61 72.698 0.628 7.8 3.94 7.9
8/12/2023 8:00:00 PM 22.65 72.77 0.628 7.86 4.01 7.85
8/12/2023 8:15:00 PM 22.68 72.824 0.629 7.87 7.34 7.83
8/12/2023 8:30:00 PM 22.69 72.842 0.629 7.86 6.39 7.85
8/12/2023 8:45:00 PM 22.68 72.824 0.629 7.85 4.89 7.83
8/12/2023 9:00:00 PM 22.69 72.842 0.629 7.86 4.46 7.82
8/12/2023 9:15:00 PM 22.68 72.824 0.629 7.86 5.17 7.85
8/12/2023 9:30:00 PM 22.65 72.77 0.629 7.85 6.35 7.86
8/12/2023 9:45:00 PM 22.64 72.752 0.629 7.85 7.79 7.83
8/12/2023 10:00:00 PM 22.64 72.752 0.63 7.83 14.23 7.85
8/12/2023 10:15:00 PM 22.62 72.716 0.63 7.82 6.88 7.85
8/12/2023 10:30:00 PM 22.61 72.698 0.63 7.83 6.42 7.85
8/12/2023 10:45:00 PM 22.6 72.68 0.63 7.84 4.83 7.86
8/12/2023 11:00:00 PM 22.6 72.68 0.629 7.82 4.47 7.86
8/12/2023 11:15:00 PM 22.58 72.644 0.628 7.84 4.34 7.87
8/12/2023 11:30:00 PM 22.57 72.626 0.629 7.83 4.68 7.85
8/12/2023 11:45:00 PM 22.53 72.554 0.629 7.84 4.78 7.85
8/13/2023 12:00:00 AM 22.45 72.41 0.628 7.85 4.41 7.87
8/13/2023 12:15:00 AM 22.33 72.194 0.628 7.84 4.58 7.87
8/13/2023 12:30:00 AM 22.18 71.924 0.628 7.83 5.01 7.88
8/13/2023 12:45:00 AM 22.13 71.834 0.628 7.82 4.26 7.88
8/13/2023 1:00:00 AM 22.16 71.888 0.629 7.84 4.47 7.88
8/13/2023 1:15:00 AM 22.23 72.014 0.63 7.82 4.34 7.87
8/13/2023 1:30:00 AM 22.28 72.104 0.63 7.84 4.07 7.87
8/13/2023 1:45:00 AM 22.3 72.14 0.631 7.82 3.81 7.86
8/13/2023 2:00:00 AM 22.28 72.104 0.631 7.83 6.02 7.87
8/13/2023 2:15:00 AM 22.26 72.068 0.632 7.77 4.06 7.86
8/13/2023 2:30:00 AM 22.24 72.032 0.633 7.83 4.71 7.87
8/13/2023 2:45:00 AM 22.22 71.996 0.634 7.84 4.99 7.87
8/13/2023 3:00:00 AM 22.18 71.924 0.634 7.82 3.99 7.89
8/13/2023 3:15:00 AM 22.14 71.852 0.635 7.82 4.31 7.88
8/13/2023 3:30:00 AM 22.09 71.762 0.635 7.82 4.67 7.88
8/13/2023 3:45:00 AM 22.05 71.69 0.636 7.83 4.29 7.9
8/13/2023 4:00:00 AM 22.02 71.636 0.637 7.81 4.87 7.91
8/13/2023 4:15:00 AM 21.99 71.582 0.638 7.82 4.57 7.91
8/13/2023 4:30:00 AM 21.95 71.51 0.638 7.81 4.89 7.92
8/13/2023 4:45:00 AM 21.94 71.492 0.639 7.82 5.66 7.93
8/13/2023 5:00:00 AM 21.92 71.456 0.639 7.81 114.81 7.93
8/13/2023 5:15:00 AM 21.89 71.402 0.64 7.79 15.3 7.91
8/13/2023 5:30:00 AM 21.87 71.366 0.641 7.79 15.16 7.92
8/13/2023 5:45:00 AM 21.85 71.33 0.641 7.8 8.35 7.92
8/13/2023 6:00:00 AM 21.82 71.276 0.642 7.81 8.12 7.92
8/13/2023 6:15:00 AM 21.8 71.24 0.642 7.8 29.82 7.91
8/13/2023 6:30:00 AM 21.78 71.204 0.642 7.75 5.28 7.92
8/13/2023 6:45:00 AM 21.76 71.168 0.643 7.79 6 7.93
8/13/2023 7:00:00 AM 21.75 71.15 0.643 7.81 4.78 7.94
8/13/2023 7:15:00 AM 21.74 71.132 0.643 7.81 4.28 7.95
8/13/2023 7:30:00 AM 21.73 71.114 0.643 7.79 4.16 7.97
8/13/2023 7:45:00 AM 21.72 71.096 0.644 7.8 4.8 7.97
8/13/2023 8:00:00 AM 21.72 71.096 0.645 7.8 4.93 7.96
8/13/2023 8:15:00 AM 21.73 71.114 0.645 7.81 5.42 7.99
8/13/2023 8:30:00 AM 21.74 71.132 0.645 7.81 4.14 8.02
8/13/2023 8:45:00 AM 21.76 71.168 0.646 7.82 3.91 8
8/13/2023 9:00:00 AM 21.81 71.258 0.647 7.84 4.08 8
8/13/2023 9:15:00 AM 21.86 71.348 0.647 7.82 4.25 8.07
8/13/2023 9:30:00 AM 21.9 71.42 0.649 7.82 3.76 8.05
8/13/2023 9:45:00 AM 21.99 71.582 0.649 7.83 4.1 8.2
8/13/2023 10:00:00 AM 22.05 71.69 0.65 7.88 4.56 8.21
8/13/2023 10:15:00 AM 22.13 71.834 0.651 7.85 4.47 8.25
8/13/2023 10:30:00 AM 22.16 71.888 0.651 7.86 4.6 8.26
8/13/2023 10:45:00 AM 22.28 72.104 0.651 7.87 3.88 8.34
8/13/2023 11:00:00 AM 22.36 72.248 0.652 7.84 4.06 8.35
8/13/2023 11:15:00 AM 22.46 72.42799 0.652 7.85 4.71 8.38
8/13/2023 11:30:00 AM 22.52 72.536 0.653 7.85 6.59 8.39
8/13/2023 11:45:00 AM 22.57 72.626 0.653 7.86 4.74 8.38
8/13/2023 12:00:00 PM 22.57 72.626 0.653 7.86 4.82 8.31
8/13/2023 12:15:00 PM 22.61 72.698 0.653 7.85 5.3 8.36
8/13/2023 12:30:00 PM 22.43 72.374 0.653 7.84 4.78 8.16
8/13/2023 12:45:00 PM 22.6 72.68 0.653 7.84 4.58 8.32
8/13/2023 1:00:00 PM 22.71 72.878 0.654 7.84 4.4 8.36
8/13/2023 1:15:00 PM 22.82 73.076 0.654 7.83 4.72 8.35
8/13/2023 1:30:00 PM 22.81 73.058 0.655 7.85 4.81 8.31
8/13/2023 1:45:00 PM 22.73 72.914 0.654 7.87 4.49 8.13
8/13/2023 2:00:00 PM 22.74 72.932 0.655 7.87 6.86 8.18
8/13/2023 2:15:00 PM 22.76 72.968 0.655 7.87 18.76 8.2
8/13/2023 2:30:00 PM 22.69 72.842 0.654 7.86 9.83 8.15
8/13/2023 2:45:00 PM 22.85 73.13 0.654 7.85 8.67 8.19
8/13/2023 3:00:00 PM 22.97 73.346 0.654 7.86 10.12 8.16
8/13/2023 3:15:00 PM 23.18 73.724 0.654 7.84 10.7 8.19
8/13/2023 3:30:00 PM 23.16 73.688 0.652 7.84 7.02 8.2
8/13/2023 3:45:00 PM 23.21 73.778 0.651 7.78 5.65 8.21
8/13/2023 4:00:00 PM 23.18 73.724 0.649 7.8 8.02 8.22
8/13/2023 4:15:00 PM 23.2 73.76 0.647 7.86 6.56 8.2
8/13/2023 4:30:00 PM 23.12 73.616 0.645 7.78 9.33 8.16
8/13/2023 4:45:00 PM 23.12 73.616 0.645 7.85 6.39 8.19
8/13/2023 5:00:00 PM 23.09 73.562 0.643 7.87 5.4 8.16
8/13/2023 5:15:00 PM 23.07 73.526 0.643 7.89 6.11 8.18
8/13/2023 5:30:00 PM 23.07 73.526 0.643 7.89 4.73 8.18
8/13/2023 5:45:00 PM 23.03 73.454 0.643 7.89 5.82 8.18
8/13/2023 6:00:00 PM 22.99 73.382 0.643 7.89 4.56 8.18
8/13/2023 6:15:00 PM 22.92 73.256 0.642 7.85 6.4 8.18
8/13/2023 6:30:00 PM 22.85 73.13 0.643 7.86 6.82 8.19
8/13/2023 6:45:00 PM 22.81 73.058 0.643 7.86 8.51 8.18
8/13/2023 7:00:00 PM 22.78 73.004 0.644 7.88 6.75 8.17
8/13/2023 7:15:00 PM 22.75 72.95 0.644 7.89 4.64 8.18
8/13/2023 7:30:00 PM 22.72 72.896 0.645 7.78 6.03 8.18
8/13/2023 7:45:00 PM 22.7 72.86 0.646 7.9 6.37 8.17
8/13/2023 8:00:00 PM 22.68 72.824 0.646 7.85 6.22 8.19
8/13/2023 8:15:00 PM 22.66 72.788 0.646 7.9 6.1 8.18
8/13/2023 8:30:00 PM 22.65 72.77 0.646 7.89 6.04 8.18
8/13/2023 8:45:00 PM 22.64 72.752 0.647 7.9 6.98 8.17
8/13/2023 9:00:00 PM 22.64 72.752 0.646 7.77 7.74 8.18
8/13/2023 9:15:00 PM 22.65 72.77 0.647 7.85 7.65 8.17
8/13/2023 9:30:00 PM 22.66 72.788 0.647 7.86 7.34 8.18
8/13/2023 9:45:00 PM 22.67 72.806 0.646 7.86 6.25 8.17
8/13/2023 10:00:00 PM 22.69 72.842 0.645 7.85 7.34 8.17
8/13/2023 10:15:00 PM 22.71 72.878 0.645 7.85 5.95 8.17
8/13/2023 10:30:00 PM 22.72 72.896 0.643 7.84 6.24 8.15
8/13/2023 10:45:00 PM 22.72 72.896 0.642 7.85 6.13 8.14
8/13/2023 11:00:00 PM 22.73 72.914 0.641 7.85 6.06 8.14
8/13/2023 11:15:00 PM 22.74 72.932 0.639 7.91 6.91 8.11
8/13/2023 11:30:00 PM 22.74 72.932 0.638 7.86 5.73 8.1
8/13/2023 11:45:00 PM 22.74 72.932 0.636 7.88 6.76 8.08
8/14/2023 12:00:00 AM 22.73 72.914 0.635 7.89 6.1 8.08
8/14/2023 12:15:00 AM 22.72 72.896 0.633 7.87 7.22 8.05
8/14/2023 12:30:00 AM 22.72 72.896 0.632 7.87 6.43 8.04
8/14/2023 12:45:00 AM 22.71 72.878 0.63 7.88 6.1 8.03
8/14/2023 1:00:00 AM 22.7 72.86 0.629 7.87 5.86 8.02
8/14/2023 1:15:00 AM 22.69 72.842 0.628 7.87 6.9 8
8/14/2023 1:30:00 AM 22.68 72.824 0.627 7.86 7.29 7.99
8/14/2023 1:45:00 AM 22.67 72.806 0.626 7.86 6.63 7.98
8/14/2023 2:00:00 AM 22.66 72.788 0.624 7.84 6.46 7.97
8/14/2023 2:15:00 AM 22.64 72.752 0.624 7.84 6.59 7.95
8/14/2023 2:30:00 AM 22.64 72.752 0.623 7.84 7.56 7.95
8/14/2023 2:45:00 AM 22.63 72.734 0.622 7.76 7.3 7.93
8/14/2023 3:00:00 AM 22.62 72.716 0.622 7.84 7.38 7.92
8/14/2023 3:15:00 AM 22.62 72.716 0.622 7.83 8.57 7.88
8/14/2023 3:30:00 AM 22.61 72.698 0.621 7.87 20.8 7.89
8/14/2023 3:45:00 AM 22.6 72.68 0.622 7.89 9.45 7.87
8/14/2023 4:00:00 AM 22.6 72.68 0.623 7.84 8.49 7.89
8/14/2023 4:15:00 AM 22.59 72.662 0.623 7.88 13.3 7.87
8/14/2023 4:30:00 AM 22.59 72.662 0.624 7.86 9.33 7.86
8/14/2023 4:45:00 AM 22.58 72.644 0.625 7.85 8.03 7.84
8/14/2023 5:00:00 AM 22.58 72.644 0.625 7.86 9.02 7.83
8/14/2023 5:15:00 AM 22.57 72.626 0.626 7.84 6.75 7.82
8/14/2023 5:30:00 AM 22.56 72.608 0.627 7.83 9.21 7.81
8/14/2023 5:45:00 AM 22.56 72.608 0.628 7.81 6.63 7.79
8/14/2023 6:00:00 AM 22.55 72.59 0.629 7.89 8.46 7.78
8/14/2023 6:15:00 AM 22.54 72.57201 0.63 7.81 7.11 7.77
8/14/2023 6:30:00 AM 22.53 72.554 0.631 7.81 8.18 7.75
8/14/2023 6:45:00 AM 22.52 72.536 0.631 7.79 6.59 7.75
8/14/2023 7:00:00 AM 22.52 72.536 0.631 7.8 6.24 7.73
8/14/2023 7:15:00 AM 22.52 72.536 0.632 7.79 8.39 7.76
8/14/2023 7:30:00 AM 22.51 72.518 0.632 7.8 5.9 7.77
8/14/2023 7:45:00 AM 22.51 72.518 0.632 7.79 6.22 7.8
8/14/2023 8:00:00 AM 22.51 72.518 0.631 7.79 7.11 7.76
8/14/2023 8:15:00 AM 22.5 72.5 0.631 7.8 7 7.77
8/14/2023 8:30:00 AM 22.51 72.518 0.63 7.79 7.4 7.79
8/14/2023 8:45:00 AM 22.51 72.518 0.629 7.79 6.56 7.8
8/14/2023 9:00:00 AM 22.51 72.518 0.629 7.78 5.33 7.8
8/14/2023 9:15:00 AM 22.51 72.518 0.628 7.79 6.53 7.8
8/14/2023 9:30:00 AM 22.51 72.518 0.628 7.82 6.38 7.77
8/14/2023 9:45:00 AM 22.52 72.536 0.627 7.81 5.65 7.85
8/14/2023 10:00:00 AM 22.55 72.59 0.625 7.81 7.27 7.92
8/14/2023 10:15:00 AM 22.57 72.626 0.625 7.81 6.34 7.95
8/14/2023 10:30:00 AM 22.61 72.698 0.624 7.84 13.73 8
8/14/2023 10:45:00 AM 22.62 72.716 0.623 7.82 6.05 7.89
8/14/2023 11:00:00 AM 22.66 72.788 0.622 7.82 5.55 7.99
8/14/2023 11:15:00 AM 22.79 73.022 0.621 7.82 6.23 8.15
8/14/2023 11:30:00 AM 22.83 73.094 0.62 7.85 5.33 8.13
8/14/2023 11:45:00 AM 22.93 73.274 0.619 7.85 6.38 8.14
8/14/2023 12:00:00 PM 23.01 73.418 0.617 7.85 5.32 8.16
8/14/2023 12:15:00 PM 23.08 73.544 0.616 7.84 5.09 8.17
8/14/2023 12:30:00 PM 23.18 73.724 0.616 7.85 4.76 8.17
8/14/2023 12:45:00 PM 23.19 73.742 0.615 7.84 4.71 8.13
8/14/2023 1:00:00 PM 23.19 73.742 0.614 7.86 4.83 8.1
8/14/2023 1:15:00 PM 23.16 73.688 0.613 7.83 5.84 7.93
8/14/2023 1:30:00 PM 23.18 73.724 0.612 7.84 12.11 7.96
8/14/2023 1:45:00 PM 23.24 73.832 0.611 7.83 5.59 8.03
8/14/2023 2:00:00 PM 23.22 73.796 0.61 7.83 9.72 7.94
8/14/2023 2:15:00 PM 23.22 73.796 0.609 7.82 5.61 7.9
8/14/2023 2:30:00 PM 23.2 73.76 0.608 7.84 26.01 7.84
8/14/2023 2:45:00 PM 23.17 73.706 0.606 7.81 6.47 7.81
8/14/2023 3:00:00 PM 23.15 73.67 0.605 7.83 4.97 7.76
8/14/2023 3:15:00 PM 23.18 73.724 0.603 7.81 5.77 7.92
8/14/2023 3:30:00 PM 23.25 73.85 0.601 7.81 5.35 8.05
8/14/2023 3:45:00 PM 23.32 73.976 0.6 7.82 4.52 8.05
8/14/2023 4:00:00 PM 23.43 74.174 0.599 7.86 5.47 8.09
8/14/2023 4:15:00 PM 23.41 74.138 0.598 7.83 4.7 7.97
8/14/2023 4:30:00 PM 23.44 74.192 0.597 7.85 5.35 7.96
8/14/2023 4:45:00 PM 23.45 74.21 0.595 7.84 4.58 7.96
8/14/2023 5:00:00 PM 23.41 74.138 0.594 7.83 11.4 7.88
8/14/2023 5:15:00 PM 23.37 74.066 0.595 7.85 5.22 7.86
8/14/2023 5:30:00 PM 23.28 73.904 0.594 7.82 5.17 7.84
8/14/2023 5:45:00 PM 23.2 73.76 0.593 7.81 5.47 7.79
8/14/2023 6:00:00 PM 23.17 73.706 0.592 7.83 4.68 7.77
8/14/2023 6:15:00 PM 23.1 73.58 0.591 7.81 12.32 7.74
8/14/2023 6:30:00 PM 23.04 73.472 0.589 7.8 13.27 7.71
8/14/2023 6:45:00 PM 23.01 73.418 0.587 7.79 5.29 7.69
8/14/2023 7:00:00 PM 23 73.4 0.585 7.82 5.12 7.69
8/14/2023 7:15:00 PM 22.99 73.382 0.584 7.72 4.81 7.67
8/14/2023 7:30:00 PM 22.96 73.328 0.583 7.77 4.43 7.66
8/14/2023 7:45:00 PM 22.94 73.292 0.58 7.77 4.51 7.63
8/14/2023 8:00:00 PM 22.93 73.274 0.578 7.77 4.52 7.65
8/14/2023 8:15:00 PM 22.89 73.202 0.576 7.77 9.96 7.65
8/14/2023 8:30:00 PM 22.88 73.184 0.574 7.79 4.81 7.66
8/14/2023 8:45:00 PM 22.87 73.166 0.572 7.68 8.05 7.61
8/14/2023 9:00:00 PM 22.84 73.112 0.571 7.79 6.33 7.66
8/14/2023 9:15:00 PM 22.81 73.058 0.571 7.76 5.44 7.66
8/14/2023 9:30:00 PM 22.77 72.986 0.569 7.76 5.44 7.66
8/14/2023 9:45:00 PM 22.73 72.914 0.567 7.76 5.94 7.63
8/14/2023 10:00:00 PM 22.69 72.842 0.565 7.75 5.6 7.68
8/14/2023 10:15:00 PM 22.65 72.77 0.564 7.75 4.77 7.68
8/14/2023 10:30:00 PM 22.62 72.716 0.562 7.78 4.91 7.66
8/14/2023 10:45:00 PM 22.59 72.662 0.56 7.75 5.29 7.68
8/14/2023 11:00:00 PM 22.56 72.608 0.557 7.77 4.81 7.68
8/14/2023 11:15:00 PM 22.54 72.57201 0.554 7.75 5.23 7.68
8/14/2023 11:30:00 PM 22.5 72.5 0.551 7.78 5.01 7.65
8/14/2023 11:45:00 PM 22.48 72.464 0.549 7.75 4.59 7.68
8/15/2023 12:00:00 AM 22.46 72.42799 0.547 7.74 4.9 7.68
8/15/2023 12:15:00 AM 22.46 72.42799 0.545 7.75 4.85 7.67
8/15/2023 12:30:00 AM 22.45 72.41 0.543 7.7 5.16 7.67
8/15/2023 12:45:00 AM 22.44 72.392 0.542 7.74 5.07 7.66
8/15/2023 1:00:00 AM 22.43 72.374 0.54 7.75 4.72 7.59
8/15/2023 1:15:00 AM 22.42 72.356 0.538 7.75 5.12 7.65
8/15/2023 1:30:00 AM 22.42 72.356 0.536 7.73 4.79 7.61
8/15/2023 1:45:00 AM 22.41 72.338 0.534 7.75 8.72 7.67
8/15/2023 2:00:00 AM 22.39 72.302 0.535 7.76 7.38 7.66
8/15/2023 2:15:00 AM 22.38 72.284 0.531 7.72 5.73 7.65
8/15/2023 2:30:00 AM 22.35 72.23 0.529 7.7 5.5 7.65
8/15/2023 2:45:00 AM 22.3 72.14 0.526 7.72 5.13 7.63
8/15/2023 3:00:00 AM 22.26 72.068 0.523 7.7 5.34 7.62
8/15/2023 3:15:00 AM 22.22 71.996 0.521 7.69 5.58 7.61
8/15/2023 3:30:00 AM 22.19 71.942 0.519 7.69 5.97 7.55
8/15/2023 3:45:00 AM 22.17 71.906 0.518 7.7 5.69 7.61
8/15/2023 4:00:00 AM 22.16 71.888 0.518 7.69 6.07 7.61
8/15/2023 4:15:00 AM 22.16 71.888 0.518 7.71 5.94 7.63
8/15/2023 4:30:00 AM 22.15 71.87 0.517 7.7 5.74 7.61
8/15/2023 4:45:00 AM 22.15 71.87 0.516 7.7 5.98 7.61
8/15/2023 5:00:00 AM 22.15 71.87 0.515 7.7 5.64 7.61
8/15/2023 5:15:00 AM 22.15 71.87 0.515 7.65 5.63 7.61
8/15/2023 5:30:00 AM 22.16 71.888 0.514 7.66 5.96 7.63
8/15/2023 5:45:00 AM 22.16 71.888 0.514 7.7 5.86 7.65
8/15/2023 6:00:00 AM 22.16 71.888 0.512 7.71 6.27 7.63
8/15/2023 6:15:00 AM 22.16 71.888 0.511 7.7 5.64 7.65
8/15/2023 6:30:00 AM 22.15 71.87 0.51 7.6 4.86 7.66
8/15/2023 6:45:00 AM 22.16 71.888 0.508 7.69 5.07 7.66
8/15/2023 7:00:00 AM 22.17 71.906 0.506 7.72 5.73 7.65
8/15/2023 7:15:00 AM 22.18 71.924 0.503 7.7 4.64 7.7
8/15/2023 7:30:00 AM 22.2 71.96 0.501 7.72 4.31 7.75
8/15/2023 7:45:00 AM 22.22 71.996 0.5 7.73 4.04 7.78
8/15/2023 8:00:00 AM 22.23 72.014 0.498 7.73 4.27 7.78
8/15/2023 8:15:00 AM 22.25 72.05 0.497 7.73 4.28 7.8
8/15/2023 8:30:00 AM 22.27 72.086 0.496 7.73 4.88 7.85
8/15/2023 8:45:00 AM 22.3 72.14 0.495 7.66 4.24 7.88
8/15/2023 9:00:00 AM 22.35 72.23 0.494 7.75 4.39 7.94
8/15/2023 9:15:00 AM 22.4 72.32 0.493 7.65 4.62 7.99
8/15/2023 9:30:00 AM 22.43 72.374 0.493 7.78 4.61 7.98
8/15/2023 9:45:00 AM 22.46 72.42799 0.492 7.76 4.38 7.97
8/15/2023 10:00:00 AM 22.48 72.464 0.492 7.64 4.14 7.96
8/15/2023 10:15:00 AM 22.51 72.518 0.491 7.67 4.16 7.97
8/15/2023 10:30:00 AM 22.56 72.608 0.49 7.8 4.54 8.01
8/15/2023 10:45:00 AM 22.66 72.788 0.489 7.77 4.53 8.06
8/15/2023 11:00:00 AM 22.69 72.842 0.488 7.74 4.55 8.02
8/15/2023 11:15:00 AM 22.75 72.95 0.487 7.74 4.86 8.08
8/15/2023 11:30:00 AM 22.95 73.31 0.487 7.78 4.42 8.19
8/15/2023 11:45:00 AM 23.01 73.418 0.486 7.76 3.91 8.16
8/15/2023 12:00:00 PM 23.04 73.472 0.485 7.76 4.49 8.12
8/15/2023 12:15:00 PM 23.08 73.544 0.485 7.76 4.18 8.11
8/15/2023 12:30:00 PM 23.14 73.652 0.485 7.78 4.43 8.08
8/15/2023 12:45:00 PM 23.18 73.724 0.484 7.76 4.5 8.07
8/15/2023 1:00:00 PM 23.23 73.814 0.483 7.68 4.76 8.1
8/15/2023 1:15:00 PM 23.34 74.012 0.483 7.8 4.7 8.13
8/15/2023 1:30:00 PM 23.22 73.796 0.483 7.78 7.59 8.02
8/15/2023 1:45:00 PM 23.35 74.03 0.482 7.79 5.68 8.04
8/15/2023 2:00:00 PM 23.44 74.192 0.482 7.8 4.92 8.12
8/15/2023 2:15:00 PM 23.34 74.012 0.482 7.76 4.81 7.87
8/15/2023 2:30:00 PM 23.37 74.066 0.482 7.76 4.85 7.94
8/15/2023 2:45:00 PM 23.5 74.3 0.482 7.77 4.28 8.01
8/15/2023 3:00:00 PM 23.54 74.372 0.482 7.79 4.5 7.92
8/15/2023 3:15:00 PM 23.61 74.498 0.481 7.79 4.01 8.01
8/15/2023 3:30:00 PM 23.62 74.516 0.482 7.78 58.06 7.99
8/15/2023 3:45:00 PM 23.65 74.57 0.482 7.77 4.81 7.97
8/15/2023 4:00:00 PM 23.62 74.516 0.482 7.77 7.71 7.96
8/15/2023 4:15:00 PM 23.57 74.426 0.483 7.77 6.9 7.96
8/15/2023 4:30:00 PM 23.53 74.354 0.483 7.67 7.09 7.94
8/15/2023 4:45:00 PM 23.57 74.426 0.484 7.76 7.6 7.92
8/15/2023 5:00:00 PM 23.76 74.768 0.485 7.76 5.97 7.9
8/15/2023 5:15:00 PM 23.96 75.128 0.486 7.76 5.66 7.88
8/15/2023 5:30:00 PM 23.94 75.092 0.487 7.63 6.36 7.88
8/15/2023 5:45:00 PM 23.89 75.002 0.488 7.64 6.41 7.9
8/15/2023 6:00:00 PM 23.82 74.876 0.49 7.77 6.12 7.87
8/15/2023 6:15:00 PM 23.72 74.696 0.493 7.71 5.56 7.9
8/15/2023 6:30:00 PM 23.64 74.552 0.495 7.81 5.11 7.9
8/15/2023 6:45:00 PM 23.56 74.408 0.498 7.68 5.59 7.9
8/15/2023 7:00:00 PM 23.5 74.3 0.501 7.74 5.67 7.87
8/15/2023 7:15:00 PM 23.41 74.138 0.503 7.75 5.64 7.89
8/15/2023 7:30:00 PM 23.31 73.958 0.505 7.76 5.74 7.89
8/15/2023 7:45:00 PM 23.21 73.778 0.508 7.75 6.93 7.88
8/15/2023 8:00:00 PM 23.12 73.616 0.511 7.63 6.04 7.91
8/15/2023 8:15:00 PM 23.07 73.526 0.514 7.73 6.1 7.92
8/15/2023 8:30:00 PM 23.04 73.472 0.517 7.74 5.66 7.91
8/15/2023 8:45:00 PM 23.03 73.454 0.519 7.72 6.19 7.9
8/15/2023 9:00:00 PM 23.03 73.454 0.52 7.76 5.95 7.92
8/15/2023 9:15:00 PM 23.06 73.508 0.521 7.76 5.74 7.95
8/15/2023 9:30:00 PM 23.11 73.598 0.522 7.77 5.66 7.94
8/15/2023 9:45:00 PM 23.17 73.706 0.523 7.76 5.64 7.99
8/15/2023 10:00:00 PM 23.23 73.814 0.523 7.68 6.17 7.99
8/15/2023 10:15:00 PM 23.28 73.904 0.524 7.79 5.11 7.98
8/15/2023 10:30:00 PM 23.34 74.012 0.524 7.77 5.67 7.99
8/15/2023 10:45:00 PM 23.38 74.084 0.523 7.81 6.04 7.98
8/15/2023 11:00:00 PM 23.42 74.156 0.522 7.82 5.62 7.97
8/15/2023 11:15:00 PM 23.45 74.21 0.522 7.82 5.51 7.96
8/15/2023 11:30:00 PM 23.47 74.246 0.521 7.81 6.39 7.94
8/15/2023 11:45:00 PM 23.49 74.282 0.52 7.8 5.76 7.93
8/16/2023 12:00:00 AM 23.5 74.3 0.518 7.81 6.93 7.92
8/16/2023 12:15:00 AM 23.51 74.318 0.517 7.82 6.03 7.89
8/16/2023 12:30:00 AM 23.52 74.336 0.516 7.79 12.7 7.85
8/16/2023 12:45:00 AM 23.53 74.354 0.515 7.81 6.6 7.86
8/16/2023 1:00:00 AM 23.53 74.354 0.514 7.82 6.97 7.85
8/16/2023 1:15:00 AM 23.53 74.354 0.513 7.82 6.51 7.83
8/16/2023 1:30:00 AM 23.53 74.354 0.512 7.81 7.96 7.84
8/16/2023 1:45:00 AM 23.53 74.354 0.511 7.81 7.06 7.8
8/16/2023 2:00:00 AM 23.54 74.372 0.51 7.79 6.8 7.79
8/16/2023 2:15:00 AM 23.54 74.372 0.51 7.81 6.79 7.78
8/16/2023 2:30:00 AM 23.55 74.39 0.51 7.67 6.77 7.78
8/16/2023 2:45:00 AM 23.55 74.39 0.51 7.81 6.95 7.77
8/16/2023 3:00:00 AM 23.55 74.39 0.51 7.83 7.17 7.74
8/16/2023 3:15:00 AM 23.55 74.39 0.51 7.79 8.18 7.73
8/16/2023 3:30:00 AM 23.54 74.372 0.51 7.8 6.68 7.72
8/16/2023 3:45:00 AM 23.54 74.372 0.511 7.79 7.03 7.71
8/16/2023 4:00:00 AM 23.54 74.372 0.511 7.76 7.21 7.69
8/16/2023 4:15:00 AM 23.53 74.354 0.511 7.76 6.93 7.69
8/16/2023 4:30:00 AM 23.52 74.336 0.512 7.73 7.06 7.67
8/16/2023 4:45:00 AM 23.51 74.318 0.512 7.79 7.18 7.64
8/16/2023 5:00:00 AM 23.5 74.3 0.513 7.78 7.43 7.63
8/16/2023 5:15:00 AM 23.49 74.282 0.513 7.78 8.13 7.63
8/16/2023 5:30:00 AM 23.48 74.264 0.514 7.8 6.8 7.62
8/16/2023 5:45:00 AM 23.46 74.228 0.514 7.77 7.02 7.6
8/16/2023 6:00:00 AM 23.44 74.192 0.515 7.76 9.8 7.58
8/16/2023 6:15:00 AM 23.42 74.156 0.516 7.76 7.65 7.59
8/16/2023 6:30:00 AM 23.4 74.12 0.516 7.76 7.71 7.59
8/16/2023 6:45:00 AM 23.39 74.102 0.517 7.67 7.74 7.59
8/16/2023 7:00:00 AM 23.36 74.048 0.518 7.76 7.73 7.59
8/16/2023 7:15:00 AM 23.35 74.03 0.518 7.77 7.22 7.58
8/16/2023 7:30:00 AM 23.33 73.994 0.519 7.77 7.2 7.59
8/16/2023 7:45:00 AM 23.32 73.976 0.52 7.77 6.95 7.6
8/16/2023 8:00:00 AM 23.3 73.94 0.521 7.75 7.17 7.6
8/16/2023 8:15:00 AM 23.29 73.922 0.522 7.72 7.2 7.61
8/16/2023 8:30:00 AM 23.29 73.922 0.523 7.78 7.26 7.62
8/16/2023 8:45:00 AM 23.28 73.904 0.524 7.77 6.87 7.64
8/16/2023 9:00:00 AM 23.29 73.922 0.524 7.78 7.07 7.67
8/16/2023 9:15:00 AM 23.31 73.958 0.525 7.77 6.8 7.7
8/16/2023 9:30:00 AM 23.35 74.03 0.526 7.76 6.88 7.73
8/16/2023 9:45:00 AM 23.39 74.102 0.527 7.77 6.83 7.77
8/16/2023 10:00:00 AM 23.43 74.174 0.528 7.78 6.46 7.8
8/16/2023 10:15:00 AM 23.48 74.264 0.529 7.78 6.95 7.85
8/16/2023 10:30:00 AM 23.52 74.336 0.53 7.79 6.34 7.86
8/16/2023 10:45:00 AM 23.6 74.48 0.53 7.79 6.22 7.92
8/16/2023 11:00:00 AM 23.65 74.57 0.531 7.8 6.13 7.95
8/16/2023 11:15:00 AM 23.62 74.516 0.532 7.79 5.94 7.89
8/16/2023 11:30:00 AM 23.67 74.606 0.532 7.8 6.3 7.92
8/16/2023 11:45:00 AM 23.69 74.642 0.532 7.81 6.27 7.95
8/16/2023 12:00:00 PM 23.65 74.57 0.532 7.84 6.41 7.9
8/16/2023 12:15:00 PM 23.64 74.552 0.532 7.84 6.3 7.92
8/16/2023 12:30:00 PM 23.66 74.588 0.532 7.82 5.82 7.91
8/16/2023 12:45:00 PM 23.76 74.768 0.532 7.74 5.09 7.96
8/16/2023 1:00:00 PM 23.83 74.894 0.531 7.81 6.04 8.01
8/16/2023 1:15:00 PM 23.74 74.732 0.53 7.81 5.63 7.88
8/16/2023 1:30:00 PM 23.74 74.732 0.529 7.77 5.83 7.91
8/16/2023 1:45:00 PM 23.73 74.714 0.529 7.78 6.11 7.83
8/16/2023 2:00:00 PM 23.7 74.66 0.528 7.82 5.43 7.79
8/16/2023 2:15:00 PM 23.74 74.732 0.526 7.81 7.09 7.91
8/16/2023 2:30:00 PM 23.8 74.84 0.525 7.79 5.76 7.96
8/16/2023 2:45:00 PM 23.94 75.092 0.523 7.82 5.33 8.02
8/16/2023 3:00:00 PM 23.91 75.038 0.522 7.82 5.78 7.92
8/16/2023 3:15:00 PM 23.95 75.11 0.52 7.7 5.22 7.94
8/16/2023 3:30:00 PM 23.98 75.164 0.519 7.83 5.5 7.9
8/16/2023 3:45:00 PM 23.97 75.146 0.516 7.77 5.7 7.89
8/16/2023 4:00:00 PM 24.05 75.29 0.515 7.83 4.82 7.94
8/16/2023 4:15:00 PM 24.08 75.344 0.512 7.85 5.16 7.89
8/16/2023 4:30:00 PM 24.1 75.38 0.512 7.84 4.94 7.84
8/16/2023 4:45:00 PM 24.04 75.272 0.509 7.81 7.19 7.81
8/16/2023 5:00:00 PM 23.98 75.164 0.506 7.81 5.26 7.8
8/16/2023 5:15:00 PM 23.93 75.074 0.504 7.81 5.23 7.75
8/16/2023 5:30:00 PM 23.9 75.02 0.501 7.74 5.36 7.72
8/16/2023 5:45:00 PM 23.94 75.092 0.5 7.79 5.5 7.75
8/16/2023 6:00:00 PM 24 75.2 0.497 7.71 5.32 7.7
8/16/2023 6:15:00 PM 24.04 75.272 0.493 7.74 4.83 7.71
8/16/2023 6:30:00 PM 24.07 75.326 0.493 7.75 5.2 7.7
8/16/2023 6:45:00 PM 24.08 75.344 0.49 7.82 4.98 7.69
8/16/2023 7:00:00 PM 24.09 75.362 0.49 7.83 6.08 7.67
8/16/2023 7:15:00 PM 24.09 75.362 0.488 7.8 4.63 7.66
8/16/2023 7:30:00 PM 24.09 75.362 0.486 7.73 4.79 7.65
8/16/2023 7:45:00 PM 24.04 75.272 0.483 7.78 4.64 7.63
8/16/2023 8:00:00 PM 23.99 75.182 0.48 7.8 5.49 7.62
8/16/2023 8:15:00 PM 23.94 75.092 0.478 7.79 4.78 7.63
8/16/2023 8:30:00 PM 23.9 75.02 0.475 7.77 6.02 7.61
8/16/2023 8:45:00 PM 23.86 74.948 0.474 7.78 6.36 7.62
8/16/2023 9:00:00 PM 23.82 74.876 0.472 7.79 5.74 7.62
8/16/2023 9:15:00 PM 23.77 74.786 0.47 7.78 5.48 7.63
8/16/2023 9:30:00 PM 23.71 74.67799 0.468 7.77 5.39 7.65
8/16/2023 9:45:00 PM 23.66 74.588 0.467 7.75 5.34 7.65
8/16/2023 10:00:00 PM 23.61 74.498 0.466 7.75 5.76 7.66
8/16/2023 10:15:00 PM 23.55 74.39 0.465 7.76 5.02 7.67
8/16/2023 10:30:00 PM 23.51 74.318 0.464 7.73 5.36 7.65
8/16/2023 10:45:00 PM 23.46 74.228 0.462 7.76 5.1 7.67
8/16/2023 11:00:00 PM 23.42 74.156 0.462 7.72 5.18 7.66
8/16/2023 11:15:00 PM 23.37 74.066 0.46 7.77 5.6 7.66
8/16/2023 11:30:00 PM 23.33 73.994 0.46 7.76 5.73 7.65
8/16/2023 11:45:00 PM 23.29 73.922 0.458 7.78 5.37 7.65
8/17/2023 12:00:00 AM 23.26 73.868 0.457 7.75 5.48 7.66
8/17/2023 12:15:00 AM 23.23 73.814 0.456 7.75 5.75 7.65
8/17/2023 12:30:00 AM 23.19 73.742 0.457 7.76 5.83 7.64
8/17/2023 12:45:00 AM 23.16 73.688 0.456 7.75 5.65 7.64
8/17/2023 1:00:00 AM 23.13 73.634 0.456 7.74 5.72 7.64
8/17/2023 1:15:00 AM 23.1 73.58 0.456 7.71 5.81 7.61
8/17/2023 1:30:00 AM 23.07 73.526 0.455 7.72 6.57 7.61
8/17/2023 1:45:00 AM 23.04 73.472 0.453 7.71 6.64 7.61
8/17/2023 2:00:00 AM 23.01 73.418 0.452 7.71 6.48 7.6
8/17/2023 2:15:00 AM 22.97 73.346 0.451 7.67 6.75 7.61
8/17/2023 2:30:00 AM 22.93 73.274 0.449 7.69 7.51 7.61
8/17/2023 2:45:00 AM 22.9 73.22 0.447 7.71 7.27 7.62
8/17/2023 3:00:00 AM 22.87 73.166 0.446 7.69 7.65 7.63
8/17/2023 3:15:00 AM 22.84 73.112 0.444 7.69 7.54 7.63
8/17/2023 3:30:00 AM 22.8 73.04 0.443 7.69 7.49 7.62
8/17/2023 3:45:00 AM 22.77 72.986 0.442 7.72 8.24 7.64
8/17/2023 4:00:00 AM 22.73 72.914 0.442 7.7 8.31 7.64
8/17/2023 4:15:00 AM 22.7 72.86 0.44 7.69 8.31 7.65
8/17/2023 4:30:00 AM 22.66 72.788 0.439 7.69 8.51 7.65
8/17/2023 4:45:00 AM 22.63 72.734 0.438 7.7 8.23 7.66
8/17/2023 5:00:00 AM 22.59 72.662 0.437 7.71 7.64 7.67
8/17/2023 5:15:00 AM 22.55 72.59 0.436 7.67 8.18 7.65
8/17/2023 5:30:00 AM 22.52 72.536 0.435 7.7 8.18 7.67
8/17/2023 5:45:00 AM 22.49 72.482 0.435 7.68 7.52 7.66
8/17/2023 6:00:00 AM 22.46 72.42799 0.434 7.7 9.23 7.66
8/17/2023 6:15:00 AM 22.44 72.392 0.434 7.67 8.87 7.67
8/17/2023 6:30:00 AM 22.42 72.356 0.433 7.67 11.16 7.68
8/17/2023 6:45:00 AM 22.4 72.32 0.433 7.7 9.26 7.67
8/17/2023 7:00:00 AM 22.4 72.32 0.433 7.65 8.91 7.71
8/17/2023 7:15:00 AM 22.4 72.32 0.433 7.71 8.75 7.72
8/17/2023 7:30:00 AM 22.39 72.302 0.433 7.7 8.37 7.73
8/17/2023 7:45:00 AM 22.4 72.32 0.433 7.68 7.73 7.74
8/17/2023 8:00:00 AM 22.41 72.338 0.433 7.74 7.27 7.77
8/17/2023 8:15:00 AM 22.43 72.374 0.433 7.72 7.38 7.81
8/17/2023 8:30:00 AM 22.46 72.42799 0.432 7.7 7.06 7.85
8/17/2023 8:45:00 AM 22.48 72.464 0.433 7.69 6.94 7.88
8/17/2023 9:00:00 AM 22.51 72.518 0.433 7.74 6.55 7.91
8/17/2023 9:15:00 AM 22.58 72.644 0.433 7.77 6.3 7.95
8/17/2023 9:30:00 AM 22.65 72.77 0.433 7.77 6.02 8
8/17/2023 9:45:00 AM 22.74 72.932 0.434 7.78 6.73 8.04
8/17/2023 10:00:00 AM 22.79 73.022 0.434 7.75 5.92 8.04
8/17/2023 10:15:00 AM 22.81 73.058 0.434 7.75 6.46 8.05
8/17/2023 10:30:00 AM 22.91 73.238 0.435 7.76 5.72 8.06
8/17/2023 10:45:00 AM 23.03 73.454 0.435 7.76 5.44 8.16
8/17/2023 11:00:00 AM 23.24 73.832 0.436 7.78 6.28 8.24
8/17/2023 11:15:00 AM 23.28 73.904 0.436 7.79 5.59 8.23
8/17/2023 11:30:00 AM 23.38 74.084 0.437 7.8 5.23 8.22
8/17/2023 11:45:00 AM 23.58 74.444 0.437 7.78 9.41 8.26
8/17/2023 12:00:00 PM 23.58 74.444 0.439 7.8 8.14 8.15
8/17/2023 12:15:00 PM 23.58 74.444 0.439 7.81 5.18 8.12
8/17/2023 12:30:00 PM 23.68 74.624 0.439 7.79 5.14 8.13
8/17/2023 12:45:00 PM 23.61 74.498 0.44 7.81 5.61 8.02
8/17/2023 1:00:00 PM 23.66 74.588 0.44 7.82 6.37 8.1
8/17/2023 1:15:00 PM 23.54 74.372 0.441 7.81 7.15 7.99
8/17/2023 1:30:00 PM 23.7 74.66 0.441 7.74 6 8.15
8/17/2023 1:45:00 PM 23.8 74.84 0.442 7.82 5.44 8.14
8/17/2023 2:00:00 PM 23.88 74.984 0.443 7.83 5.25 8.09
8/17/2023 2:15:00 PM 23.81 74.858 0.444 7.82 5.25 7.93
8/17/2023 2:30:00 PM 23.93 75.074 0.445 7.74 4.93 8.05
8/17/2023 2:45:00 PM 23.95 75.11 0.445 7.84 4.94 8.02
8/17/2023 3:00:00 PM 24.04 75.272 0.447 7.84 4.95 8.05
8/17/2023 3:15:00 PM 23.96 75.128 0.448 7.83 5.07 7.85
8/17/2023 3:30:00 PM 23.87 74.966 0.448 7.82 5.01 7.81
8/17/2023 3:45:00 PM 23.83 74.894 0.45 7.7 4.78 7.8
8/17/2023 4:00:00 PM 23.76 74.768 0.451 7.79 4.89 7.76
8/17/2023 4:15:00 PM 23.81 74.858 0.452 7.72 5.17 7.83
8/17/2023 4:30:00 PM 23.75 74.75 0.453 7.81 5.04 7.75
8/17/2023 4:45:00 PM 23.69 74.642 0.454 7.7 5.06 7.6
8/17/2023 5:00:00 PM 23.66 74.588 0.455 7.8 5.75 7.62
8/17/2023 5:15:00 PM 23.67 74.606 0.457 7.79 6.04 7.67
8/17/2023 5:30:00 PM 23.64 74.552 0.457 7.79 4.89 7.64
8/17/2023 5:45:00 PM 23.63 74.534 0.458 7.78 5.19 7.63
8/17/2023 6:00:00 PM 23.64 74.552 0.459 7.7 5.46 7.55
8/17/2023 6:15:00 PM 23.64 74.552 0.46 7.78 4.99 7.53
8/17/2023 6:30:00 PM 23.62 74.516 0.462 7.8 4.88 7.55
8/17/2023 6:45:00 PM 23.58 74.444 0.463 7.78 4.47 7.51
8/17/2023 7:00:00 PM 23.55 74.39 0.464 7.78 5.28 7.45
8/17/2023 7:15:00 PM 23.49 74.282 0.464 7.78 4.83 7.48
8/17/2023 7:30:00 PM 23.44 74.192 0.465 7.74 5.04 7.46
8/17/2023 7:45:00 PM 23.4 74.12 0.466 7.76 5.58 7.48
8/17/2023 8:00:00 PM 23.36 74.048 0.467 7.74 5.34 7.45
8/17/2023 8:15:00 PM 23.31 73.958 0.467 7.74 5.85 7.41
8/17/2023 8:30:00 PM 23.28 73.904 0.468 7.75 5.35 7.42
8/17/2023 8:45:00 PM 23.23 73.814 0.468 7.71 6.42 7.4
8/17/2023 9:00:00 PM 23.19 73.742 0.469 7.74 5.95 7.41
8/17/2023 9:15:00 PM 23.16 73.688 0.469 7.72 5.91 7.4
8/17/2023 9:30:00 PM 23.14 73.652 0.47 7.73 6.19 7.41
8/17/2023 9:45:00 PM 23.13 73.634 0.472 7.72 6.47 7.41
8/17/2023 10:00:00 PM 23.14 73.652 0.473 7.73 7.46 7.4
8/17/2023 10:15:00 PM 23.15 73.67 0.475 7.73 6.59 7.4
8/17/2023 10:30:00 PM 23.17 73.706 0.475 7.74 5.84 7.4
8/17/2023 10:45:00 PM 23.17 73.706 0.476 7.72 5.64 7.4
8/17/2023 11:00:00 PM 23.17 73.706 0.477 7.73 5.57 7.4
8/17/2023 11:15:00 PM 23.15 73.67 0.478 7.73 5 7.41
8/17/2023 11:30:00 PM 23.12 73.616 0.479 7.73 5.16 7.41
8/17/2023 11:45:00 PM 23.09 73.562 0.481 7.74 5.31 7.39
8/18/2023 12:00:00 AM 23.05 73.49 0.482 7.74 5.73 7.4
8/18/2023 12:15:00 AM 23.01 73.418 0.483 7.73 5.38 7.42
8/18/2023 12:30:00 AM 22.97 73.346 0.484 7.73 5.87 7.41
8/18/2023 12:45:00 AM 22.94 73.292 0.485 7.68 5.13 7.42
8/18/2023 1:00:00 AM 22.91 73.238 0.487 7.71 5.34 7.4
8/18/2023 1:15:00 AM 22.87 73.166 0.488 7.71 5.06 7.4
8/18/2023 1:30:00 AM 22.84 73.112 0.49 7.71 5.92 7.4
8/18/2023 1:45:00 AM 22.8 73.04 0.491 7.71 5.7 7.39
8/18/2023 2:00:00 AM 22.78 73.004 0.492 7.7 6.34 7.4
8/18/2023 2:15:00 AM 22.77 72.986 0.492 7.7 5.39 7.39
8/18/2023 2:30:00 AM 22.75 72.95 0.494 7.7 5.46 7.4
8/18/2023 2:45:00 AM 22.71 72.878 0.495 7.71 5.43 7.4
8/18/2023 3:00:00 AM 22.68 72.824 0.495 7.71 5.35 7.41
8/18/2023 3:15:00 AM 22.66 72.788 0.496 7.71 5.61 7.42
8/18/2023 3:30:00 AM 22.65 72.77 0.497 7.65 5.64 7.4
8/18/2023 3:45:00 AM 22.62 72.716 0.496 7.7 5.55 7.39
8/18/2023 4:00:00 AM 22.56 72.608 0.495 7.61 8.59 7.44
8/18/2023 4:15:00 AM 22.49 72.482 0.498 7.7 5.76 7.45
8/18/2023 4:30:00 AM 22.44 72.392 0.499 7.68 5.51 7.41
8/18/2023 4:45:00 AM 22.41 72.338 0.5 7.7 5.87 7.44
8/18/2023 5:00:00 AM 22.37 72.266 0.5 7.7 6.13 7.46
8/18/2023 5:15:00 AM 22.34 72.212 0.5 7.7 5.25 7.44
8/18/2023 5:30:00 AM 22.31 72.158 0.501 7.7 5.51 7.46
8/18/2023 5:45:00 AM 22.29 72.122 0.5 7.69 5.34 7.45
8/18/2023 6:00:00 AM 22.28 72.104 0.499 7.68 5.39 7.46
8/18/2023 6:15:00 AM 22.27 72.086 0.499 7.69 6.15 7.45
8/18/2023 6:30:00 AM 22.28 72.104 0.498 7.69 5.51 7.47
8/18/2023 6:45:00 AM 22.28 72.104 0.497 7.69 5.12 7.49
8/18/2023 7:00:00 AM 22.27 72.086 0.497 7.71 5.74 7.5
8/18/2023 7:15:00 AM 22.26 72.068 0.497 7.72 5.17 7.49
8/18/2023 7:30:00 AM 22.26 72.068 0.497 7.72 5.31 7.55
8/18/2023 7:45:00 AM 22.25 72.05 0.497 7.6 4.92 7.55
8/18/2023 8:00:00 AM 22.24 72.032 0.497 7.7 4.91 7.57
8/18/2023 8:15:00 AM 22.23 72.014 0.498 7.72 4.83 7.58
8/18/2023 8:30:00 AM 22.21 71.978 0.498 7.69 4.75 7.57
8/18/2023 8:45:00 AM 22.24 72.032 0.498 7.7 6.58 7.63
8/18/2023 9:00:00 AM 22.26 72.068 0.498 7.7 184.45 7.58
8/18/2023 9:15:00 AM 22.3 72.14 0.499 7.71 5.24 7.71
8/18/2023 9:30:00 AM 22.34 72.212 0.498 7.73 5.56 7.76
8/18/2023 9:45:00 AM 22.4 72.32 0.499 7.72 4.88 7.79
8/18/2023 10:00:00 AM 22.46 72.42799 0.499 7.72 5.74 7.83
8/18/2023 10:15:00 AM 22.53 72.554 0.5 7.74 5.14 7.88
8/18/2023 10:30:00 AM 22.59 72.662 0.5 7.74 5.29 7.92
8/18/2023 10:45:00 AM 22.65 72.77 0.5 7.76 5.55 7.95
8/18/2023 11:00:00 AM 22.69 72.842 0.5 7.73 5.72 7.95
8/18/2023 11:15:00 AM 22.6 72.68 0.5 7.74 5.7 7.83
8/18/2023 11:30:00 AM 22.55 72.59 0.5 7.74 5.42 7.77
8/18/2023 11:45:00 AM 22.7 72.86 0.5 7.75 5.58 7.97
8/18/2023 12:00:00 PM 22.79 73.022 0.501 7.75 5.48 8
8/18/2023 12:15:00 PM 22.84 73.112 0.5 7.77 5.44 8.02
8/18/2023 12:30:00 PM 22.91 73.238 0.5 7.78 5.55 8.07
8/18/2023 12:45:00 PM 22.9 73.22 0.5 7.78 5.66 8
8/18/2023 1:00:00 PM 22.88 73.184 0.5 7.78 6.63 7.95
8/18/2023 1:15:00 PM 22.97 73.346 0.5 7.78 5.71 8.03
8/18/2023 1:30:00 PM 22.89 73.202 0.5 7.7 6.11 7.93
8/18/2023 1:45:00 PM 22.91 73.238 0.5 7.75 5.32 7.93
8/18/2023 2:00:00 PM 22.95 73.31 0.5 7.79 5.7 7.94
8/18/2023 2:15:00 PM 23.04 73.472 0.5 7.8 5.8 8
8/18/2023 2:30:00 PM 23.01 73.418 0.5 7.73 5.54 7.92
8/18/2023 2:45:00 PM 23 73.4 0.5 7.79 5.43 7.9
8/18/2023 3:00:00 PM 23.01 73.418 0.5 7.78 5.03 7.88
8/18/2023 3:15:00 PM 23.1 73.58 0.5 7.8 5.06 7.96
8/18/2023 3:30:00 PM 23.14 73.652 0.5 7.8 5.96 7.93
8/18/2023 3:45:00 PM 23.12 73.616 0.501 7.8 5.04 7.87
8/18/2023 4:00:00 PM 23.09 73.562 0.5 7.66 4.83 7.82
8/18/2023 4:15:00 PM 23.07 73.526 0.5 7.77 5.68 7.8
8/18/2023 4:30:00 PM 23.08 73.544 0.5 7.78 5.06 7.81
8/18/2023 4:45:00 PM 23.08 73.544 0.5 7.78 5.55 7.76
8/18/2023 5:00:00 PM 23.1 73.58 0.501 7.77 5 7.74
8/18/2023 5:15:00 PM 23.1 73.58 0.501 7.77 5.32 7.67
8/18/2023 5:30:00 PM 23.09 73.562 0.501 7.79 4.97 7.71
8/18/2023 5:45:00 PM 23.06 73.508 0.501 7.79 5.52 7.68
8/18/2023 6:00:00 PM 23.02 73.436 0.501 7.77 4.98 7.67
8/18/2023 6:15:00 PM 23.01 73.418 0.501 7.76 5.2 7.62
8/18/2023 6:30:00 PM 23 73.4 0.501 7.77 4.72 7.64
8/18/2023 6:45:00 PM 22.98 73.364 0.502 7.78 5.09 7.6
8/18/2023 7:00:00 PM 22.95 73.31 0.502 7.77 4.74 7.59
8/18/2023 7:15:00 PM 22.94 73.292 0.502 7.69 4.67 7.6
8/18/2023 7:30:00 PM 22.93 73.274 0.502 7.64 5.1 7.56
8/18/2023 7:45:00 PM 22.92 73.256 0.502 7.76 11.76 7.47
8/18/2023 8:00:00 PM 22.9 73.22 0.503 7.77 5.49 7.51
8/18/2023 8:15:00 PM 22.89 73.202 0.503 7.78 5.46 7.5
8/18/2023 8:30:00 PM 22.88 73.184 0.503 7.77 5.28 7.48
8/18/2023 8:45:00 PM 22.87 73.166 0.503 7.76 5.74 7.51
8/18/2023 9:00:00 PM 22.84 73.112 0.503 7.76 5.18 7.53
8/18/2023 9:15:00 PM 22.82 73.076 0.504 7.77 5.19 7.55
8/18/2023 9:30:00 PM 22.8 73.04 0.504 7.75 5.23 7.53
8/18/2023 9:45:00 PM 22.76 72.968 0.504 7.74 6.07 7.55
8/18/2023 10:00:00 PM 22.72 72.896 0.504 7.65 5.74 7.53
8/18/2023 10:15:00 PM 22.68 72.824 0.504 7.63 5.16 7.49
8/18/2023 10:30:00 PM 22.65 72.77 0.505 7.76 5.92 7.51
8/18/2023 10:45:00 PM 22.6 72.68 0.505 7.76 5.64 7.51
8/18/2023 11:00:00 PM 22.56 72.608 0.506 7.76 5.84 7.51
8/18/2023 11:15:00 PM 22.53 72.554 0.506 7.65 6.31 7.57
8/18/2023 11:30:00 PM 22.49 72.482 0.507 7.73 5.9 7.53
8/18/2023 11:45:00 PM 22.45 72.41 0.507 7.75 6.56 7.56
8/19/2023 12:00:00 AM 22.42 72.356 0.508 7.75 5.83 7.55
8/19/2023 12:15:00 AM 22.38 72.284 0.508 7.74 7.2 7.56
8/19/2023 12:30:00 AM 22.34 72.212 0.509 7.73 7.31 7.54
8/19/2023 12:45:00 AM 22.29 72.122 0.509 7.75 6.78 7.58
8/19/2023 1:00:00 AM 22.25 72.05 0.51 7.76 8.82 7.57
8/19/2023 1:15:00 AM 22.21 71.978 0.509 7.76 7.12 7.53
8/19/2023 1:30:00 AM 22.16 71.888 0.51 7.69 6.95 7.61
8/19/2023 1:45:00 AM 22.12 71.816 0.51 7.76 6.78 7.61
8/19/2023 2:00:00 AM 22.07 71.726 0.51 7.64 7.29 7.6
8/19/2023 2:15:00 AM 22.02 71.636 0.51 7.75 7.26 7.63
8/19/2023 2:30:00 AM 21.96 71.528 0.511 7.75 7.37 7.65
8/19/2023 2:45:00 AM 21.9 71.42 0.511 7.75 7.48 7.64
8/19/2023 3:00:00 AM 21.84 71.312 0.511 7.74 7.33 7.65
8/19/2023 3:15:00 AM 21.78 71.204 0.512 7.75 7.77 7.66
8/19/2023 3:30:00 AM 21.73 71.114 0.512 7.75 7.25 7.65
8/19/2023 3:45:00 AM 21.67 71.006 0.512 7.64 8.13 7.67
8/19/2023 4:00:00 AM 21.62 70.916 0.514 7.73 7.59 7.66
8/19/2023 4:15:00 AM 21.56 70.808 0.513 7.75 8.02 7.67
8/19/2023 4:30:00 AM 21.51 70.718 0.514 7.75 8.02 7.68
8/19/2023 4:45:00 AM 21.45 70.61 0.514 7.73 8.53 7.66
8/19/2023 5:00:00 AM 21.39 70.502 0.515 7.72 8.28 7.68
8/19/2023 5:15:00 AM 21.33 70.394 0.515 7.74 8.04 7.69
8/19/2023 5:30:00 AM 21.27 70.286 0.516 7.71 7.44 7.71
8/19/2023 5:45:00 AM 21.22 70.196 0.516 7.72 8.17 7.69
8/19/2023 6:00:00 AM 21.16 70.088 0.517 7.74 7.65 7.69
8/19/2023 6:15:00 AM 21.1 69.98 0.518 7.72 8.19 7.71
8/19/2023 6:30:00 AM 21.05 69.89 0.518 7.73 7.81 7.7
8/19/2023 6:45:00 AM 21 69.8 0.518 7.7 7.95 7.73
8/19/2023 7:00:00 AM 20.95 69.71 0.519 7.73 7.88 7.74
8/19/2023 7:15:00 AM 20.91 69.638 0.519 7.71 7.21 7.76
8/19/2023 7:30:00 AM 20.88 69.584 0.519 7.71 7.41 7.78
8/19/2023 7:45:00 AM 20.86 69.548 0.52 7.71 7.33 7.79
8/19/2023 8:00:00 AM 20.83 69.494 0.52 7.74 6.91 7.83
8/19/2023 8:15:00 AM 20.82 69.476 0.52 7.75 6.57 7.86
8/19/2023 8:30:00 AM 20.81 69.458 0.52 7.74 6.32 7.86
8/19/2023 8:45:00 AM 20.81 69.458 0.521 7.76 10.72 7.94
8/19/2023 9:00:00 AM 20.82 69.476 0.521 7.74 6.49 7.99
8/19/2023 9:15:00 AM 20.85 69.53 0.521 7.77 6.52 8.06
8/19/2023 9:30:00 AM 20.89 69.602 0.521 7.75 6.36 8.11
8/19/2023 9:45:00 AM 20.95 69.71 0.521 7.77 6.6 8.17
8/19/2023 10:00:00 AM 20.99 69.782 0.521 7.78 6.79 8.19
8/19/2023 10:15:00 AM 21.07 69.926 0.521 7.8 7.07 8.22
8/19/2023 10:30:00 AM 21.14 70.052 0.522 7.71 6.31 8.3
8/19/2023 10:45:00 AM 21.19 70.142 0.522 7.77 6.27 8.33
8/19/2023 11:00:00 AM 21.26 70.268 0.522 7.81 7.37 8.4
8/19/2023 11:15:00 AM 21.33 70.394 0.522 7.81 5.91 8.38
8/19/2023 11:30:00 AM 21.4 70.52 0.522 7.82 6.16 8.48
8/19/2023 11:45:00 AM 21.46 70.628 0.523 7.84 6.04 8.5
8/19/2023 12:00:00 PM 21.51 70.718 0.523 7.82 5.64 8.51
8/19/2023 12:15:00 PM 21.54 70.772 0.524 7.83 5.49 8.48
8/19/2023 12:30:00 PM 21.59 70.862 0.524 7.85 5.82 8.51
8/19/2023 12:45:00 PM 21.59 70.862 0.525 7.79 5.9 8.5
8/19/2023 1:00:00 PM 21.62 70.916 0.525 7.88 5.42 8.5
8/19/2023 1:15:00 PM 21.63 70.934 0.526 7.86 5.56 8.47
8/19/2023 1:30:00 PM 21.64 70.952 0.527 7.85 5.91 8.49
8/19/2023 1:45:00 PM 21.64 70.952 0.528 7.87 5.21 8.48
8/19/2023 2:00:00 PM 21.66 70.988 0.529 7.86 5.21 8.46
8/19/2023 2:15:00 PM 21.69 71.042 0.53 7.87 6.67 8.44
8/19/2023 2:30:00 PM 21.7 71.06 0.531 7.86 5.66 8.41
8/19/2023 2:45:00 PM 21.72 71.096 0.532 7.87 5.23 8.43
8/19/2023 3:00:00 PM 21.76 71.168 0.532 7.87 5.31 8.38
8/19/2023 3:15:00 PM 21.8 71.24 0.533 7.88 5.09 8.38
8/19/2023 3:30:00 PM 21.82 71.276 0.534 7.88 4.89 8.33
8/19/2023 3:45:00 PM 21.83 71.294 0.535 7.89 4.78 8.34
8/19/2023 4:00:00 PM 21.84 71.312 0.536 7.87 4.73 8.31
8/19/2023 4:15:00 PM 21.87 71.366 0.537 7.88 4.73 8.29
8/19/2023 4:30:00 PM 21.84 71.312 0.538 7.88 4.56 8.28
8/19/2023 4:45:00 PM 21.82 71.276 0.54 7.88 5.17 8.24
8/19/2023 5:00:00 PM 21.81 71.258 0.541 7.88 4.7 8.24
8/19/2023 5:15:00 PM 21.81 71.258 0.542 7.86 4.89 8.22
8/19/2023 5:30:00 PM 21.8 71.24 0.543 7.89 5.5 8.2
8/19/2023 5:45:00 PM 21.81 71.258 0.544 7.88 4.5 8.15
8/19/2023 6:00:00 PM 21.82 71.276 0.545 7.86 4.73 8.12
8/19/2023 6:15:00 PM 21.81 71.258 0.546 7.87 7.51 8.09
8/19/2023 6:30:00 PM 21.78 71.204 0.547 7.85 5.61 8.08
8/19/2023 6:45:00 PM 21.76 71.168 0.548 7.83 4.75 8.03
8/19/2023 7:00:00 PM 21.72 71.096 0.549 7.86 4.66 8.05
8/19/2023 7:15:00 PM 21.7 71.06 0.55 7.87 5.46 8.04
8/19/2023 7:30:00 PM 21.67 71.006 0.551 7.86 4.18 8.04
8/19/2023 7:45:00 PM 21.65 70.97 0.551 7.73 4.97 8.01
8/19/2023 8:00:00 PM 21.62 70.916 0.551 7.84 5.65 7.99
8/19/2023 8:15:00 PM 21.59 70.862 0.552 7.84 6.45 7.98
8/19/2023 8:30:00 PM 21.56 70.808 0.552 7.85 5.08 7.96
8/19/2023 8:45:00 PM 21.53 70.754 0.552 7.86 4.93 7.94
8/19/2023 9:00:00 PM 21.49 70.682 0.551 7.83 4.6 7.98
8/19/2023 9:15:00 PM 21.46 70.628 0.552 7.84 5.29 7.99
8/19/2023 9:30:00 PM 21.41 70.538 0.552 7.82 5.19 8
8/19/2023 9:45:00 PM 21.37 70.466 0.553 7.85 4.91 8.01
8/19/2023 10:00:00 PM 21.32 70.376 0.554 7.84 5.16 7.99
8/19/2023 10:15:00 PM 21.27 70.286 0.554 7.83 5.86 8
8/19/2023 10:30:00 PM 21.23 70.214 0.554 7.84 7.46 7.99
8/19/2023 10:45:00 PM 21.19 70.142 0.555 7.8 5.23 7.99
8/19/2023 11:00:00 PM 21.15 70.07 0.557 7.84 5.24 8.01
8/19/2023 11:15:00 PM 21.1 69.98 0.559 7.83 4.76 8.02
8/19/2023 11:30:00 PM 21.06 69.908 0.561 7.69 4.96 8.04
8/19/2023 11:45:00 PM 21.02 69.836 0.563 7.82 4.78 8.06
8/20/2023 12:00:00 AM 20.98 69.764 0.565 7.72 5.13 8.08
8/20/2023 12:15:00 AM 20.94 69.692 0.566 7.81 5.07 8.07
8/20/2023 12:30:00 AM 20.9 69.62 0.568 7.81 5.51 8.05
8/20/2023 12:45:00 AM 20.87 69.566 0.569 7.76 5.21 8.08
8/20/2023 1:00:00 AM 20.84 69.512 0.571 7.71 5.14 8.09
8/20/2023 1:15:00 AM 20.79 69.422 0.572 7.82 4.93 8.08
8/20/2023 1:30:00 AM 20.76 69.368 0.574 7.8 4.86 8.09
8/20/2023 1:45:00 AM 20.72 69.296 0.575 7.82 4.72 8.09
8/20/2023 2:00:00 AM 20.68 69.224 0.577 7.71 5.11 8.08
8/20/2023 2:15:00 AM 20.64 69.152 0.578 7.84 5.14 8.08
8/20/2023 2:30:00 AM 20.6 69.08 0.579 7.82 5.26 8.07
8/20/2023 2:45:00 AM 20.57 69.026 0.58 7.81 5.4 8.08
8/20/2023 3:00:00 AM 20.53 68.954 0.582 7.69 5.92 8.09
8/20/2023 3:15:00 AM 20.49 68.882 0.583 7.83 5.56 8.08
8/20/2023 3:30:00 AM 20.45 68.81 0.585 7.82 6.76 8.1
8/20/2023 3:45:00 AM 20.4 68.72 0.586 7.81 5.74 8.09
8/20/2023 4:00:00 AM 20.37 68.666 0.586 7.69 5.3 8.09
8/20/2023 4:15:00 AM 20.33 68.594 0.587 7.79 6.31 8.08
8/20/2023 4:30:00 AM 20.29 68.522 0.588 7.69 5.44 8.1
8/20/2023 4:45:00 AM 20.25 68.45 0.588 7.78 6.74 8.1
8/20/2023 5:00:00 AM 20.21 68.378 0.588 7.79 5.98 8.07
8/20/2023 5:15:00 AM 20.16 68.288 0.588 7.8 6.49 8.1
8/20/2023 5:30:00 AM 20.12 68.216 0.589 7.78 6.53 8.08
8/20/2023 5:45:00 AM 20.08 68.144 0.589 7.8 6.36 8.02
8/20/2023 6:00:00 AM 20.03 68.054 0.59 7.79 6.95 8.07
8/20/2023 6:15:00 AM 19.99 67.982 0.59 7.79 6.5 8.09
8/20/2023 6:30:00 AM 19.95 67.91 0.59 7.77 8.06 8.09
8/20/2023 6:45:00 AM 19.91 67.838 0.59 7.75 6.7 8.13
8/20/2023 7:00:00 AM 19.88 67.784 0.591 7.78 6.44 8.14
8/20/2023 7:15:00 AM 19.84 67.712 0.591 7.81 6.43 8.15
8/20/2023 7:30:00 AM 19.82 67.676 0.592 7.8 6.92 8.18
8/20/2023 7:45:00 AM 19.8 67.64 0.592 7.79 6.76 8.21
8/20/2023 8:00:00 AM 19.79 67.622 0.592 7.82 6.66 8.23
8/20/2023 8:15:00 AM 19.78 67.604 0.592 7.8 6.15 8.24
8/20/2023 8:30:00 AM 19.79 67.622 0.593 7.81 5.94 8.29
8/20/2023 8:45:00 AM 19.8 67.64 0.593 7.8 6.2 8.31
8/20/2023 9:00:00 AM 19.82 67.676 0.594 7.81 6.21 8.37
8/20/2023 9:15:00 AM 19.87 67.766 0.594 7.82 5.96 8.43
8/20/2023 9:30:00 AM 19.93 67.874 0.595 7.8 6.39 8.36
8/20/2023 9:45:00 AM 19.99 67.982 0.596 7.79 5.73 8.55
8/20/2023 10:00:00 AM 20.07 68.126 0.596 7.81 5.87 8.57
8/20/2023 10:15:00 AM 20.14 68.252 0.597 7.83 5.5 8.63
8/20/2023 10:30:00 AM 20.22 68.396 0.597 7.81 5.76 8.67
8/20/2023 10:45:00 AM 20.31 68.558 0.598 7.85 5.28 8.72
8/20/2023 11:00:00 AM 20.4 68.72 0.598 7.83 5.47 8.77
8/20/2023 11:15:00 AM 20.48 68.864 0.599 7.83 4.98 8.8
8/20/2023 11:30:00 AM 20.57 69.026 0.599 7.88 5.81 8.82
8/20/2023 11:45:00 AM 20.71 69.278 0.599 7.88 6.17 8.82
8/20/2023 12:00:00 PM 20.86 69.548 0.599 7.91 5.41 8.81
8/20/2023 12:15:00 PM 20.91 69.638 0.6 7.92 6.02 8.78
8/20/2023 12:30:00 PM 20.99 69.782 0.6 7.92 5.07 8.82
8/20/2023 12:45:00 PM 20.98 69.764 0.6 7.91 4.7 8.81
8/20/2023 1:00:00 PM 21 69.8 0.6 7.91 4.9 8.82
8/20/2023 1:15:00 PM 21 69.8 0.6 7.9 5.21 8.82
8/20/2023 1:30:00 PM 21.01 69.818 0.6 7.89 5.4 8.81
8/20/2023 1:45:00 PM 21.03 69.854 0.601 7.88 4.85 8.81
8/20/2023 2:00:00 PM 21.06 69.908 0.6 7.9 4.54 8.81
8/20/2023 2:15:00 PM 21.12 70.016 0.6 7.91 4.42 8.79
8/20/2023 2:30:00 PM 21.16 70.088 0.599 7.89 4.47 8.78
8/20/2023 2:45:00 PM 21.19 70.142 0.599 7.9 4.83 8.76
8/20/2023 3:00:00 PM 21.22 70.196 0.599 7.9 5.07 8.76
8/20/2023 3:15:00 PM 21.21 70.17799 0.599 7.93 4.36 8.73
8/20/2023 3:30:00 PM 21.22 70.196 0.598 7.92 4.24 8.71
8/20/2023 3:45:00 PM 21.27 70.286 0.598 7.91 4.12 8.68
8/20/2023 4:00:00 PM 21.39 70.502 0.598 7.94 5.38 8.66
8/20/2023 4:15:00 PM 21.49 70.682 0.316 7.97 5 8.57
8/20/2023 4:30:00 PM 21.5 70.7 0.596 7.93 5.62 8.51
8/20/2023 4:45:00 PM 21.47 70.646 0.596 7.96 4.37 8.54
8/20/2023 5:00:00 PM 21.45 70.61 0.596 7.96 7.19 8.56
8/20/2023 5:15:00 PM 21.46 70.628 0.596 7.94 5.29 8.47
8/20/2023 5:30:00 PM 21.52 70.736 0.595 7.93 4.21 8.47
8/20/2023 5:45:00 PM 21.58 70.844 0.596 7.91 6.08 8.38
8/20/2023 6:00:00 PM 21.59 70.862 0.596 7.9 4.01 8.35
8/20/2023 6:15:00 PM 21.61 70.898 0.595 7.92 4.06 8.3
8/20/2023 6:30:00 PM 21.63 70.934 0.595 7.92 4.02 8.24
8/20/2023 6:45:00 PM 21.61 70.898 0.595 7.89 4.01 8.23
8/20/2023 7:00:00 PM 21.57 70.826 0.595 7.9 4.1 8.2
8/20/2023 7:15:00 PM 21.53 70.754 0.595 7.89 4 8.19
8/20/2023 7:30:00 PM 21.5 70.7 0.595 7.91 4.08 8.17
8/20/2023 7:45:00 PM 21.49 70.682 0.595 7.91 3.88 8.1
8/20/2023 8:00:00 PM 21.47 70.646 0.595 7.91 5.14 8.11
8/20/2023 8:15:00 PM 21.46 70.628 0.595 7.89 23.81 8.06
8/20/2023 8:30:00 PM 21.45 70.61 0.595 7.89 6.03 8.04
8/20/2023 8:45:00 PM 21.42 70.556 0.595 7.91 6.79 8.12
8/20/2023 9:00:00 PM 21.41 70.538 0.596 7.91 4.94 8.14
8/20/2023 9:15:00 PM 21.38 70.484 0.595 7.79 4.15 8.14
8/20/2023 9:30:00 PM 21.35 70.43 0.595 7.8 4.1 8.15
8/20/2023 9:45:00 PM 21.33 70.394 0.595 7.77 4.65 8.13
8/20/2023 10:00:00 PM 21.28 70.304 0.595 7.86 4.12 8.14
8/20/2023 10:15:00 PM 21.25 70.25 0.596 7.85 4.24 8.15
8/20/2023 10:30:00 PM 21.22 70.196 0.596 7.89 4.09 8.15
8/20/2023 10:45:00 PM 21.17 70.106 0.595 7.88 4.14 8.15
8/20/2023 11:00:00 PM 21.13 70.034 0.595 7.88 4.38 8.15
8/20/2023 11:15:00 PM 21.08 69.944 0.595 7.89 4.38 8.16
8/20/2023 11:30:00 PM 21.03 69.854 0.596 7.85 4.16 8.15
8/20/2023 11:45:00 PM 20.98 69.764 0.596 7.85 5.14 8.15
8/21/2023 12:00:00 AM 20.93 69.674 0.596 7.86 4.3 8.16
8/21/2023 12:15:00 AM 20.9 69.62 0.596 7.86 4.64 8.17
8/21/2023 12:30:00 AM 20.88 69.584 0.596 7.86 4.52 8.17
8/21/2023 12:45:00 AM 20.84 69.512 0.597 7.78 4.2 8.18
8/21/2023 1:00:00 AM 20.81 69.458 0.597 7.88 4.59 8.16
8/21/2023 1:15:00 AM 20.78 69.404 0.597 7.86 4.43 8.17
8/21/2023 1:30:00 AM 20.74 69.332 0.597 7.75 4.09 8.18
8/21/2023 1:45:00 AM 20.71 69.278 0.597 7.87 4.24 8.14
8/21/2023 2:00:00 AM 20.68 69.224 0.597 7.75 4.87 8.16
8/21/2023 2:15:00 AM 20.66 69.188 0.598 7.85 4.52 8.16
8/21/2023 2:30:00 AM 20.64 69.152 0.598 7.85 4.93 8.15
8/21/2023 2:45:00 AM 20.61 69.098 0.598 7.85 4.53 8.15
8/21/2023 3:00:00 AM 20.57 69.026 0.599 7.85 5.31 8.15
8/21/2023 3:15:00 AM 20.54 68.972 0.599 7.85 5.07 8.15
8/21/2023 3:30:00 AM 20.51 68.918 0.599 7.85 4.51 8.16
8/21/2023 3:45:00 AM 20.47 68.846 0.599 7.72 4.82 8.17
8/21/2023 4:00:00 AM 20.44 68.792 0.599 7.83 7.52 8.16
8/21/2023 4:15:00 AM 20.41 68.738 0.6 7.74 5.09 8.16
8/21/2023 4:30:00 AM 20.38 68.684 0.6 7.75 4.96 8.16
8/21/2023 4:45:00 AM 20.36 68.648 0.601 7.82 5.19 8.17
8/21/2023 5:00:00 AM 20.33 68.594 0.602 7.84 4.97 8.18
8/21/2023 5:15:00 AM 20.31 68.558 0.602 7.83 5.11 8.18
8/21/2023 5:30:00 AM 20.29 68.522 0.603 7.84 4.62 8.2
8/21/2023 5:45:00 AM 20.27 68.486 0.603 7.82 5.07 8.2
8/21/2023 6:00:00 AM 20.25 68.45 0.604 7.83 5.12 8.19
8/21/2023 6:15:00 AM 20.23 68.414 0.604 7.83 4.75 8.18
8/21/2023 6:30:00 AM 20.21 68.378 0.604 7.82 5.02 8.18
8/21/2023 6:45:00 AM 20.19 68.342 0.605 7.81 5.86 8.19
8/21/2023 7:00:00 AM 20.18 68.324 0.605 7.8 4.83 8.2
8/21/2023 7:15:00 AM 20.18 68.324 0.605 7.84 4.74 8.24
8/21/2023 7:30:00 AM 20.18 68.324 0.605 7.84 5.01 8.27
8/21/2023 7:45:00 AM 20.18 68.324 0.606 7.83 4.74 8.27
8/21/2023 8:00:00 AM 20.19 68.342 0.606 7.85 4.31 8.3
8/21/2023 8:15:00 AM 20.2 68.36 0.606 7.84 4.28 8.32
8/21/2023 8:30:00 AM 20.22 68.396 0.606 7.85 4.41 8.37
8/21/2023 8:45:00 AM 20.24 68.432 0.607 7.86 4.29 8.42
8/21/2023 9:00:00 AM 20.27 68.486 0.607 7.85 5.2 8.45
8/21/2023 9:15:00 AM 20.33 68.594 0.607 7.83 5.01 8.5
8/21/2023 9:30:00 AM 20.4 68.72 0.607 7.8 4.73 8.58
8/21/2023 9:45:00 AM 20.43 68.774 0.607 7.84 5.17 8.64
8/21/2023 10:00:00 AM 20.51 68.918 0.607 7.85 4.77 8.72
8/21/2023 10:15:00 AM 20.6 69.08 0.607 7.88 4.29 8.77
8/21/2023 10:30:00 AM 20.69 69.242 0.607 7.9 4.99 8.83
8/21/2023 10:45:00 AM 20.72 69.296 0.608 7.9 4.26 8.86
8/21/2023 11:00:00 AM 20.76 69.368 0.608 7.9 4.77 8.85
8/21/2023 11:15:00 AM 20.75 69.35 0.608 7.89 4.23 8.81
8/21/2023 11:30:00 AM 20.71 69.278 0.608 7.91 4.56 8.75
8/21/2023 11:45:00 AM 20.74 69.332 0.608 7.87 4.46 8.82
8/21/2023 12:00:00 PM 20.74 69.332 0.608 7.9 4.54 8.76
8/21/2023 12:15:00 PM 20.82 69.476 0.608 7.91 4.77 8.86
8/21/2023 12:30:00 PM 20.94 69.692 0.608 7.93 4.76 8.94
8/21/2023 12:45:00 PM 21.01 69.818 0.608 7.92 4.03 8.96
8/21/2023 1:00:00 PM 21.05 69.89 0.608 7.93 4.11 8.93
8/21/2023 1:15:00 PM 21.11 69.998 0.608 7.93 3.82 8.92
8/21/2023 1:30:00 PM 21.19 70.142 0.607 7.93 4.23 8.86
8/21/2023 1:45:00 PM 21.28 70.304 0.607 7.95 3.81 8.84
8/21/2023 2:00:00 PM 21.35 70.43 0.607 7.92 3.8 8.86
8/21/2023 2:15:00 PM 21.4 70.52 0.607 7.93 3.77 8.85
8/21/2023 2:30:00 PM 21.47 70.646 0.606 7.9 3.59 8.86
8/21/2023 2:45:00 PM 21.51 70.718 0.606 7.91 3.76 8.87
8/21/2023 3:00:00 PM 21.54 70.772 0.606 7.92 4.49 8.85
8/21/2023 3:15:00 PM 21.59 70.862 0.605 7.94 3.61 8.86
8/21/2023 3:30:00 PM 21.62 70.916 0.605 7.94 3.66 8.81
8/21/2023 3:45:00 PM 21.69 71.042 0.605 7.96 3.81 8.82
8/21/2023 4:00:00 PM 21.72 71.096 0.604 7.97 3.83 8.78
8/21/2023 4:15:00 PM 21.72 71.096 0.605 7.93 3.5 8.71
8/21/2023 4:30:00 PM 21.72 71.096 0.605 7.96 3.42 8.68
8/21/2023 4:45:00 PM 21.71 71.078 0.604 7.94 3.76 8.64
8/21/2023 5:00:00 PM 21.72 71.096 0.604 7.95 3.69 8.61
8/21/2023 5:15:00 PM 21.71 71.078 0.605 7.94 3.56 8.55
8/21/2023 5:30:00 PM 21.72 71.096 0.605 7.94 3.3 8.5
8/21/2023 5:45:00 PM 21.74 71.132 0.604 7.88 3.44 8.45
8/21/2023 6:00:00 PM 21.77 71.186 0.604 7.92 3.33 8.41
8/21/2023 6:15:00 PM 21.84 71.312 0.604 7.93 3.42 8.36
8/21/2023 6:30:00 PM 21.94 71.492 0.604 7.92 3.4 8.3
8/21/2023 6:45:00 PM 22.04 71.672 0.604 7.92 3.35 8.23
8/21/2023 7:00:00 PM 22.14 71.852 0.604 7.89 3.36 8.16
8/21/2023 7:15:00 PM 22.24 72.032 0.605 7.87 3.27 8.12
8/21/2023 7:30:00 PM 22.3 72.14 0.605 7.86 3.47 8.08
8/21/2023 7:45:00 PM 22.31 72.158 0.605 7.87 3.49 8.03
8/21/2023 8:00:00 PM 22.33 72.194 0.605 7.86 4.09 8.01
8/21/2023 8:15:00 PM 22.35 72.23 0.605 7.86 2586.98 8
8/21/2023 8:30:00 PM 22.34 72.212 0.605 7.86 3.87 7.78
8/21/2023 8:45:00 PM 22.32 72.176 0.605 7.85 4.47 7.99
8/21/2023 9:00:00 PM 22.27 72.086 0.605 7.85 6.77 7.99
8/21/2023 9:15:00 PM 22.23 72.014 0.605 7.85 8.61 7.99
8/21/2023 9:30:00 PM 22.18 71.924 0.605 7.89 9.18 8
8/21/2023 9:45:00 PM 22.14 71.852 0.604 7.88 19.16 8
8/21/2023 10:00:00 PM 22.07 71.726 0.605 7.86 10.86 7.99
8/21/2023 10:15:00 PM 22.02 71.636 0.605 7.87 7.15 8.03
8/21/2023 10:30:00 PM 21.98 71.564 0.605 7.84 4.42 8.02
8/21/2023 10:45:00 PM 21.92 71.456 0.605 7.86 3.91 8.04
8/21/2023 11:00:00 PM 21.89 71.402 0.605 7.86 6.73 8.04
8/21/2023 11:15:00 PM 21.84 71.312 0.606 7.85 4.55 8.06
8/21/2023 11:30:00 PM 21.82 71.276 0.605 7.85 4.41 8.05
8/21/2023 11:45:00 PM 21.78 71.204 0.606 7.85 2.81 8.07
8/22/2023 12:00:00 AM 21.74 71.132 0.606 7.84 4.01 8.06
8/22/2023 12:15:00 AM 21.7 71.06 0.606 7.83 4.14 8.05
8/22/2023 12:30:00 AM 21.65 70.97 0.606 7.83 3.85 8.06
8/22/2023 12:45:00 AM 21.6 70.88 0.606 7.86 3.79 8.07
8/22/2023 1:00:00 AM 21.56 70.808 0.606 7.85 4.29 8.04
8/22/2023 1:15:00 AM 21.51 70.718 0.607 7.84 3.87 8.06
8/22/2023 1:30:00 AM 21.47 70.646 0.607 7.85 3.67 8.04
8/22/2023 1:45:00 AM 21.45 70.61 0.607 7.81 3.99 8.05
8/22/2023 2:00:00 AM 21.42 70.556 0.607 7.84 3.83 8.05
8/22/2023 2:15:00 AM 21.39 70.502 0.607 7.86 3.95 8.05
8/22/2023 2:30:00 AM 21.37 70.466 0.607 7.84 3.79 8.05
8/22/2023 2:45:00 AM 21.35 70.43 0.607 7.82 3.58 8.06
8/22/2023 3:00:00 AM 21.32 70.376 0.608 7.82 4.14 8.07
8/22/2023 3:15:00 AM 21.29 70.32201 0.608 7.85 3.7 8.05
8/22/2023 3:30:00 AM 21.25 70.25 0.608 7.85 4.16 8.06
8/22/2023 3:45:00 AM 21.21 70.17799 0.608 7.85 4.2 8.08
8/22/2023 4:00:00 AM 21.18 70.124 0.608 7.84 4.5 8.06
8/22/2023 4:15:00 AM 21.15 70.07 0.608 7.87 3.9 8.06
8/22/2023 4:30:00 AM 21.12 70.016 0.609 7.85 4.37 8.08
8/22/2023 4:45:00 AM 21.08 69.944 0.609 7.84 4.41 8.07
8/22/2023 5:00:00 AM 21.04 69.872 0.609 7.84 4.29 8.09
8/22/2023 5:15:00 AM 21.01 69.818 0.609 7.83 5.48 8.1
8/22/2023 5:30:00 AM 20.97 69.746 0.609 7.86 4.12 8.1
8/22/2023 5:45:00 AM 20.93 69.674 0.609 7.84 4.1 8.09
8/22/2023 6:00:00 AM 20.9 69.62 0.609 7.86 4.01 8.1
8/22/2023 6:15:00 AM 20.86 69.548 0.609 7.78 3.93 8.1
8/22/2023 6:30:00 AM 20.82 69.476 0.61 7.82 3.88 8.1
8/22/2023 6:45:00 AM 20.8 69.44 0.61 7.84 4 8.12
8/22/2023 7:00:00 AM 20.79 69.422 0.61 7.86 3.55 8.15
8/22/2023 7:15:00 AM 20.77 69.386 0.61 7.86 3.86 8.18
8/22/2023 7:30:00 AM 20.75 69.35 0.61 7.84 3.47 8.21
8/22/2023 7:45:00 AM 20.73 69.314 0.61 7.84 3.67 8.27
8/22/2023 8:00:00 AM 20.72 69.296 0.61 7.74 3.3 8.29
8/22/2023 8:15:00 AM 20.7 69.26 0.61 7.86 3.56 8.28
8/22/2023 8:30:00 AM 20.69 69.242 0.61 7.85 3.43 8.31
8/22/2023 8:45:00 AM 20.69 69.242 0.61 7.84 3.68 8.37
8/22/2023 9:00:00 AM 20.69 69.242 0.61 7.84 3.95 8.41
8/22/2023 9:15:00 AM 20.71 69.278 0.61 7.88 3.99 8.48
8/22/2023 9:30:00 AM 20.77 69.386 0.61 7.88 3.8 8.56
8/22/2023 9:45:00 AM 20.82 69.476 0.61 7.88 3.82 8.61
8/22/2023 10:00:00 AM 20.9 69.62 0.609 7.9 3.93 8.65
8/22/2023 10:15:00 AM 20.97 69.746 0.61 7.89 3.52 8.69
8/22/2023 10:30:00 AM 21.04 69.872 0.61 7.9 3.71 8.77
8/22/2023 10:45:00 AM 21.15 70.07 0.61 7.86 3.92 8.82
8/22/2023 11:00:00 AM 21.26 70.268 0.61 7.92 3.67 8.87
8/22/2023 11:15:00 AM 21.37 70.466 0.611 7.95 3.77 8.87
8/22/2023 11:30:00 AM 21.46 70.628 0.611 7.9 3.44 8.9
8/22/2023 11:45:00 AM 21.53 70.754 0.611 7.91 4.05 8.9
8/22/2023 12:00:00 PM 21.6 70.88 0.611 7.91 3.71 8.92
8/22/2023 12:15:00 PM 21.65 70.97 0.611 7.88 3.9 8.89
8/22/2023 12:30:00 PM 21.7 71.06 0.611 7.93 4.19 8.91
8/22/2023 12:45:00 PM 21.75 71.15 0.611 7.91 3.73 8.92
8/22/2023 1:00:00 PM 21.79 71.222 0.611 7.89 4.02 8.94
8/22/2023 1:15:00 PM 21.84 71.312 0.611 7.84 3.93 8.9
8/22/2023 1:30:00 PM 21.89 71.402 0.612 7.92 3.86 8.86
8/22/2023 1:45:00 PM 21.95 71.51 0.611 7.95 3.65 8.86
8/22/2023 2:00:00 PM 22.01 71.618 0.612 7.94 3.91 8.81
8/22/2023 2:15:00 PM 22.1 71.78 0.612 7.94 4.22 8.75
8/22/2023 2:30:00 PM 22.2 71.96 0.612 7.94 4.2 8.73
8/22/2023 2:45:00 PM 22.29 72.122 0.612 7.93 3.54 8.68
8/22/2023 3:00:00 PM 22.39 72.302 0.613 7.93 3.73 8.67
8/22/2023 3:15:00 PM 22.5 72.5 0.613 7.94 3.7 8.64
8/22/2023 3:30:00 PM 22.57 72.626 0.613 7.95 3.52 8.61
8/22/2023 3:45:00 PM 22.68 72.824 0.613 7.96 3.7 8.55
8/22/2023 4:00:00 PM 22.77 72.986 0.614 7.87 4.08 8.51
8/22/2023 4:15:00 PM 22.82 73.076 0.614 7.96 3.38 8.45
8/22/2023 4:30:00 PM 22.86 73.148 0.615 7.97 3.42 8.4
8/22/2023 4:45:00 PM 22.88 73.184 0.615 7.96 3.5 8.35
8/22/2023 5:00:00 PM 22.91 73.238 0.615 7.96 3.99 8.32
8/22/2023 5:15:00 PM 22.94 73.292 0.616 7.85 3.37 8.26
8/22/2023 5:30:00 PM 22.97 73.346 0.616 7.93 3.24 8.25
8/22/2023 5:45:00 PM 23 73.4 0.616 7.95 3.48 8.2
8/22/2023 6:00:00 PM 23 73.4 0.616 7.94 3.38 8.17
8/22/2023 6:15:00 PM 23 73.4 0.616 7.95 3.51 8.14
8/22/2023 6:30:00 PM 22.98 73.364 0.617 7.95 3.72 8.1
8/22/2023 6:45:00 PM 22.95 73.31 0.617 7.94 3.74 8.06
8/22/2023 7:00:00 PM 22.91 73.238 0.616 7.95 3.32 8.04
8/22/2023 7:15:00 PM 22.88 73.184 0.617 7.83 3.68 8.01
8/22/2023 7:30:00 PM 22.85 73.13 0.617 7.94 4.07 7.99
8/22/2023 7:45:00 PM 22.83 73.094 0.617 7.95 3.33 7.97
8/22/2023 8:00:00 PM 22.78 73.004 0.617 7.81 3.73 7.95
8/22/2023 8:15:00 PM 22.72 72.896 0.617 7.92 4.27 7.94
8/22/2023 8:30:00 PM 22.65 72.77 0.617 7.92 3.94 7.93
8/22/2023 8:45:00 PM 22.57 72.626 0.616 7.84 5.71 7.93
8/22/2023 9:00:00 PM 22.5 72.5 0.616 7.93 4.03 7.94
8/22/2023 9:15:00 PM 22.42 72.356 0.616 7.94 4.62 7.94
8/22/2023 9:30:00 PM 22.35 72.23 0.616 7.91 3.72 7.96
8/22/2023 9:45:00 PM 22.27 72.086 0.616 7.89 4.17 7.97
8/22/2023 10:00:00 PM 22.2 71.96 0.616 7.88 5.24 7.97
8/22/2023 10:15:00 PM 22.12 71.816 0.616 7.81 3.78 7.98
8/22/2023 10:30:00 PM 22.06 71.708 0.615 7.87 4.09 7.97
8/22/2023 10:45:00 PM 21.99 71.582 0.616 7.88 3.71 7.98
8/22/2023 11:00:00 PM 21.92 71.456 0.615 7.89 3.66 7.98
8/22/2023 11:15:00 PM 21.86 71.348 0.616 7.82 3.91 7.99
8/22/2023 11:30:00 PM 21.8 71.24 0.615 7.8 4.32 8
8/22/2023 11:45:00 PM 21.74 71.132 0.615 7.8 3.93 8
8/23/2023 12:00:00 AM 21.68 71.024 0.615 7.9 3.7 8
8/23/2023 12:15:00 AM 21.63 70.934 0.615 7.89 3.88 8
8/23/2023 12:30:00 AM 21.57 70.826 0.615 7.89 4.13 8
8/23/2023 12:45:00 AM 21.52 70.736 0.615 7.89 4.27 8
8/23/2023 1:00:00 AM 21.46 70.628 0.615 7.87 5.04 8.01
8/23/2023 1:15:00 AM 21.41 70.538 0.615 7.86 4.95 8.02
8/23/2023 1:30:00 AM 21.36 70.448 0.615 7.84 6.74 7.99
8/23/2023 1:45:00 AM 21.31 70.358 0.614 7.87 5.35 8.01
8/23/2023 2:00:00 AM 21.26 70.268 0.615 7.8 5.38 8.02
8/23/2023 2:15:00 AM 21.22 70.196 0.615 7.87 5.99 8.02
8/23/2023 2:30:00 AM 21.18 70.124 0.615 7.89 5.26 8.02
8/23/2023 2:45:00 AM 21.13 70.034 0.614 7.86 5.52 8.01
8/23/2023 3:00:00 AM 21.09 69.962 0.614 7.82 5.27 8.01
8/23/2023 3:15:00 AM 21.05 69.89 0.614 7.85 5.71 8.02
8/23/2023 3:30:00 AM 21.02 69.836 0.614 7.83 6.04 8.02
8/23/2023 3:45:00 AM 20.97 69.746 0.614 7.88 6.98 8
8/23/2023 4:00:00 AM 20.94 69.692 0.614 7.82 6.28 7.99
8/23/2023 4:15:00 AM 20.91 69.638 0.614 7.81 7.6 7.97
8/23/2023 4:30:00 AM 20.88 69.584 0.614 7.81 6.84 7.98
8/23/2023 4:45:00 AM 20.85 69.53 0.614 7.82 7.19 7.99
8/23/2023 5:00:00 AM 20.82 69.476 0.614 7.85 7.6 7.98
8/23/2023 5:15:00 AM 20.79 69.422 0.614 7.83 7.49 7.97
8/23/2023 5:30:00 AM 20.76 69.368 0.614 7.83 7.87 7.96
8/23/2023 5:45:00 AM 20.74 69.332 0.614 7.73 7.96 7.97
8/23/2023 6:00:00 AM 20.7 69.26 0.614 7.82 9.17 7.95
8/23/2023 6:15:00 AM 20.67 69.206 0.614 7.79 8.93 7.95
8/23/2023 6:30:00 AM 20.64 69.152 0.614 7.79 8.97 7.96
8/23/2023 6:45:00 AM 20.61 69.098 0.614 7.79 9.2 7.98
8/23/2023 7:00:00 AM 20.57 69.026 0.614 7.81 8.81 7.99
8/23/2023 7:15:00 AM 20.54 68.972 0.614 7.81 8.42 8.01
8/23/2023 7:30:00 AM 20.51 68.918 0.614 7.83 8.39 8.04
8/23/2023 7:45:00 AM 20.49 68.882 0.614 7.84 8.15 8.05
8/23/2023 8:00:00 AM 20.47 68.846 0.614 7.81 7.14 8.07
8/23/2023 8:15:00 AM 20.46 68.828 0.614 7.82 7.22 8.1
8/23/2023 8:30:00 AM 20.46 68.828 0.614 7.84 7.14 8.19
8/23/2023 8:45:00 AM 20.49 68.882 0.614 7.86 6.97 8.25
8/23/2023 9:00:00 AM 20.5 68.9 0.614 7.85 6.7 8.3
8/23/2023 9:15:00 AM 20.53 68.954 0.614 7.87 6.71 8.36
8/23/2023 9:30:00 AM 20.58 69.044 0.614 7.87 5.86 8.44
8/23/2023 9:45:00 AM 20.6 69.08 0.614 7.88 5.98 8.46
8/23/2023 10:00:00 AM 20.55 68.99 0.614 7.79 5.66 8.46
8/23/2023 10:15:00 AM 20.64 69.152 0.614 7.86 5.51 8.57
8/23/2023 10:30:00 AM 20.75 69.35 0.614 7.9 5.66 8.65
8/23/2023 10:45:00 AM 20.82 69.476 0.614 7.91 5.71 8.7
8/23/2023 11:00:00 AM 20.86 69.548 0.614 7.91 5.43 8.72
8/23/2023 11:15:00 AM 20.79 69.422 0.614 7.91 5.6 8.69
8/23/2023 11:30:00 AM 20.77 69.386 0.614 7.88 5.22 8.68
8/23/2023 11:45:00 AM 20.88 69.584 0.614 7.94 4.98 8.75
8/23/2023 12:00:00 PM 20.93 69.674 0.614 7.91 5.17 8.77
8/23/2023 12:15:00 PM 20.86 69.548 0.614 7.9 5.48 8.62
8/23/2023 12:30:00 PM 20.84 69.512 0.614 7.9 4.94 8.6
8/23/2023 12:45:00 PM 20.91 69.638 0.614 7.9 5.19 8.68
8/23/2023 1:00:00 PM 20.92 69.656 0.614 7.88 5.34 8.68
8/23/2023 1:15:00 PM 20.93 69.674 0.615 7.88 5.33 8.65
8/23/2023 1:30:00 PM 20.93 69.674 0.615 7.81 4.89 8.62
8/23/2023 1:45:00 PM 20.94 69.692 0.615 7.87 4.73 8.55
8/23/2023 2:00:00 PM 21.04 69.872 0.615 7.9 4.71 8.6
8/23/2023 2:15:00 PM 21.11 69.998 0.615 7.88 4.82 8.6
8/23/2023 2:30:00 PM 21.17 70.106 0.615 7.88 4.47 8.59
8/23/2023 2:45:00 PM 21.21 70.17799 0.616 7.91 4.24 8.49
8/23/2023 3:00:00 PM 21.21 70.17799 0.616 7.88 4.15 8.4
8/23/2023 3:15:00 PM 21.2 70.16 0.617 7.88 4.17 8.37
8/23/2023 3:30:00 PM 21.16 70.088 0.617 7.85 4.33 8.33
8/23/2023 3:45:00 PM 21.12 70.016 0.618 7.87 4.42 8.28
8/23/2023 4:00:00 PM 21.09 69.962 0.618 7.88 4.12 8.26
8/23/2023 4:15:00 PM 21.09 69.962 0.619 7.9 3.91 8.28
8/23/2023 4:30:00 PM 21.09 69.962 0.619 7.87 4.05 8.28
8/23/2023 4:45:00 PM 21.12 70.016 0.62 7.86 4.08 8.28
8/23/2023 5:00:00 PM 21.15 70.07 0.621 7.89 4.04 8.34
8/23/2023 5:15:00 PM 21.17 70.106 0.621 7.9 3.88 8.33
8/23/2023 5:30:00 PM 21.18 70.124 0.622 7.92 3.72 8.26
8/23/2023 5:45:00 PM 21.21 70.17799 0.624 7.86 3.75 8.28
8/23/2023 6:00:00 PM 21.23 70.214 0.624 7.91 3.83 8.32
8/23/2023 6:15:00 PM 21.21 70.17799 0.625 7.89 3.49 8.29
8/23/2023 6:30:00 PM 21.17 70.106 0.625 7.93 3.92 8.25
8/23/2023 6:45:00 PM 21.14 70.052 0.626 7.91 3.87 8.24
8/23/2023 7:00:00 PM 21.11 69.998 0.626 7.91 3.96 8.19
8/23/2023 7:15:00 PM 21.09 69.962 0.626 7.89 3.48 8.13
8/23/2023 7:30:00 PM 21.08 69.944 0.626 7.88 3.88 8.1
8/23/2023 7:45:00 PM 21.05 69.89 0.627 7.89 3.66 8.07
8/23/2023 8:00:00 PM 21.01 69.818 0.627 7.88 4.23 8.03
8/23/2023 8:15:00 PM 20.96 69.728 0.627 7.89 4.26 8.04
8/23/2023 8:30:00 PM 20.93 69.674 0.628 7.89 4.42 8.03
8/23/2023 8:45:00 PM 20.92 69.656 0.628 7.9 4.44 8.04
8/23/2023 9:00:00 PM 20.89 69.602 0.628 7.88 4.19 8.02
8/23/2023 9:15:00 PM 20.87 69.566 0.628 7.88 4.33 8.04
8/23/2023 9:30:00 PM 20.84 69.512 0.629 7.87 4.33 8.04
8/23/2023 9:45:00 PM 20.81 69.458 0.629 7.88 4.58 8.04
8/23/2023 10:00:00 PM 20.79 69.422 0.629 7.85 4.31 8.04
8/23/2023 10:15:00 PM 20.76 69.368 0.629 7.85 5.05 8.02
8/23/2023 10:30:00 PM 20.75 69.35 0.629 7.84 4.78 8.04
8/23/2023 10:45:00 PM 20.74 69.332 0.629 7.83 5.06 8.03
8/23/2023 11:00:00 PM 20.72 69.296 0.629 7.85 4.61 8.02
8/23/2023 11:15:00 PM 20.7 69.26 0.63 7.82 4.8 8.01
8/23/2023 11:30:00 PM 20.68 69.224 0.63 7.81 4.57 8.03
8/23/2023 11:45:00 PM 20.67 69.206 0.63 7.83 5.13 8.01
8/24/2023 12:00:00 AM 20.65 69.17 0.63 7.85 5.18 8.01
8/24/2023 12:15:00 AM 20.63 69.134 0.631 7.81 4.84 8
8/24/2023 12:30:00 AM 20.61 69.098 0.631 7.84 5.42 7.99
8/24/2023 12:45:00 AM 20.58 69.044 0.631 7.84 5.77 7.94
8/24/2023 1:00:00 AM 20.55 68.99 0.631 7.81 5.53 7.97
8/24/2023 1:15:00 AM 20.54 68.972 0.63 7.82 5.49 7.96
8/24/2023 1:30:00 AM 20.53 68.954 0.63 7.84 5.24 7.96
8/24/2023 1:45:00 AM 20.51 68.918 0.629 7.84 5.1 7.9
8/24/2023 2:00:00 AM 20.5 68.9 0.629 7.84 5.68 7.91
8/24/2023 2:15:00 AM 20.48 68.864 0.628 7.8 5.79 7.9
8/24/2023 2:30:00 AM 20.46 68.828 0.628 7.86 6.23 7.88
8/24/2023 2:45:00 AM 20.45 68.81 0.629 7.84 6.22 7.87
8/24/2023 3:00:00 AM 20.44 68.792 0.63 7.82 6.59 7.89
8/24/2023 3:15:00 AM 20.42 68.756 0.633 7.81 6.14 7.9
8/24/2023 3:30:00 AM 20.41 68.738 0.636 7.8 6.48 7.89
8/24/2023 3:45:00 AM 20.39 68.702 0.639 7.82 6.17 7.92
8/24/2023 4:00:00 AM 20.37 68.666 0.641 7.82 6.21 7.94
8/24/2023 4:15:00 AM 20.35 68.63 0.643 7.82 6.25 7.94
8/24/2023 4:30:00 AM 20.33 68.594 0.644 7.82 6.27 7.92
8/24/2023 4:45:00 AM 20.31 68.558 0.645 7.83 6.11 7.95
8/24/2023 5:00:00 AM 20.3 68.54 0.647 7.85 6.4 7.91
8/24/2023 5:15:00 AM 20.28 68.504 0.647 7.83 6.01 7.97
8/24/2023 5:30:00 AM 20.26 68.468 0.649 7.84 6.07 7.96
8/24/2023 5:45:00 AM 20.25 68.45 0.649 7.81 6.53 7.95
8/24/2023 6:00:00 AM 20.23 68.414 0.65 7.85 6.64 7.92
8/24/2023 6:15:00 AM 20.22 68.396 0.65 7.82 6.24 7.92
8/24/2023 6:30:00 AM 20.2 68.36 0.651 7.82 6.56 7.93
8/24/2023 6:45:00 AM 20.18 68.324 0.651 7.85 6.49 7.96
8/24/2023 7:00:00 AM 20.17 68.306 0.651 7.85 6.43 7.93
8/24/2023 7:15:00 AM 20.15 68.27 0.652 7.82 6 7.96
8/24/2023 7:30:00 AM 20.14 68.252 0.653 7.81 5.88 7.97
8/24/2023 7:45:00 AM 20.13 68.234 0.653 7.84 5.58 7.99
8/24/2023 8:00:00 AM 20.11 68.198 0.654 7.81 5.66 7.97
8/24/2023 8:15:00 AM 20.09 68.162 0.654 7.85 5.3 7.97
8/24/2023 8:30:00 AM 20.08 68.144 0.655 7.82 5.47 8.02
8/24/2023 8:45:00 AM 20.06 68.108 0.655 7.76 5.47 8.02
8/24/2023 9:00:00 AM 20.05 68.09 0.655 7.84 5.32 8.06
8/24/2023 9:15:00 AM 20.03 68.054 0.656 7.82 5.21 8.07
8/24/2023 9:30:00 AM 20.02 68.036 0.656 7.83 5.52 8.07
8/24/2023 9:45:00 AM 20.01 68.018 0.656 7.83 5.18 8.12
8/24/2023 10:00:00 AM 20.02 68.036 0.656 7.87 5.37 8.17
8/24/2023 10:15:00 AM 20.04 68.07201 0.656 7.88 5.09 8.25
8/24/2023 10:30:00 AM 20.07 68.126 0.656 7.9 5.13 8.35
8/24/2023 10:45:00 AM 20.13 68.234 0.657 7.86 5 8.49
8/24/2023 11:00:00 AM 20.15 68.27 0.656 7.85 5.29 8.45
8/24/2023 11:15:00 AM -99999.99 -179968 -99999.99 -99999.99 -99999.99 -99999.99
8/24/2023 11:30:00 AM -99999.99 -179968 -99999.99 -99999.99 -99999.99 -99999.99
8/24/2023 11:45:00 AM -99999.99 -179968 -99999.99 -99999.99 -99999.99 -99999.99
8/24/2023 12:00:00 PM -99999.99 -179968 -99999.99 -99999.99 -99999.99 -99999.99
8/24/2023 12:15:00 PM -99999.99 -179968 -99999.99 -99999.99 -99999.99 -99999.99
8/24/2023 12:30:00 PM -99999.99 -179968 -99999.99 -99999.99 -99999.99 -99999.99
8/24/2023 12:45:00 PM -99999.99 -179968 -99999.99 -99999.99 -99999.99 -99999.99
8/24/2023 1:00:00 PM 20.19 68.342 0.351 7.3 4.01 8.38
8/24/2023 1:15:00 PM 20.2 68.36 0.657 7.48 4.85 8.45
8/24/2023 1:30:00 PM 20.23 68.414 0.657 7.61 4.34 8.53
8/24/2023 1:45:00 PM 20.28 68.504 0.657 7.68 4.19 8.58
8/24/2023 2:00:00 PM 20.34 68.612 0.656 7.72 4.18 8.65
8/24/2023 2:15:00 PM 20.41 68.738 0.656 7.76 4.26 8.73
8/24/2023 2:30:00 PM 20.48 68.864 0.657 7.78 4.23 8.78
8/24/2023 2:45:00 PM 20.5 68.9 0.657 7.81 4.47 8.72
8/24/2023 3:00:00 PM 20.62 69.116 0.656 7.83 4.12 8.78
8/24/2023 3:15:00 PM 20.69 69.242 0.656 7.84 4.32 8.78
8/24/2023 3:30:00 PM 20.75 69.35 0.655 7.86 4.18 8.82
8/24/2023 3:45:00 PM 20.77 69.386 0.655 7.87 4.01 8.76
8/24/2023 4:00:00 PM 20.74 69.332 0.656 7.86 3.8 8.64
8/24/2023 4:15:00 PM 20.75 69.35 0.656 7.87 4.28 8.63
8/24/2023 4:30:00 PM 20.79 69.422 0.655 7.89 3.81 8.67
8/24/2023 4:45:00 PM 20.79 69.422 0.655 7.88 3.82 8.57
8/24/2023 5:00:00 PM 20.82 69.476 0.655 7.88 3.67 8.54
8/24/2023 5:15:00 PM 20.85 69.53 0.655 7.9 3.9 8.62
8/24/2023 5:30:00 PM 20.84 69.512 0.655 7.9 3.57 8.63
8/24/2023 5:45:00 PM 20.8 69.44 0.656 7.9 3.91 8.55
8/24/2023 6:00:00 PM 20.77 69.386 0.656 7.89 3.64 8.46
8/24/2023 6:15:00 PM 20.76 69.368 0.656 7.9 3.5 8.38
8/24/2023 6:30:00 PM 20.75 69.35 0.656 7.89 3.55 8.35
8/24/2023 6:45:00 PM 20.71 69.278 0.656 7.89 3.96 8.29
8/24/2023 7:00:00 PM 20.69 69.242 0.657 7.87 3.72 8.25
8/24/2023 7:15:00 PM 20.67 69.206 0.657 7.89 3.62 8.26
8/24/2023 7:30:00 PM 20.65 69.17 0.656 7.9 3.31 8.24
8/24/2023 7:45:00 PM 20.63 69.134 0.657 7.91 3.94 8.24
8/24/2023 8:00:00 PM 20.62 69.116 0.657 7.89 4.02 8.23
8/24/2023 8:15:00 PM 20.61 69.098 0.657 7.87 3.84 8.24
8/24/2023 8:30:00 PM 20.59 69.062 0.657 7.89 4.09 8.24
8/24/2023 8:45:00 PM 20.57 69.026 0.657 7.87 3.83 8.25
8/24/2023 9:00:00 PM 20.55 68.99 0.657 7.87 4.35 8.24
8/24/2023 9:15:00 PM 20.53 68.954 0.657 7.88 4.08 8.24
8/24/2023 9:30:00 PM 20.52 68.936 0.657 7.87 4.34 8.25
8/24/2023 9:45:00 PM 20.52 68.936 0.657 7.87 4.39 8.26
8/24/2023 10:00:00 PM 20.52 68.936 0.657 7.89 4.12 8.25
8/24/2023 10:15:00 PM 20.5 68.9 0.658 7.88 4.12 8.25
8/24/2023 10:30:00 PM 20.48 68.864 0.658 7.87 3.97 8.25
8/24/2023 10:45:00 PM 20.46 68.828 0.658 7.79 4.21 8.25
8/24/2023 11:00:00 PM 20.45 68.81 0.658 7.88 3.99 8.26
8/24/2023 11:15:00 PM 20.44 68.792 0.658 7.88 5.03 8.25
8/24/2023 11:30:00 PM 20.43 68.774 0.658 7.88 4.08 8.25
8/24/2023 11:45:00 PM 20.43 68.774 0.658 7.81 4.56 8.24
8/25/2023 12:00:00 AM 20.42 68.756 0.658 7.81 4.21 8.24
8/25/2023 12:15:00 AM 20.41 68.738 0.658 7.87 4.26 8.24
8/25/2023 12:30:00 AM 20.4 68.72 0.658 7.86 4.05 8.24
8/25/2023 12:45:00 AM 20.39 68.702 0.658 7.88 4.07 8.23
8/25/2023 1:00:00 AM 20.37 68.666 0.658 7.87 4.09 8.23
8/25/2023 1:15:00 AM 20.34 68.612 0.658 7.87 4.29 8.23
8/25/2023 1:30:00 AM 20.32 68.576 0.658 7.86 4.8 8.22
8/25/2023 1:45:00 AM 20.3 68.54 0.658 7.87 4.6 8.21
8/25/2023 2:00:00 AM 20.28 68.504 0.659 7.87 4.3 8.2
8/25/2023 2:15:00 AM 20.26 68.468 0.659 7.85 4.73 8.19
8/25/2023 2:30:00 AM 20.26 68.468 0.659 7.87 4.94 8.19
8/25/2023 2:45:00 AM 20.25 68.45 0.659 7.86 4.48 8.18
8/25/2023 3:00:00 AM 20.24 68.432 0.659 7.85 4.58 8.18
8/25/2023 3:15:00 AM 20.23 68.414 0.66 7.85 4.74 8.17
8/25/2023 3:30:00 AM 20.22 68.396 0.66 7.88 5.32 8.16
8/25/2023 3:45:00 AM 20.21 68.378 0.66 7.85 4.57 8.15
8/25/2023 4:00:00 AM 20.2 68.36 0.66 7.9 4.81 8.15
8/25/2023 4:15:00 AM 20.2 68.36 0.66 7.86 4.78 8.14
8/25/2023 4:30:00 AM 20.19 68.342 0.659 7.86 5.15 8.14
8/25/2023 4:45:00 AM 20.19 68.342 0.655 7.87 5.19 8.13
8/25/2023 5:00:00 AM 20.18 68.324 0.657 7.87 5.76 8.11
8/25/2023 5:15:00 AM 20.16 68.288 0.658 7.76 5.34 8.09
8/25/2023 5:30:00 AM 20.15 68.27 0.659 7.86 5.44 8.09
8/25/2023 5:45:00 AM 20.14 68.252 0.659 7.87 5.77 8.09
8/25/2023 6:00:00 AM 20.14 68.252 0.659 7.85 5.66 8.08
8/25/2023 6:15:00 AM 20.13 68.234 0.659 7.89 5.62 8.07
8/25/2023 6:30:00 AM 20.13 68.234 0.66 7.86 5.51 8.06
8/25/2023 6:45:00 AM 20.12 68.216 0.66 7.85 5.47 8.07
8/25/2023 7:00:00 AM 20.12 68.216 0.66 7.9 5.35 8.08
8/25/2023 7:15:00 AM 20.12 68.216 0.66 7.85 5.37 8.09
8/25/2023 7:30:00 AM 20.11 68.198 0.661 7.85 5.11 8.07
8/25/2023 7:45:00 AM 20.1 68.18 0.661 7.89 5.18 8.1
8/25/2023 8:00:00 AM 20.1 68.18 0.662 7.89 5.46 8.11
8/25/2023 8:15:00 AM 20.09 68.162 0.663 7.89 5.42 8.1
8/25/2023 8:30:00 AM 20.1 68.18 0.663 7.88 5.19 8.11
8/25/2023 8:45:00 AM 20.1 68.18 0.665 7.89 5.19 8.12
8/25/2023 9:00:00 AM 20.1 68.18 0.665 7.89 4.78 8.18
8/25/2023 9:15:00 AM 20.11 68.198 0.666 7.86 4.94 8.18
8/25/2023 9:30:00 AM 20.12 68.216 0.667 7.89 4.99 8.24
8/25/2023 9:45:00 AM 20.19 68.342 0.666 7.91 4.9 8.39
8/25/2023 10:00:00 AM 20.25 68.45 0.666 7.92 4.74 8.48
8/25/2023 10:15:00 AM 20.33 68.594 0.667 7.88 4.62 8.55
8/25/2023 10:30:00 AM 20.35 68.63 0.667 7.94 4.65 8.57
8/25/2023 10:45:00 AM 20.33 68.594 0.667 7.94 4.78 8.51
8/25/2023 11:00:00 AM 20.34 68.612 0.666 7.93 4.66 8.52
8/25/2023 11:15:00 AM 20.37 68.666 0.667 7.89 4.6 8.54
8/25/2023 11:30:00 AM 20.4 68.72 0.667 7.93 4.5 8.57
8/25/2023 11:45:00 AM 20.46 68.828 0.666 7.85 4.58 8.61
8/25/2023 12:00:00 PM 20.47 68.846 0.666 7.95 4.83 8.61
8/25/2023 12:15:00 PM 20.53 68.954 0.667 7.95 4.85 8.67
8/25/2023 12:30:00 PM 20.5 68.9 0.667 7.96 4.45 8.59
8/25/2023 12:45:00 PM 20.48 68.864 0.667 7.95 4.35 8.55
8/25/2023 1:00:00 PM 20.56 69.008 0.667 7.96 4.15 8.64
8/25/2023 1:15:00 PM 20.64 69.152 0.667 7.95 4.31 8.7
8/25/2023 1:30:00 PM 20.68 69.224 0.666 7.93 4.75 8.71
8/25/2023 1:45:00 PM 20.76 69.368 0.666 7.97 3.97 8.74
8/25/2023 2:00:00 PM 20.85 69.53 0.666 7.97 4.01 8.75
8/25/2023 2:15:00 PM 20.95 69.71 0.666 7.97 4.2 8.75
8/25/2023 2:30:00 PM 20.98 69.764 0.666 7.97 4.12 8.72
8/25/2023 2:45:00 PM 21.04 69.872 0.665 7.98 4.21 8.75
8/25/2023 3:00:00 PM 21 69.8 0.665 7.98 3.92 8.61
8/25/2023 3:15:00 PM 21.06 69.908 0.664 7.97 3.72 8.6
8/25/2023 3:30:00 PM 21.21 70.17799 0.664 7.97 4.43 8.62
8/25/2023 3:45:00 PM 21.4 70.52 0.663 7.98 4.05 8.6
8/25/2023 4:00:00 PM 21.55 70.79 0.663 7.98 3.63 8.56
8/25/2023 4:15:00 PM 21.53 70.754 0.663 7.88 3.95 8.42
8/25/2023 4:30:00 PM 21.56 70.808 0.663 7.9 3.62 8.42
8/25/2023 4:45:00 PM 21.53 70.754 0.663 7.98 3.4 8.32
8/25/2023 5:00:00 PM 21.55 70.79 0.663 7.96 3.59 8.35
8/25/2023 5:15:00 PM 21.55 70.79 0.663 7.96 3.6 8.36
8/25/2023 5:30:00 PM 21.53 70.754 0.663 7.97 3.69 8.31
8/25/2023 5:45:00 PM 21.49 70.682 0.663 7.95 3.51 8.3
8/25/2023 6:00:00 PM 21.48 70.664 0.663 7.95 3.72 8.3
8/25/2023 6:15:00 PM 21.53 70.754 0.663 7.97 3.62 8.31
8/25/2023 6:30:00 PM 21.53 70.754 0.663 7.97 3.54 8.25
8/25/2023 6:45:00 PM 21.55 70.79 0.662 7.96 3.52 8.23
8/25/2023 7:00:00 PM 21.57 70.826 0.662 7.96 3.59 8.19
8/25/2023 7:15:00 PM 21.6 70.88 0.662 7.95 3.75 8.15
8/25/2023 7:30:00 PM 21.64 70.952 0.662 7.96 3.45 8.12
8/25/2023 7:45:00 PM 21.69 71.042 0.662 7.95 3.6 8.11
8/25/2023 8:00:00 PM 21.73 71.114 0.662 7.95 3.83 8.09
8/25/2023 8:15:00 PM 21.72 71.096 0.662 7.95 3.79 8.06
8/25/2023 8:30:00 PM 21.71 71.078 0.662 7.94 3.9 8.07
8/25/2023 8:45:00 PM 21.67 71.006 0.662 7.94 4.36 8.08
8/25/2023 9:00:00 PM 21.63 70.934 0.661 7.94 4.2 8.09
8/25/2023 9:15:00 PM 21.62 70.916 0.661 7.96 3.94 8.11
8/25/2023 9:30:00 PM 21.57 70.826 0.661 7.94 4.13 8.12
8/25/2023 9:45:00 PM 21.54 70.772 0.662 7.97 3.5 8.12
8/25/2023 10:00:00 PM 21.5 70.7 0.661 7.95 4.19 8.13
8/25/2023 10:15:00 PM 21.45 70.61 0.662 7.93 4.18 8.13
8/25/2023 10:30:00 PM 21.4 70.52 0.662 7.95 4.5 8.14
8/25/2023 10:45:00 PM 21.37 70.466 0.662 7.95 4.09 8.14
8/25/2023 11:00:00 PM 21.34 70.412 0.663 7.91 4.22 8.12
8/25/2023 11:15:00 PM 21.29 70.32201 0.663 7.93 4.04 8.12
8/25/2023 11:30:00 PM 21.25 70.25 0.663 7.93 3.98 8.12
8/25/2023 11:45:00 PM 21.22 70.196 0.663 7.92 4.13 8.11
8/26/2023 12:00:00 AM 21.21 70.17799 0.663 7.91 4.31 8.12
8/26/2023 12:15:00 AM 21.18 70.124 0.664 7.93 4 8.12
8/26/2023 12:30:00 AM 21.14 70.052 0.664 7.91 4.37 8.13
8/26/2023 12:45:00 AM 21.12 70.016 0.665 7.93 4.47 8.12
8/26/2023 1:00:00 AM 21.08 69.944 0.665 7.85 4.89 8.11
8/26/2023 1:15:00 AM 21.04 69.872 0.666 7.93 4.02 8.13
8/26/2023 1:30:00 AM 21 69.8 0.666 7.92 4.53 8.11
8/26/2023 1:45:00 AM 20.97 69.746 0.667 7.93 4.17 8.12
8/26/2023 2:00:00 AM 20.94 69.692 0.667 7.93 4.46 8.11
8/26/2023 2:15:00 AM 20.91 69.638 0.668 7.93 4.31 8.11
8/26/2023 2:30:00 AM 20.88 69.584 0.668 7.82 4.8 8.12
8/26/2023 2:45:00 AM 20.85 69.53 0.669 7.86 4.6 8.1
8/26/2023 3:00:00 AM 20.83 69.494 0.67 7.87 4.63 8.09
8/26/2023 3:15:00 AM 20.81 69.458 0.67 7.84 5.19 8.1
8/26/2023 3:30:00 AM 20.78 69.404 0.671 7.84 4.84 8.09
8/26/2023 3:45:00 AM 20.76 69.368 0.672 7.85 5.23 8.1
8/26/2023 4:00:00 AM 20.73 69.314 0.673 7.87 4.9 8.1
8/26/2023 4:15:00 AM 20.71 69.278 0.673 7.86 5.71 8.1
8/26/2023 4:30:00 AM 20.68 69.224 0.673 7.85 4.98 8.1
8/26/2023 4:45:00 AM 20.66 69.188 0.674 7.75 5.45 8.1
8/26/2023 5:00:00 AM 20.64 69.152 0.674 7.86 5.04 8.1
8/26/2023 5:15:00 AM 20.63 69.134 0.675 7.81 5.72 8.11
8/26/2023 5:30:00 AM 20.61 69.098 0.675 7.85 5.48 8.1
8/26/2023 5:45:00 AM 20.59 69.062 0.676 7.83 5.37 8.11
8/26/2023 6:00:00 AM 20.58 69.044 0.676 7.83 5.18 8.1
8/26/2023 6:15:00 AM 20.56 69.008 0.676 7.83 5.2 8.1
8/26/2023 6:30:00 AM 20.56 69.008 0.677 7.85 5.03 8.1
8/26/2023 6:45:00 AM 20.56 69.008 0.677 7.84 5.22 8.1
8/26/2023 7:00:00 AM 20.56 69.008 0.677 7.83 5.25 8.11
8/26/2023 7:15:00 AM 20.57 69.026 0.678 7.9 5.43 8.12
8/26/2023 7:30:00 AM 20.57 69.026 0.678 7.83 4.77 8.14
8/26/2023 7:45:00 AM 20.58 69.044 0.678 7.83 4.58 8.19
8/26/2023 8:00:00 AM 20.59 69.062 0.678 7.83 4.56 8.19
8/26/2023 8:15:00 AM 20.61 69.098 0.679 7.85 4.26 8.23
8/26/2023 8:30:00 AM 20.64 69.152 0.679 7.84 4.52 8.28
8/26/2023 8:45:00 AM 20.67 69.206 0.68 7.86 4.38 8.35
8/26/2023 9:00:00 AM 20.67 69.206 0.68 7.87 4.37 8.31
8/26/2023 9:15:00 AM 20.7 69.26 0.681 7.87 4.49 8.37
8/26/2023 9:30:00 AM 20.73 69.314 0.681 7.86 4.19 8.41
8/26/2023 9:45:00 AM 20.78 69.404 0.682 7.87 4.05 8.43
8/26/2023 10:00:00 AM 20.83 69.494 0.682 7.88 4 8.49
8/26/2023 10:15:00 AM 20.85 69.53 0.682 7.8 4.99 8.46
8/26/2023 10:30:00 AM 20.88 69.584 0.682 7.89 3.91 8.48
8/26/2023 10:45:00 AM 21 69.8 0.682 7.89 4.64 8.58
8/26/2023 11:00:00 AM 21.22 70.196 0.683 7.91 3.68 8.68
8/26/2023 11:15:00 AM 21.32 70.376 0.682 7.91 3.71 8.7
8/26/2023 11:30:00 AM 21.35 70.43 0.682 7.92 3.74 8.67
8/26/2023 11:45:00 AM 21.36 70.448 0.682 7.91 3.73 8.66
8/26/2023 12:00:00 PM 21.37 70.466 0.681 7.91 4 8.54
8/26/2023 12:15:00 PM 21.48 70.664 0.681 7.93 3.93 8.64
8/26/2023 12:30:00 PM 21.62 70.916 0.68 7.94 3.76 8.69
8/26/2023 12:45:00 PM 21.71 71.078 0.68 7.96 3.81 8.64
8/26/2023 1:00:00 PM 21.78 71.204 0.68 7.97 3.74 8.68
8/26/2023 1:15:00 PM 21.85 71.33 0.679 7.98 3.64 8.65
8/26/2023 1:30:00 PM 21.96 71.528 0.679 7.95 3.33 8.64
8/26/2023 1:45:00 PM 22.1 71.78 0.679 7.97 3.68 8.65
8/26/2023 2:00:00 PM 22.24 72.032 0.679 7.97 3.72 8.61
8/26/2023 2:15:00 PM 22.26 72.068 0.679 7.97 3.85 8.58
8/26/2023 2:30:00 PM 22.23 72.014 0.679 7.98 3.7 8.47
8/26/2023 2:45:00 PM 22.29 72.122 0.679 7.89 3.65 8.46
8/26/2023 3:00:00 PM 22.45 72.41 0.678 7.97 3.82 8.54
8/26/2023 3:15:00 PM 22.49 72.482 0.678 7.96 3.84 8.52
8/26/2023 3:30:00 PM 22.46 72.42799 0.678 7.94 3.76 8.5
8/26/2023 3:45:00 PM 22.44 72.392 0.679 7.94 3.91 8.46
8/26/2023 4:00:00 PM 22.44 72.392 0.679 7.94 3.59 8.4
8/26/2023 4:15:00 PM 22.48 72.464 0.679 7.96 3.23 8.37
8/26/2023 4:30:00 PM 22.47 72.446 0.678 7.94 3.46 8.32
8/26/2023 4:45:00 PM 22.44 72.392 0.679 7.93 3.21 8.25
8/26/2023 5:00:00 PM 22.47 72.446 0.679 7.91 3.64 8.24
8/26/2023 5:15:00 PM 22.5 72.5 0.679 7.92 3.58 8.24
8/26/2023 5:30:00 PM 22.57 72.626 0.679 7.91 3.75 8.19
8/26/2023 5:45:00 PM 22.57 72.626 0.679 7.9 3.64 8.13
8/26/2023 6:00:00 PM 22.57 72.626 0.679 7.91 3.57 8.1
8/26/2023 6:15:00 PM 22.59 72.662 0.679 7.91 3.24 8.08
8/26/2023 6:30:00 PM 22.61 72.698 0.679 7.93 3.48 8.03
8/26/2023 6:45:00 PM 22.68 72.824 0.68 7.93 3.78 8
8/26/2023 7:00:00 PM 22.77 72.986 0.68 7.94 3.48 7.96
8/26/2023 7:15:00 PM 22.84 73.112 0.68 7.85 3.81 7.93
8/26/2023 7:30:00 PM 22.87 73.166 0.68 7.92 3.28 7.92
8/26/2023 7:45:00 PM 22.87 73.166 0.68 7.86 3.3 7.89
8/26/2023 8:00:00 PM 22.85 73.13 0.68 7.92 3.73 7.88
8/26/2023 8:15:00 PM 22.81 73.058 0.681 7.83 3.67 7.86
8/26/2023 8:30:00 PM 22.75 72.95 0.681 7.9 3.84 7.87
8/26/2023 8:45:00 PM 22.7 72.86 0.681 7.89 3.79 7.89
8/26/2023 9:00:00 PM 22.64 72.752 0.681 7.93 3.7 7.88
8/26/2023 9:15:00 PM 22.58 72.644 0.681 7.93 3.88 7.91
8/26/2023 9:30:00 PM 22.53 72.554 0.681 7.89 3.38 7.93
8/26/2023 9:45:00 PM 22.48 72.464 0.681 7.93 3.86 7.92
8/26/2023 10:00:00 PM 22.42 72.356 0.681 7.92 3.64 7.94
8/26/2023 10:15:00 PM 22.38 72.284 0.681 7.92 3.63 7.94
8/26/2023 10:30:00 PM 22.33 72.194 0.681 7.92 3.34 7.95
8/26/2023 10:45:00 PM 22.29 72.122 0.681 7.92 3.65 7.95
8/26/2023 11:00:00 PM 22.24 72.032 0.681 7.92 3.5 7.94
8/26/2023 11:15:00 PM 22.19 71.942 0.681 7.89 3.55 7.95
8/26/2023 11:30:00 PM 22.14 71.852 0.681 7.77 3.47 7.96
8/26/2023 11:45:00 PM 22.1 71.78 0.681 7.89 3.4 7.96
8/27/2023 12:00:00 AM 22.06 71.708 0.681 7.91 3.92 7.96
8/27/2023 12:15:00 AM 22.02 71.636 0.681 7.9 3.5 7.95
8/27/2023 12:30:00 AM 21.98 71.564 0.681 7.9 4.11 7.95
8/27/2023 12:45:00 AM 21.94 71.492 0.681 7.91 3.84 7.96
8/27/2023 1:00:00 AM 21.9 71.42 0.681 7.92 4.16 7.95
8/27/2023 1:15:00 AM 21.87 71.366 0.681 7.92 3.82 7.95
8/27/2023 1:30:00 AM 21.83 71.294 0.681 7.91 4.11 7.95
8/27/2023 1:45:00 AM 21.8 71.24 0.681 7.91 4.37 7.94
8/27/2023 2:00:00 AM 21.76 71.168 0.681 7.9 3.85 7.94
8/27/2023 2:15:00 AM 21.73 71.114 0.681 7.9 4.19 7.94
8/27/2023 2:30:00 AM 21.7 71.06 0.681 7.9 4.87 7.92
8/27/2023 2:45:00 AM 21.66 70.988 0.681 7.87 4.05 7.92
8/27/2023 3:00:00 AM 21.63 70.934 0.681 7.89 4.33 7.92
8/27/2023 3:15:00 AM 21.59 70.862 0.681 7.9 4.31 7.9
8/27/2023 3:30:00 AM 21.56 70.808 0.681 7.84 4.45 7.91
8/27/2023 3:45:00 AM 21.52 70.736 0.681 7.85 4.29 7.92
8/27/2023 4:00:00 AM 21.49 70.682 0.681 7.85 4.57 7.9
8/27/2023 4:15:00 AM 21.46 70.628 0.681 7.85 5.25 7.9
8/27/2023 4:30:00 AM 21.42 70.556 0.681 7.85 4.89 7.91
8/27/2023 4:45:00 AM 21.39 70.502 0.681 7.85 4.92 7.91
8/27/2023 5:00:00 AM 21.35 70.43 0.681 7.84 5.41 7.9
8/27/2023 5:15:00 AM 21.32 70.376 0.681 7.83 5.03 7.91
8/27/2023 5:30:00 AM 21.28 70.304 0.681 7.81 6.51 7.91
8/27/2023 5:45:00 AM 21.25 70.25 0.681 7.87 6.06 7.92
8/27/2023 6:00:00 AM 21.21 70.17799 0.681 7.82 5.41 7.91
8/27/2023 6:15:00 AM 21.18 70.124 0.681 7.83 5.85 7.92
8/27/2023 6:30:00 AM 21.14 70.052 0.681 7.81 5.31 7.92
8/27/2023 6:45:00 AM 21.11 69.998 0.681 7.86 5.55 7.93
8/27/2023 7:00:00 AM 21.09 69.962 0.681 7.85 6 7.94
8/27/2023 7:15:00 AM 21.07 69.926 0.681 7.86 5.8 7.95
8/27/2023 7:30:00 AM 21.06 69.908 0.681 7.83 5.87 7.95
8/27/2023 7:45:00 AM 21.06 69.908 0.681 7.84 5.92 7.98
8/27/2023 8:00:00 AM 21.06 69.908 0.681 7.83 5.51 7.99
8/27/2023 8:15:00 AM 21.08 69.944 0.681 7.84 5.69 8.01
8/27/2023 8:30:00 AM 21.1 69.98 0.681 7.84 5.4 8.04
8/27/2023 8:45:00 AM 21.13 70.034 0.681 7.83 5.21 8.1
8/27/2023 9:00:00 AM 21.17 70.106 0.681 7.84 5.48 8.13
8/27/2023 9:15:00 AM 21.23 70.214 0.681 7.85 5.57 8.18
8/27/2023 9:30:00 AM 21.3 70.34 0.681 7.85 5.32 8.25
8/27/2023 9:45:00 AM 21.38 70.484 0.682 7.85 5.1 8.31
8/27/2023 10:00:00 AM 21.46 70.628 0.681 7.86 5.14 8.36
8/27/2023 10:15:00 AM 21.55 70.79 0.682 7.88 5 8.42
8/27/2023 10:30:00 AM 21.66 70.988 0.682 7.88 4.92 8.49
8/27/2023 10:45:00 AM 21.78 71.204 0.683 7.91 4.89 8.55
8/27/2023 11:00:00 AM 21.88 71.384 0.683 7.9 4.68 8.58
8/27/2023 11:15:00 AM 22.01 71.618 0.684 7.91 4.69 8.6
8/27/2023 11:30:00 AM 22.14 71.852 0.684 7.92 4.71 8.62
8/27/2023 11:45:00 AM 22.24 72.032 0.685 7.93 4.35 8.61
8/27/2023 12:00:00 PM 22.36 72.248 0.686 7.92 4.47 8.62
8/27/2023 12:15:00 PM 22.57 72.626 0.688 7.93 4.37 8.62
8/27/2023 12:30:00 PM 22.54 72.57201 0.689 7.93 4.3 8.46
8/27/2023 12:45:00 PM 22.61 72.698 0.69 7.94 4.44 8.54
8/27/2023 1:00:00 PM 22.64 72.752 0.691 7.93 4 8.54
8/27/2023 1:15:00 PM 22.7 72.86 0.691 7.93 4.16 8.57
8/27/2023 1:30:00 PM 22.68 72.824 0.692 7.94 4.12 8.49
8/27/2023 1:45:00 PM 22.67 72.806 0.693 7.94 4.34 8.41
8/27/2023 2:00:00 PM 22.76 72.968 0.693 7.96 3.95 8.49
8/27/2023 2:15:00 PM 22.72 72.896 0.694 7.94 3.98 8.35
8/27/2023 2:30:00 PM 22.71 72.878 0.695 7.93 3.9 8.24
8/27/2023 2:45:00 PM 22.9 73.22 0.696 7.93 3.95 8.34
8/27/2023 3:00:00 PM 22.92 73.256 0.697 7.94 3.79 8.21
8/27/2023 3:15:00 PM 22.97 73.346 0.697 7.94 4.14 8.2
8/27/2023 3:30:00 PM 23 73.4 0.699 7.93 3.64 8.09
8/27/2023 3:45:00 PM 23.08 73.544 0.699 7.92 4.22 8.16
8/27/2023 4:00:00 PM 23.04 73.472 0.7 7.93 3.67 8.06
8/27/2023 4:15:00 PM 23.07 73.526 0.7 7.94 3.82 8
8/27/2023 4:30:00 PM 23.1 73.58 0.701 7.91 3.6 7.97
8/27/2023 4:45:00 PM 23.17 73.706 0.701 7.83 3.89 8
8/27/2023 5:00:00 PM 23.18 73.724 0.701 7.92 3.48 8
8/27/2023 5:15:00 PM 23.17 73.706 0.702 7.91 3.61 8.02
8/27/2023 5:30:00 PM 23.15 73.67 0.702 7.92 3.89 8
8/27/2023 5:45:00 PM 23.12 73.616 0.702 7.92 3.78 7.99
8/27/2023 6:00:00 PM 23.08 73.544 0.702 7.92 3.41 8.01
8/27/2023 6:15:00 PM 23.04 73.472 0.703 7.91 3.7 7.92
8/27/2023 6:30:00 PM 22.97 73.346 0.703 7.91 4.21 7.85
8/27/2023 6:45:00 PM 22.93 73.274 0.703 7.89 3.69 7.82
8/27/2023 7:00:00 PM 22.89 73.202 0.703 7.91 3.75 7.79
8/27/2023 7:15:00 PM 22.87 73.166 0.703 7.89 3.72 7.77
8/27/2023 7:30:00 PM 22.85 73.13 0.703 7.89 3.94 7.76
8/27/2023 7:45:00 PM 22.84 73.112 0.703 7.9 3.8 7.72
8/27/2023 8:00:00 PM 22.82 73.076 0.703 7.89 4.2 7.7
8/27/2023 8:15:00 PM 22.8 73.04 0.703 7.88 4.16 7.68
8/27/2023 8:30:00 PM 22.76 72.968 0.703 7.77 4.27 7.67
8/27/2023 8:45:00 PM 22.69 72.842 0.702 7.88 4 7.69
8/27/2023 9:00:00 PM 22.64 72.752 0.702 7.88 4.11 7.7
8/27/2023 9:15:00 PM 22.59 72.662 0.702 7.89 4.05 7.7
8/27/2023 9:30:00 PM 22.55 72.59 0.702 7.87 3.99 7.7
8/27/2023 9:45:00 PM 22.51 72.518 0.701 7.88 4.15 7.71
8/27/2023 10:00:00 PM 22.48 72.464 0.702 7.87 3.81 7.72
8/27/2023 10:15:00 PM 22.46 72.42799 0.701 7.78 5.19 7.69
8/27/2023 10:30:00 PM 22.42 72.356 0.701 7.89 4.23 7.72
8/27/2023 10:45:00 PM 22.39 72.302 0.7 7.84 4.09 7.71
8/27/2023 11:00:00 PM 22.34 72.212 0.7 7.87 4.22 7.71
8/27/2023 11:15:00 PM 22.32 72.176 0.701 7.85 4.38 7.7
8/27/2023 11:30:00 PM 22.29 72.122 0.7 7.85 3.89 7.71
8/27/2023 11:45:00 PM 22.24 72.032 0.7 7.8 4.25 7.7
8/28/2023 12:00:00 AM 22.21 71.978 0.699 7.85 3.77 7.73
8/28/2023 12:15:00 AM 22.2 71.96 0.699 7.86 4.17 7.73
8/28/2023 12:30:00 AM 22.22 71.996 0.7 7.89 4.15 7.73
8/28/2023 12:45:00 AM 22.21 71.978 0.699 7.89 4.11 7.74
8/28/2023 1:00:00 AM 22.2 71.96 0.699 7.9 4.13 7.75
8/28/2023 1:15:00 AM 22.15 71.87 0.699 7.86 4.39 7.76
8/28/2023 1:30:00 AM 22.1 71.78 0.698 7.87 4.32 7.75
8/28/2023 1:45:00 AM 22.04 71.672 0.698 7.8 4.09 7.73
8/28/2023 2:00:00 AM 21.98 71.564 0.697 7.89 4.14 7.74
8/28/2023 2:15:00 AM 21.94 71.492 0.697 7.85 4.13 7.72
8/28/2023 2:30:00 AM 21.91 71.438 0.697 7.86 4.56 7.73
8/28/2023 2:45:00 AM 21.89 71.402 0.696 7.86 4.37 7.71
8/28/2023 3:00:00 AM 21.87 71.366 0.696 7.78 4.59 7.72
8/28/2023 3:15:00 AM 21.85 71.33 0.696 7.86 4.31 7.72
8/28/2023 3:30:00 AM 21.83 71.294 0.696 7.85 4.46 7.73
8/28/2023 3:45:00 AM 21.81 71.258 0.696 7.84 5.17 7.72
8/28/2023 4:00:00 AM 21.79 71.222 0.696 7.87 5.05 7.73
8/28/2023 4:15:00 AM 21.77 71.186 0.696 7.84 5.08 7.74
8/28/2023 4:30:00 AM 21.75 71.15 0.695 7.79 5.03 7.74
8/28/2023 4:45:00 AM 21.72 71.096 0.695 7.84 4.82 7.73
8/28/2023 5:00:00 AM 21.69 71.042 0.695 7.85 5.96 7.74
8/28/2023 5:15:00 AM 21.67 71.006 0.694 7.86 5.73 7.71
8/28/2023 5:30:00 AM 21.64 70.952 0.694 7.83 4.99 7.71
8/28/2023 5:45:00 AM 21.62 70.916 0.694 7.83 5.54 7.7
8/28/2023 6:00:00 AM 21.6 70.88 0.694 7.83 5.56 7.69
8/28/2023 6:15:00 AM 21.59 70.862 0.693 7.83 5.05 7.7
8/28/2023 6:30:00 AM 21.57 70.826 0.693 7.84 5.21 7.69
8/28/2023 6:45:00 AM 21.55 70.79 0.693 7.82 5 7.68
8/28/2023 7:00:00 AM 21.54 70.772 0.693 7.82 5.45 7.69
8/28/2023 7:15:00 AM 21.53 70.754 0.693 7.85 4.63 7.69
8/28/2023 7:30:00 AM 21.52 70.736 0.692 7.86 4.83 7.71
8/28/2023 7:45:00 AM 21.52 70.736 0.692 7.82 4.84 7.75
8/28/2023 8:00:00 AM 21.51 70.718 0.692 7.82 4.96 7.77
8/28/2023 8:15:00 AM 21.52 70.736 0.692 7.84 4.78 7.83
8/28/2023 8:30:00 AM 21.53 70.754 0.692 7.82 4.9 7.86
8/28/2023 8:45:00 AM 21.54 70.772 0.692 7.84 4.56 7.89
8/28/2023 9:00:00 AM 21.57 70.826 0.691 7.85 4.72 7.96
8/28/2023 9:15:00 AM 21.6 70.88 0.691 7.85 4.78 8.04
8/28/2023 9:30:00 AM 21.61 70.898 0.691 7.81 4.51 8.11
8/28/2023 9:45:00 AM 21.62 70.916 0.691 7.86 4.96 8.13
8/28/2023 10:00:00 AM 21.63 70.934 0.691 7.86 4.57 8.13
8/28/2023 10:15:00 AM 21.67 71.006 0.691 7.87 4.51 8.2
8/28/2023 10:30:00 AM 21.72 71.096 0.691 7.86 4.52 8.26
8/28/2023 10:45:00 AM 21.75 71.15 0.691 7.87 4.48 8.26
8/28/2023 11:00:00 AM 21.77 71.186 0.69 7.88 4.6 8.26
8/28/2023 11:15:00 AM 21.8 71.24 0.69 7.91 4.61 8.29
8/28/2023 11:30:00 AM 21.85 71.33 0.69 7.92 4.35 8.33
8/28/2023 11:45:00 AM 21.85 71.33 0.69 7.91 4.72 8.29
8/28/2023 12:00:00 PM 21.88 71.384 0.689 7.91 4.38 8.3
8/28/2023 12:15:00 PM 21.9 71.42 0.689 7.92 4.4 8.3
8/28/2023 12:30:00 PM 21.92 71.456 0.689 7.91 4.6 8.3
8/28/2023 12:45:00 PM 21.97 71.546 0.689 7.9 4.62 8.35
8/28/2023 1:00:00 PM 21.96 71.528 0.688 7.9 4.3 8.27
8/28/2023 1:15:00 PM 21.95 71.51 0.688 7.91 4.26 8.22
8/28/2023 1:30:00 PM 21.99 71.582 0.688 7.91 4.32 8.26
8/28/2023 1:45:00 PM 22.04 71.672 0.687 7.92 4.38 8.34
8/28/2023 2:00:00 PM 22.05 71.69 0.687 7.88 4.23 8.26
8/28/2023 2:15:00 PM 22.07 71.726 0.686 7.89 4.55 8.24
8/28/2023 2:30:00 PM 22.15 71.87 0.685 7.89 4.22 8.37
8/28/2023 2:45:00 PM 22.18 71.924 0.684 7.91 4.09 8.37
8/28/2023 3:00:00 PM 22.25 72.05 0.683 7.92 4 8.41
8/28/2023 3:15:00 PM 22.28 72.104 0.682 7.92 3.8 8.38
8/28/2023 3:30:00 PM 22.3 72.14 0.681 7.91 4.02 8.25
8/28/2023 3:45:00 PM 22.41 72.338 0.679 7.91 3.78 8.41
8/28/2023 4:00:00 PM 22.42 72.356 0.678 7.93 3.91 8.39
8/28/2023 4:15:00 PM 22.48 72.464 0.678 7.93 3.8 8.38
8/28/2023 4:30:00 PM 22.5 72.5 0.676 7.94 3.83 8.31
8/28/2023 4:45:00 PM 22.53 72.554 0.675 7.95 3.83 8.27
8/28/2023 5:00:00 PM 22.53 72.554 0.675 7.94 3.9 8.27
8/28/2023 5:15:00 PM 22.53 72.554 0.674 7.94 3.96 8.25
8/28/2023 5:30:00 PM 22.53 72.554 0.674 7.95 3.56 8.24
8/28/2023 5:45:00 PM 22.52 72.536 0.673 7.93 3.69 8.18
8/28/2023 6:00:00 PM 22.53 72.554 0.673 7.94 3.93 8.16
8/28/2023 6:15:00 PM 22.54 72.57201 0.672 7.92 3.66 8.17
8/28/2023 6:30:00 PM 22.55 72.59 0.671 7.93 3.73 8.14
8/28/2023 6:45:00 PM 22.54 72.57201 0.671 7.92 3.78 8.08
8/28/2023 7:00:00 PM 22.49 72.482 0.67 7.93 3.94 7.98
8/28/2023 7:15:00 PM 22.44 72.392 0.67 7.93 3.83 7.91
8/28/2023 7:30:00 PM 22.41 72.338 0.67 7.93 3.85 7.85
8/28/2023 7:45:00 PM 22.37 72.266 0.67 7.92 3.73 7.78
8/28/2023 8:00:00 PM 22.34 72.212 0.669 7.91 3.85 7.76
8/28/2023 8:15:00 PM 22.31 72.158 0.669 7.9 3.85 7.73
8/28/2023 8:30:00 PM 22.27 72.086 0.669 7.89 4.02 7.73
8/28/2023 8:45:00 PM 22.25 72.05 0.669 7.86 4.65 7.72
8/28/2023 9:00:00 PM 22.23 72.014 0.669 7.87 4.05 7.72
8/28/2023 9:15:00 PM 22.21 71.978 0.668 7.86 4.2 7.72
8/28/2023 9:30:00 PM 22.18 71.924 0.669 7.84 4.07 7.72
8/28/2023 9:45:00 PM 22.16 71.888 0.668 7.86 4.24 7.72
8/28/2023 10:00:00 PM 22.15 71.87 0.669 7.86 4.37 7.72
8/28/2023 10:15:00 PM 22.13 71.834 0.669 7.85 4.47 7.71
8/28/2023 10:30:00 PM 22.12 71.816 0.668 7.84 4.18 7.71
8/28/2023 10:45:00 PM 22.1 71.78 0.668 7.85 4.25 7.71
8/28/2023 11:00:00 PM 22.08 71.744 0.668 7.84 4.33 7.7
8/28/2023 11:15:00 PM 22.06 71.708 0.668 7.84 4.69 7.7
8/28/2023 11:30:00 PM 22.04 71.672 0.667 7.84 4.51 7.71
8/28/2023 11:45:00 PM 22.01 71.618 0.667 7.84 4.54 7.71
8/29/2023 12:00:00 AM 21.99 71.582 0.667 7.85 4.6 7.71
8/29/2023 12:15:00 AM 21.96 71.528 0.667 7.84 5.33 7.7
8/29/2023 12:30:00 AM 21.94 71.492 0.667 7.79 4.69 7.7
8/29/2023 12:45:00 AM 21.92 71.456 0.667 7.83 4.36 7.71
8/29/2023 1:00:00 AM 21.89 71.402 0.667 7.83 4.65 7.7
8/29/2023 1:15:00 AM 21.87 71.366 0.666 7.84 4.79 7.7
8/29/2023 1:30:00 AM 21.84 71.312 0.666 7.83 4.46 7.69
8/29/2023 1:45:00 AM 21.81 71.258 0.666 7.84 5.2 7.68
8/29/2023 2:00:00 AM 21.78 71.204 0.666 7.84 4.79 7.69
8/29/2023 2:15:00 AM 21.75 71.15 0.666 7.83 4.91 7.69
8/29/2023 2:30:00 AM 21.73 71.114 0.666 7.84 4.43 7.67
8/29/2023 2:45:00 AM 21.71 71.078 0.666 7.83 4.78 7.68
8/29/2023 3:00:00 AM 21.7 71.06 0.666 7.85 5.54 7.66
8/29/2023 3:15:00 AM 21.68 71.024 0.666 7.85 5.56 7.65
8/29/2023 3:30:00 AM 21.66 70.988 0.665 7.8 5.39 7.66
8/29/2023 3:45:00 AM 21.64 70.952 0.665 7.83 5.49 7.65
8/29/2023 4:00:00 AM 21.63 70.934 0.664 7.82 5.29 7.65
8/29/2023 4:15:00 AM 21.61 70.898 0.664 7.82 5.44 7.63
8/29/2023 4:30:00 AM 21.6 70.88 0.664 7.83 6.1 7.62
8/29/2023 4:45:00 AM 21.59 70.862 0.663 7.82 5.44 7.62
8/29/2023 5:00:00 AM 21.58 70.844 0.663 7.81 5.58 7.61
8/29/2023 5:15:00 AM 21.56 70.808 0.662 7.82 5.45 7.6
8/29/2023 5:30:00 AM 21.55 70.79 0.661 7.81 5.34 7.6
8/29/2023 5:45:00 AM 21.54 70.772 0.66 7.81 5.77 7.58
8/29/2023 6:00:00 AM 21.53 70.754 0.661 7.82 5.69 7.58
8/29/2023 6:15:00 AM 21.51 70.718 0.66 7.81 5.84 7.58
8/29/2023 6:30:00 AM 21.5 70.7 0.659 7.81 6.13 7.58
8/29/2023 6:45:00 AM 21.49 70.682 0.659 7.79 6.27 7.56
8/29/2023 7:00:00 AM 21.48 70.664 0.659 7.79 6.27 7.59
8/29/2023 7:15:00 AM 21.48 70.664 0.658 7.79 5.66 7.59
8/29/2023 7:30:00 AM 21.47 70.646 0.658 7.8 6.06 7.61
8/29/2023 7:45:00 AM 21.47 70.646 0.658 7.78 5.61 7.63
8/29/2023 8:00:00 AM 21.46 70.628 0.657 7.79 5.64 7.63
8/29/2023 8:15:00 AM 21.45 70.61 0.657 7.77 5.56 7.61
8/29/2023 8:30:00 AM 21.44 70.592 0.656 7.8 5.71 7.61
8/29/2023 8:45:00 AM 21.44 70.592 0.654 7.79 5.79 7.63
8/29/2023 9:00:00 AM 21.44 70.592 0.653 7.81 5.64 7.68
8/29/2023 9:15:00 AM 21.43 70.574 0.65 7.8 5.49 7.71
8/29/2023 9:30:00 AM 21.44 70.592 0.648 7.82 5.48 7.82
8/29/2023 9:45:00 AM 21.46 70.628 0.646 7.83 5.29 7.97
8/29/2023 10:00:00 AM 21.47 70.646 0.645 7.85 4.91 8
8/29/2023 10:15:00 AM 21.46 70.628 0.644 7.82 4.7 7.99
8/29/2023 10:30:00 AM 21.49 70.682 0.643 7.86 4.92 8.07
8/29/2023 10:45:00 AM 21.49 70.682 0.642 7.85 4.78 8.08
8/29/2023 11:00:00 AM 21.49 70.682 0.642 7.87 4.93 8.05
8/29/2023 11:15:00 AM 21.51 70.718 0.642 7.88 4.7 8.12
8/29/2023 11:30:00 AM 21.51 70.718 0.641 7.87 4.76 8.09
8/29/2023 11:45:00 AM 21.54 70.772 0.641 7.86 4.82 8.15
8/29/2023 12:00:00 PM 21.58 70.844 0.641 7.89 4.79 8.18
8/29/2023 12:15:00 PM 21.59 70.862 0.64 7.89 4.98 8.2
8/29/2023 12:30:00 PM 21.58 70.844 0.64 7.89 4.65 8.16
8/29/2023 12:45:00 PM 21.59 70.862 0.64 7.87 4.59 8.17
8/29/2023 1:00:00 PM 21.62 70.916 0.639 7.86 4.74 8.23
8/29/2023 1:15:00 PM 21.66 70.988 0.639 7.89 4.76 8.29
8/29/2023 1:30:00 PM 21.68 71.024 0.638 7.9 4.65 8.3
8/29/2023 1:45:00 PM 21.69 71.042 0.637 7.9 4.53 8.32
8/29/2023 2:00:00 PM 21.7 71.06 0.636 7.86 4.81 8.29
8/29/2023 2:15:00 PM 21.82 71.276 0.636 7.91 5.11 8.44
8/29/2023 2:30:00 PM 21.92 71.456 0.635 7.93 4.39 8.5
8/29/2023 2:45:00 PM 21.95 71.51 0.635 7.91 4.8 8.44
8/29/2023 3:00:00 PM 21.97 71.546 0.635 7.92 4.62 8.43
8/29/2023 3:15:00 PM 21.98 71.564 0.635 7.92 4.36 8.43
8/29/2023 3:30:00 PM 21.99 71.582 0.634 7.91 4.54 8.42
8/29/2023 3:45:00 PM 22.02 71.636 0.634 7.9 4.82 8.38
8/29/2023 4:00:00 PM 22.06 71.708 0.635 7.9 4.25 8.28
8/29/2023 4:15:00 PM 22.07 71.726 0.635 7.83 4.51 8.16
8/29/2023 4:30:00 PM 22.07 71.726 0.633 7.9 4.42 8.07
8/29/2023 4:45:00 PM 22.04 71.672 0.632 7.89 4.45 8.05
8/29/2023 5:00:00 PM 22.02 71.636 0.631 7.91 4.34 8.05
8/29/2023 5:15:00 PM 22.01 71.618 0.63 7.89 4.27 8.08
8/29/2023 5:30:00 PM 22.01 71.618 0.629 7.9 4.14 8.08
8/29/2023 5:45:00 PM 22.04 71.672 0.629 7.91 4.57 8.08
8/29/2023 6:00:00 PM 22.08 71.744 0.629 7.88 4.11 8.06
8/29/2023 6:15:00 PM 22.11 71.798 0.628 7.9 4.13 7.99
8/29/2023 6:30:00 PM 22.13 71.834 0.628 7.88 4.17 7.91
8/29/2023 6:45:00 PM 22.12 71.816 0.628 7.88 3.96 7.82
8/29/2023 7:00:00 PM 22.11 71.798 0.627 7.86 4.05 7.8
8/29/2023 7:15:00 PM 22.12 71.816 0.628 7.87 3.93 7.75
8/29/2023 7:30:00 PM 22.12 71.816 0.627 7.86 4.79 7.72
8/29/2023 7:45:00 PM 22.12 71.816 0.627 7.87 4.15 7.7
8/29/2023 8:00:00 PM 22.11 71.798 0.626 7.86 4.83 7.69
8/29/2023 8:15:00 PM 22.11 71.798 0.627 7.88 4.74 7.68
8/29/2023 8:30:00 PM 22.11 71.798 0.626 7.84 4.53 7.69
8/29/2023 8:45:00 PM 22.11 71.798 0.626 7.86 4.39 7.69
8/29/2023 9:00:00 PM 22.1 71.78 0.626 7.87 4.94 7.69
8/29/2023 9:15:00 PM 22.09 71.762 0.626 7.87 4.58 7.68
8/29/2023 9:30:00 PM 22.08 71.744 0.626 7.88 4.17 7.73
8/29/2023 9:45:00 PM 22.06 71.708 0.625 7.86 4.19 7.71
8/29/2023 10:00:00 PM 22.05 71.69 0.625 7.84 3.95 7.72
8/29/2023 10:15:00 PM 22.03 71.654 0.625 7.84 4.06 7.74
8/29/2023 10:30:00 PM 22.02 71.636 0.625 7.86 4.25 7.73
8/29/2023 10:45:00 PM 22 71.6 0.625 7.85 4.58 7.72
8/29/2023 11:00:00 PM 21.99 71.582 0.625 7.85 4.58 7.7
8/29/2023 11:15:00 PM 21.97 71.546 0.625 7.91 4.19 7.7
8/29/2023 11:30:00 PM 21.95 71.51 0.625 7.82 4.76 7.72
8/29/2023 11:45:00 PM 21.93 71.474 0.625 7.86 4.23 7.7
8/30/2023 12:00:00 AM 21.91 71.438 0.625 7.87 5.07 7.72
8/30/2023 12:15:00 AM 21.88 71.384 0.625 7.88 4.4 7.74
8/30/2023 12:30:00 AM 21.86 71.348 0.625 7.87 4.62 7.73
8/30/2023 12:45:00 AM 21.85 71.33 0.625 7.87 4.62 7.74
8/30/2023 1:00:00 AM 21.83 71.294 0.625 7.86 4.61 7.72
8/30/2023 1:15:00 AM 21.82 71.276 0.625 7.88 4.94 7.73
8/30/2023 1:30:00 AM 21.81 71.258 0.625 7.87 4.36 7.73
8/30/2023 1:45:00 AM 21.8 71.24 0.625 7.87 4.69 7.71
8/30/2023 2:00:00 AM 21.78 71.204 0.625 7.87 5.04 7.71
8/30/2023 2:15:00 AM 21.78 71.204 0.625 7.82 4.46 7.71
8/30/2023 2:30:00 AM 21.77 71.186 0.625 7.87 4.7 7.69
8/30/2023 2:45:00 AM 21.76 71.168 0.626 7.87 4.58 7.7
8/30/2023 3:00:00 AM 21.75 71.15 0.626 7.85 4.57 7.7
8/30/2023 3:15:00 AM 21.74 71.132 0.626 7.87 5.02 7.68
8/30/2023 3:30:00 AM 21.74 71.132 0.626 7.86 4.77 7.67
8/30/2023 3:45:00 AM 21.73 71.114 0.626 7.87 4.79 7.69
8/30/2023 4:00:00 AM 21.72 71.096 0.626 7.86 4.95 7.66
8/30/2023 4:15:00 AM 21.7 71.06 0.626 7.86 4.98 7.65
8/30/2023 4:30:00 AM 21.68 71.024 0.626 7.86 5.07 7.65
8/30/2023 4:45:00 AM 21.65 70.97 0.626 7.85 4.8 7.64
8/30/2023 5:00:00 AM 21.63 70.934 0.626 7.76 4.81 7.63
8/30/2023 5:15:00 AM 21.6 70.88 0.626 7.84 5.22 7.62
8/30/2023 5:30:00 AM 21.58 70.844 0.627 7.83 5.23 7.62
8/30/2023 5:45:00 AM 21.57 70.826 0.627 7.83 5.26 7.6
8/30/2023 6:00:00 AM 21.55 70.79 0.626 7.85 5.04 7.58
8/30/2023 6:15:00 AM 21.52 70.736 0.626 7.85 5.91 7.59
8/30/2023 6:30:00 AM 21.49 70.682 0.627 7.82 5.54 7.57
8/30/2023 6:45:00 AM 21.45 70.61 0.627 7.82 5.72 7.56
8/30/2023 7:00:00 AM 21.43 70.574 0.627 7.8 6.03 7.57
8/30/2023 7:15:00 AM 21.42 70.556 0.627 7.83 5.48 7.57
8/30/2023 7:30:00 AM 21.41 70.538 0.627 7.8 5.69 7.61
8/30/2023 7:45:00 AM 21.41 70.538 0.627 7.72 4.88 7.65
8/30/2023 8:00:00 AM 21.42 70.556 0.627 7.8 4.98 7.72
8/30/2023 8:15:00 AM 21.41 70.538 0.627 7.73 4.87 7.75
8/30/2023 8:30:00 AM 21.42 70.556 0.627 7.83 5.09 7.78
8/30/2023 8:45:00 AM 21.44 70.592 0.627 7.82 4.68 7.82
8/30/2023 9:00:00 AM 21.48 70.664 0.627 7.84 4.68 7.89
8/30/2023 9:15:00 AM 21.52 70.736 0.627 7.85 4.63 7.97
8/30/2023 9:30:00 AM 21.58 70.844 0.627 7.86 4.58 8.06
8/30/2023 9:45:00 AM 21.62 70.916 0.627 7.86 4.71 8.11
8/30/2023 10:00:00 AM 21.66 70.988 0.627 7.86 4.37 8.19
8/30/2023 10:15:00 AM 21.7 71.06 0.627 7.9 4.19 8.26
8/30/2023 10:30:00 AM 21.77 71.186 0.627 7.88 4.32 8.34
8/30/2023 10:45:00 AM 21.85 71.33 0.627 7.89 4.65 8.41
8/30/2023 11:00:00 AM 21.93 71.474 0.627 7.89 4.22 8.44
8/30/2023 11:15:00 AM 21.99 71.582 0.627 7.89 4.42 8.49
8/30/2023 11:30:00 AM 21.9 71.42 0.627 7.9 4.45 8.39
8/30/2023 11:45:00 AM 21.9 71.42 0.626 7.89 4.64 8.4
8/30/2023 12:00:00 PM 21.94 71.492 0.627 7.9 4.55 8.42
8/30/2023 12:15:00 PM 22.03 71.654 0.627 7.9 4.77 8.46
8/30/2023 12:30:00 PM 22.05 71.69 0.626 7.89 4.76 8.47
8/30/2023 12:45:00 PM 22.04 71.672 0.626 7.9 4.73 8.45
8/30/2023 1:00:00 PM 22.13 71.834 0.626 7.9 4.42 8.49
8/30/2023 1:15:00 PM 22.16 71.888 0.626 7.9 4.64 8.5
8/30/2023 1:30:00 PM 22.14 71.852 0.626 7.91 4.58 8.44
8/30/2023 1:45:00 PM 22.07 71.726 0.626 7.84 4.56 8.39
8/30/2023 2:00:00 PM 22.07 71.726 0.626 7.9 4.83 8.36
8/30/2023 2:15:00 PM 22.19 71.942 0.626 7.93 4.7 8.5
8/30/2023 2:30:00 PM 22.21 71.978 0.626 7.92 4.95 8.48
8/30/2023 2:45:00 PM 22.21 71.978 0.626 7.93 4.52 8.43
8/30/2023 3:00:00 PM 22.25 72.05 0.626 7.93 4.61 8.48
8/30/2023 3:15:00 PM 22.24 72.032 0.625 7.94 4.49 8.4
8/30/2023 3:30:00 PM 22.27 72.086 0.625 7.94 4.26 8.4
8/30/2023 3:45:00 PM 22.24 72.032 0.625 7.94 4.36 8.4
8/30/2023 4:00:00 PM 22.23 72.014 0.625 7.93 4.34 8.38
8/30/2023 4:15:00 PM 22.23 72.014 0.625 7.92 4.19 8.36
8/30/2023 4:30:00 PM 22.22 71.996 0.625 7.93 4.21 8.26
8/30/2023 4:45:00 PM 22.23 72.014 0.625 7.92 4.25 8.26
8/30/2023 5:00:00 PM 22.21 71.978 0.625 7.93 4.25 8.2
8/30/2023 5:15:00 PM 22.22 71.996 0.625 7.93 4.03 8.19
8/30/2023 5:30:00 PM 22.21 71.978 0.625 7.92 4.07 8.12
8/30/2023 5:45:00 PM 22.2 71.96 0.625 7.91 4.26 8.09
8/30/2023 6:00:00 PM 22.2 71.96 0.625 7.92 5.23 8.03
8/30/2023 6:15:00 PM 22.2 71.96 0.625 7.92 4.79 8.01
8/30/2023 6:30:00 PM 22.22 71.996 0.626 7.9 4.23 7.99
8/30/2023 6:45:00 PM 22.23 72.014 0.626 7.92 3.95 7.95
8/30/2023 7:00:00 PM 22.24 72.032 0.626 7.93 3.9 7.91
8/30/2023 7:15:00 PM 22.25 72.05 0.626 7.92 3.98 7.85
8/30/2023 7:30:00 PM 22.25 72.05 0.626 7.92 3.87 7.81
8/30/2023 7:45:00 PM 22.25 72.05 0.626 7.92 3.73 7.76
8/30/2023 8:00:00 PM 22.26 72.068 0.626 7.9 3.94 7.75
8/30/2023 8:15:00 PM 22.27 72.086 0.626 7.9 4.42 7.75
8/30/2023 8:30:00 PM 22.27 72.086 0.627 7.88 4.19 7.75
8/30/2023 8:45:00 PM 22.26 72.068 0.627 7.92 4.36 7.75
8/30/2023 9:00:00 PM 22.26 72.068 0.627 7.91 3.99 7.78
8/30/2023 9:15:00 PM 22.26 72.068 0.627 7.91 4.16 7.78
8/30/2023 9:30:00 PM 22.24 72.032 0.627 7.92 3.8 7.78
8/30/2023 9:45:00 PM 22.23 72.014 0.628 7.91 3.99 7.78
8/30/2023 10:00:00 PM 22.21 71.978 0.628 7.85 4.11 7.78
8/30/2023 10:15:00 PM 22.2 71.96 0.628 7.9 3.85 7.78
8/30/2023 10:30:00 PM 22.17 71.906 0.628 7.91 3.9 7.79
8/30/2023 10:45:00 PM 22.14 71.852 0.628 7.91 4.08 7.81
8/30/2023 11:00:00 PM 22.11 71.798 0.628 7.9 4.06 7.82
8/30/2023 11:15:00 PM 22.07 71.726 0.629 7.9 4.79 7.82
8/30/2023 11:30:00 PM 22.04 71.672 0.629 7.9 4.69 7.82
8/30/2023 11:45:00 PM 22.02 71.636 0.629 7.9 4.09 7.83
8/31/2023 12:00:00 AM 21.98 71.564 0.629 7.9 4.54 7.83
8/31/2023 12:15:00 AM 21.96 71.528 0.63 7.86 4.25 7.83
8/31/2023 12:30:00 AM 21.93 71.474 0.63 7.9 4.43 7.83
8/31/2023 12:45:00 AM 21.91 71.438 0.63 7.9 4.08 7.84
8/31/2023 1:00:00 AM 21.88 71.384 0.631 7.83 4.53 7.83
8/31/2023 1:15:00 AM 21.85 71.33 0.631 7.89 4.1 7.84
8/31/2023 1:30:00 AM 21.82 71.276 0.631 7.89 4.68 7.83
8/31/2023 1:45:00 AM 21.8 71.24 0.631 7.9 4.64 7.84
8/31/2023 2:00:00 AM 21.77 71.186 0.632 7.85 4.27 7.83
8/31/2023 2:15:00 AM 21.75 71.15 0.632 7.8 4.49 7.84
8/31/2023 2:30:00 AM 21.72 71.096 0.632 7.88 4.57 7.83
8/31/2023 2:45:00 AM 21.71 71.078 0.632 7.89 4.8 7.83
8/31/2023 3:00:00 AM 21.69 71.042 0.633 7.88 4.58 7.83
8/31/2023 3:15:00 AM 21.66 70.988 0.633 7.87 5.26 7.83
8/31/2023 3:30:00 AM 21.63 70.934 0.633 7.88 5.73 7.81
8/31/2023 3:45:00 AM 21.61 70.898 0.634 7.88 5.92 7.82
8/31/2023 4:00:00 AM 21.57 70.826 0.634 7.9 5.76 7.79
8/31/2023 4:15:00 AM 21.56 70.808 0.634 7.88 5.74 7.8
8/31/2023 4:30:00 AM 21.54 70.772 0.633 7.9 6.04 7.79
8/31/2023 4:45:00 AM 21.5 70.7 0.634 7.89 5.68 7.76
8/31/2023 5:00:00 AM 21.48 70.664 0.634 7.86 6.28 7.75
8/31/2023 5:15:00 AM 21.45 70.61 0.634 7.87 5.94 7.75
8/31/2023 5:30:00 AM 21.43 70.574 0.634 7.87 6.42 7.75
8/31/2023 5:45:00 AM 21.4 70.52 0.634 7.87 6.75 7.73
8/31/2023 6:00:00 AM 21.37 70.466 0.634 7.87 6.41 7.73
8/31/2023 6:15:00 AM 21.34 70.412 0.634 7.86 6.51 7.71
8/31/2023 6:30:00 AM 21.31 70.358 0.634 7.81 6.46 7.7
8/31/2023 6:45:00 AM 21.28 70.304 0.634 7.86 7.49 7.7
8/31/2023 7:00:00 AM 21.25 70.25 0.634 7.85 6.64 7.7
8/31/2023 7:15:00 AM 21.24 70.232 0.634 7.85 6.99 7.71
8/31/2023 7:30:00 AM 21.22 70.196 0.634 7.84 6.73 7.74
8/31/2023 7:45:00 AM 21.21 70.17799 0.633 7.86 6.38 7.78
8/31/2023 8:00:00 AM 21.2 70.16 0.634 7.85 7.48 7.81
8/31/2023 8:15:00 AM 21.18 70.124 0.633 7.85 6.96 7.81
8/31/2023 8:30:00 AM 21.19 70.142 0.634 7.87 6.95 7.83
8/31/2023 8:45:00 AM 21.2 70.16 0.634 7.85 6.73 7.86
8/31/2023 9:00:00 AM 21.22 70.196 0.635 7.85 7.52 7.93
8/31/2023 9:15:00 AM 21.18 70.124 0.635 7.87 6.32 7.99
8/31/2023 9:30:00 AM 21.24 70.232 0.636 7.83 6.38 8.06
8/31/2023 9:45:00 AM 21.3 70.34 0.637 7.88 6.63 8.21
8/31/2023 10:00:00 AM 21.37 70.466 0.638 7.88 6.42 8.29
8/31/2023 10:15:00 AM 21.43 70.574 0.639 7.9 5.92 8.36
8/31/2023 10:30:00 AM 21.51 70.718 0.64 7.91 5.82 8.4
8/31/2023 10:45:00 AM 21.59 70.862 0.642 7.91 5.83 8.5
8/31/2023 11:00:00 AM 21.67 71.006 0.643 7.91 5.89 8.53
8/31/2023 11:15:00 AM 21.7 71.06 0.644 7.91 5.92 8.53
8/31/2023 11:30:00 AM 21.75 71.15 0.645 7.92 6.27 8.55
8/31/2023 11:45:00 AM 21.81 71.258 0.647 7.92 5.93 8.55
8/31/2023 12:00:00 PM 21.82 71.276 0.648 7.93 5.78 8.55
8/31/2023 12:15:00 PM 21.83 71.294 0.649 7.92 5.36 8.51
8/31/2023 12:30:00 PM 21.87 71.366 0.649 7.92 5.46 8.54
8/31/2023 12:45:00 PM 21.88 71.384 0.65 7.91 5.6 8.51
8/31/2023 1:00:00 PM 21.88 71.384 0.651 7.92 5.99 8.49
8/31/2023 1:15:00 PM 21.9 71.42 0.652 7.9 5.52 8.45
8/31/2023 1:30:00 PM 21.9 71.42 0.652 7.91 5.77 8.45
8/31/2023 1:45:00 PM 21.9 71.42 0.653 7.92 5.48 8.42
8/31/2023 2:00:00 PM 21.91 71.438 0.653 7.9 5.22 8.41
8/31/2023 2:15:00 PM 21.93 71.474 0.654 7.91 5.43 8.36
8/31/2023 2:30:00 PM 21.96 71.528 0.655 7.91 5.21 8.34
8/31/2023 2:45:00 PM 22.01 71.618 0.654 7.91 5.55 8.32
8/31/2023 3:00:00 PM 22.07 71.726 0.654 7.91 5.08 8.32
8/31/2023 3:15:00 PM 22.12 71.816 0.653 7.91 4.97 8.28
8/31/2023 3:30:00 PM 22.15 71.87 0.654 7.92 5.11 8.25
8/31/2023 3:45:00 PM 22.18 71.924 0.654 7.92 4.55 8.23
8/31/2023 4:00:00 PM 22.21 71.978 0.654 7.92 4.53 8.17
8/31/2023 4:15:00 PM 22.25 72.05 0.655 7.92 4.23 8.14
8/31/2023 4:30:00 PM 22.32 72.176 0.655 7.91 4.54 8.06
8/31/2023 4:45:00 PM 22.33 72.194 0.656 7.91 4.3 8.03
8/31/2023 5:00:00 PM 22.34 72.212 0.657 7.91 4.55 7.99
8/31/2023 5:15:00 PM 22.33 72.194 0.659 7.9 4.18 7.96
8/31/2023 5:30:00 PM 22.31 72.158 0.66 7.91 4.1 7.94
8/31/2023 5:45:00 PM 22.31 72.158 0.661 7.86 4.06 7.94
8/31/2023 6:00:00 PM 22.32 72.176 0.662 7.91 4.06 7.9
8/31/2023 6:15:00 PM 22.31 72.158 0.663 7.91 3.9 7.91
8/31/2023 6:30:00 PM 22.28 72.104 0.664 7.9 4.01 7.88
8/31/2023 6:45:00 PM 22.26 72.068 0.664 7.91 4.04 7.86
8/31/2023 7:00:00 PM 22.23 72.014 0.664 7.92 4.13 7.86
8/31/2023 7:15:00 PM 22.2 71.96 0.664 7.91 4.14 7.83
8/31/2023 7:30:00 PM 22.17 71.906 0.665 7.91 3.86 7.8
8/31/2023 7:45:00 PM 22.13 71.834 0.664 7.91 3.85 7.81
8/31/2023 8:00:00 PM 22.08 71.744 0.665 7.9 4.1 7.79
8/31/2023 8:15:00 PM 22.03 71.654 0.665 7.89 4.46 7.79
8/31/2023 8:30:00 PM 21.97 71.546 0.665 7.89 4.13 7.79
8/31/2023 8:45:00 PM 21.92 71.456 0.665 7.89 3.77 7.79
8/31/2023 9:00:00 PM 21.86 71.348 0.665 7.88 4.93 7.8
8/31/2023 9:15:00 PM 21.8 71.24 0.665 7.89 4.21 7.83
8/31/2023 9:30:00 PM 21.74 71.132 0.664 7.88 11.18 7.82
8/31/2023 9:45:00 PM 21.67 71.006 0.665 7.88 4.79 7.85
8/31/2023 10:00:00 PM 21.61 70.898 0.665 7.88 4.45 7.85
8/31/2023 10:15:00 PM 21.54 70.772 0.665 7.88 4.54 7.86
8/31/2023 10:30:00 PM 21.49 70.682 0.665 7.88 8.84 7.82
8/31/2023 10:45:00 PM 21.43 70.574 0.665 7.88 9.72 7.84
8/31/2023 11:00:00 PM 21.37 70.466 0.665 7.89 7.52 7.84
8/31/2023 11:15:00 PM 21.31 70.358 0.665 7.87 6.81 7.83
8/31/2023 11:30:00 PM 21.27 70.286 0.664 7.86 5.11 7.87
8/31/2023 11:45:00 PM 21.21 70.17799 0.664 7.89 6.69 7.86
9/1/2023 12:00:00 AM 21.16 70.088 0.664 7.87 5.49 7.89
9/1/2023 12:15:00 AM 21.11 69.998 0.663 7.87 5.99 7.86
9/1/2023 12:30:00 AM 21.06 69.908 0.664 7.82 8.9 7.88
9/1/2023 12:45:00 AM 21.01 69.818 0.664 7.83 5.66 7.89
9/1/2023 1:00:00 AM 20.96 69.728 0.664 7.85 5.66 7.87
9/1/2023 1:15:00 AM 20.92 69.656 0.664 7.82 6.68 7.88
9/1/2023 1:30:00 AM 20.88 69.584 0.664 7.86 7.17 7.89
9/1/2023 1:45:00 AM 20.83 69.494 0.664 7.85 6.5 7.87
9/1/2023 2:00:00 AM 20.79 69.422 0.664 7.84 6.74 7.88
9/1/2023 2:15:00 AM 20.75 69.35 0.664 7.84 6.57 7.87
9/1/2023 2:30:00 AM 20.71 69.278 0.664 7.83 7.36 7.86
9/1/2023 2:45:00 AM 20.68 69.224 0.664 7.85 7 7.86
9/1/2023 3:00:00 AM 20.65 69.17 0.664 7.83 7.99 7.84
9/1/2023 3:15:00 AM 20.61 69.098 0.664 7.82 8.42 7.87
9/1/2023 3:30:00 AM 20.57 69.026 0.664 7.83 7.94 7.87
9/1/2023 3:45:00 AM 20.54 68.972 0.664 7.82 7.93 7.91
9/1/2023 4:00:00 AM 20.5 68.9 0.664 7.85 7.99 7.93
9/1/2023 4:15:00 AM 20.46 68.828 0.664 7.84 8.17 7.93
9/1/2023 4:30:00 AM 20.42 68.756 0.664 7.86 8.52 7.95
9/1/2023 4:45:00 AM 20.38 68.684 0.664 7.86 9.23 7.96
9/1/2023 5:00:00 AM 20.34 68.612 0.664 7.85 8.94 7.98
9/1/2023 5:15:00 AM 20.28 68.504 0.664 7.85 9.02 8
9/1/2023 5:30:00 AM 20.22 68.396 0.663 7.86 8.74 7.99
9/1/2023 5:45:00 AM 20.16 68.288 0.663 7.85 8.9 8.02
9/1/2023 6:00:00 AM 20.1 68.18 0.663 7.85 8.43 8.03
9/1/2023 6:15:00 AM 20.04 68.07201 0.663 7.86 8.88 8.02
9/1/2023 6:30:00 AM 19.97 67.946 0.663 7.85 9.38 8.05
9/1/2023 6:45:00 AM 19.91 67.838 0.663 7.87 8.86 8.05
9/1/2023 7:00:00 AM 19.86 67.748 0.663 7.86 8.34 8.06
9/1/2023 7:15:00 AM 19.8 67.64 0.663 7.87 8.3 8.09
9/1/2023 7:30:00 AM 19.76 67.568 0.663 7.87 7.68 8.11
9/1/2023 7:45:00 AM 19.72 67.496 0.663 7.87 7.47 8.13
9/1/2023 8:00:00 AM 19.68 67.424 0.663 7.88 7.07 8.15
9/1/2023 8:15:00 AM 19.66 67.388 0.664 7.88 7.44 8.17
9/1/2023 8:30:00 AM 19.66 67.388 0.664 7.85 6.83 8.21
9/1/2023 8:45:00 AM 19.66 67.388 0.664 7.86 6.41 8.25
9/1/2023 9:00:00 AM 19.68 67.424 0.664 7.88 6.38 8.31
9/1/2023 9:15:00 AM 19.72 67.496 0.664 7.84 6.74 8.38
9/1/2023 9:30:00 AM 19.76 67.568 0.664 7.89 6.17 8.45
9/1/2023 9:45:00 AM 19.82 67.676 0.665 7.89 6.05 8.53
9/1/2023 10:00:00 AM 19.86 67.748 0.665 7.88 5.58 8.58
9/1/2023 10:15:00 AM 19.93 67.874 0.666 7.91 5.65 8.66
9/1/2023 10:30:00 AM 20 68 0.666 7.9 5.84 8.73
9/1/2023 10:45:00 AM 20.09 68.162 0.667 7.92 5.38 8.78
9/1/2023 11:00:00 AM 20.17 68.306 0.667 7.92 5.79 8.82
9/1/2023 11:15:00 AM 20.26 68.468 0.667 7.92 5.71 8.87
9/1/2023 11:30:00 AM 20.28 68.504 0.668 7.89 5.26 8.86
9/1/2023 11:45:00 AM 20.39 68.702 0.668 7.94 5.2 8.89
9/1/2023 12:00:00 PM 20.44 68.792 0.669 7.95 5.55 8.86
9/1/2023 12:15:00 PM 20.48 68.864 0.669 7.92 5.62 8.87
9/1/2023 12:30:00 PM 20.5 68.9 0.669 7.94 5.41 8.83
9/1/2023 12:45:00 PM 20.58 69.044 0.67 7.96 5.17 8.84
9/1/2023 1:00:00 PM 20.64 69.152 0.67 7.91 5.78 8.79
9/1/2023 1:15:00 PM 20.73 69.314 0.671 7.93 4.88 8.78
9/1/2023 1:30:00 PM 20.77 69.386 0.671 7.93 4.94 8.77
9/1/2023 1:45:00 PM 20.78 69.404 0.672 7.97 4.91 8.76
9/1/2023 2:00:00 PM 20.74 69.332 0.672 7.95 5.18 8.72
9/1/2023 2:15:00 PM 20.72 69.296 0.673 7.96 5.09 8.73
9/1/2023 2:30:00 PM 20.72 69.296 0.674 7.94 5.13 8.71
9/1/2023 2:45:00 PM 20.71 69.278 0.674 7.93 4.86 8.65
9/1/2023 3:00:00 PM 20.77 69.386 0.674 7.93 5.03 8.67
9/1/2023 3:15:00 PM 20.76 69.368 0.674 7.95 5.4 8.64
9/1/2023 3:30:00 PM 20.76 69.368 0.675 7.93 4.91 8.57
9/1/2023 3:45:00 PM 20.78 69.404 0.675 7.92 5.05 8.56
9/1/2023 4:00:00 PM 20.76 69.368 0.676 7.92 4.61 8.49
9/1/2023 4:15:00 PM 20.78 69.404 0.676 7.92 4.66 8.44
9/1/2023 4:30:00 PM 20.92 69.656 0.675 7.92 4.75 8.36
9/1/2023 4:45:00 PM 21.03 69.854 0.675 7.92 4.71 8.3
9/1/2023 5:00:00 PM 21.1 69.98 0.675 7.92 4.41 8.23
9/1/2023 5:15:00 PM 21.13 70.034 0.675 7.91 4.4 8.2
9/1/2023 5:30:00 PM 21.12 70.016 0.676 7.92 4.22 8.15
9/1/2023 5:45:00 PM 21.1 69.98 0.677 7.92 4.77 8.1
9/1/2023 6:00:00 PM 21.05 69.89 0.678 7.91 4.36 8.06
9/1/2023 6:15:00 PM 21.04 69.872 0.679 7.9 4.36 8.02
9/1/2023 6:30:00 PM 21.01 69.818 0.68 7.91 4.36 8
9/1/2023 6:45:00 PM 20.99 69.782 0.681 7.89 4.07 7.99
9/1/2023 7:00:00 PM 20.94 69.692 0.682 7.91 4.28 7.97
9/1/2023 7:15:00 PM 20.9 69.62 0.683 7.9 4.51 7.95
9/1/2023 7:30:00 PM 20.84 69.512 0.684 7.9 4.39 7.93
9/1/2023 7:45:00 PM 20.8 69.44 0.685 7.89 4.11 7.92
9/1/2023 8:00:00 PM 20.75 69.35 0.686 7.87 3.93 7.93
9/1/2023 8:15:00 PM 20.7 69.26 0.687 7.87 4.45 7.91
9/1/2023 8:30:00 PM 20.65 69.17 0.689 7.86 4.82 7.95
9/1/2023 8:45:00 PM 20.61 69.098 0.689 7.88 4.62 7.95
9/1/2023 9:00:00 PM 20.55 68.99 0.69 7.87 4.52 7.97
9/1/2023 9:15:00 PM 20.51 68.918 0.69 7.89 4.51 8
9/1/2023 9:30:00 PM 20.46 68.828 0.691 7.88 4.73 8
9/1/2023 9:45:00 PM 20.41 68.738 0.691 7.9 4.24 8.03
9/1/2023 10:00:00 PM 20.35 68.63 0.691 7.89 4.29 8.03
9/1/2023 10:15:00 PM 20.29 68.522 0.692 7.89 4.49 8.06
9/1/2023 10:30:00 PM 20.22 68.396 0.692 7.89 4.66 8.07
9/1/2023 10:45:00 PM 20.18 68.324 0.691 7.88 4.39 8.09
9/1/2023 11:00:00 PM 20.12 68.216 0.692 7.87 4.56 8.09
9/1/2023 11:15:00 PM 20.06 68.108 0.692 7.86 4.42 8.1
9/1/2023 11:30:00 PM 20.01 68.018 0.692 7.88 4.46 8.11
9/1/2023 11:45:00 PM 19.96 67.92799 0.692 7.88 4.18 8.11
9/2/2023 12:00:00 AM 19.9 67.82 0.692 7.88 4.31 8.12
9/2/2023 12:15:00 AM 19.86 67.748 0.692 7.87 4.31 8.13
9/2/2023 12:30:00 AM 19.8 67.64 0.692 7.87 4.4 8.11
9/2/2023 12:45:00 AM 19.75 67.55 0.692 7.87 4.61 8.12
9/2/2023 1:00:00 AM 19.7 67.46 0.692 7.87 4.95 8.12
9/2/2023 1:15:00 AM 19.65 67.37 0.691 7.88 4.96 8.14
9/2/2023 1:30:00 AM 19.61 67.298 0.691 7.87 4.76 8.15
9/2/2023 1:45:00 AM 19.56 67.208 0.691 7.88 4.88 8.17
9/2/2023 2:00:00 AM 19.52 67.136 0.691 7.88 5.03 8.18
9/2/2023 2:15:00 AM 19.48 67.064 0.691 7.88 5.69 8.18
9/2/2023 2:30:00 AM 19.44 66.992 0.691 7.87 5.38 8.17
9/2/2023 2:45:00 AM 19.4 66.92 0.691 7.87 5.48 8.17
9/2/2023 3:00:00 AM 19.36 66.848 0.691 7.86 5.65 8.17
9/2/2023 3:15:00 AM 19.33 66.794 0.691 7.9 6.17 8.17
9/2/2023 3:30:00 AM 19.29 66.722 0.691 7.88 6.94 8.17
9/2/2023 3:45:00 AM 19.26 66.668 0.691 7.88 7.25 8.15
9/2/2023 4:00:00 AM 19.23 66.614 0.691 7.87 6.69 8.14
9/2/2023 4:15:00 AM 19.2 66.56 0.691 7.89 6.34 8.12
9/2/2023 4:30:00 AM 19.18 66.524 0.69 7.86 6.93 8.13
9/2/2023 4:45:00 AM 19.15 66.47 0.691 7.87 7.34 8.11
9/2/2023 5:00:00 AM 19.12 66.416 0.69 7.85 7.56 8.12
9/2/2023 5:15:00 AM 19.1 66.38 0.69 7.85 8.09 8.08
9/2/2023 5:30:00 AM 19.07 66.326 0.691 7.86 8.62 8.09
9/2/2023 5:45:00 AM 19.04 66.272 0.691 7.87 8.44 8.1
9/2/2023 6:00:00 AM 19.01 66.218 0.691 7.85 8.34 8.11
9/2/2023 6:15:00 AM 18.98 66.164 0.691 7.86 7.98 8.12
9/2/2023 6:30:00 AM 18.96 66.128 0.691 7.87 7.86 8.13
9/2/2023 6:45:00 AM 18.93 66.074 0.691 7.86 8.16 8.14
9/2/2023 7:00:00 AM 18.91 66.038 0.691 7.83 8.29 8.13
9/2/2023 7:15:00 AM 18.88 65.984 0.691 7.86 7.71 8.15
9/2/2023 7:30:00 AM 18.87 65.966 0.691 7.87 7.79 8.18
9/2/2023 7:45:00 AM 18.87 65.966 0.691 7.88 7.54 8.22
9/2/2023 8:00:00 AM 18.87 65.966 0.691 7.88 7.41 8.23
9/2/2023 8:15:00 AM 18.88 65.984 0.691 7.88 7.54 8.25
9/2/2023 8:30:00 AM 18.91 66.038 0.691 7.9 7.34 8.29
9/2/2023 8:45:00 AM 18.95 66.11 0.691 7.89 7.42 8.36
9/2/2023 9:00:00 AM 18.99 66.182 0.691 7.92 7.14 8.4
9/2/2023 9:15:00 AM 19.06 66.308 0.691 7.89 7.2 8.51
9/2/2023 9:30:00 AM 19.12 66.416 0.69 7.93 7.03 8.59
9/2/2023 9:45:00 AM 19.2 66.56 0.69 7.95 7.03 8.66
9/2/2023 10:00:00 AM 19.29 66.722 0.69 7.94 6.16 8.74
9/2/2023 10:15:00 AM 19.37 66.866 0.69 7.95 6.13 8.84
9/2/2023 10:30:00 AM 19.46 67.028 0.69 7.96 5.9 8.91
9/2/2023 10:45:00 AM 19.55 67.19 0.69 7.96 6.15 8.95
9/2/2023 11:00:00 AM 19.63 67.334 0.69 7.98 5.93 9
9/2/2023 11:15:00 AM 19.71 67.478 0.69 7.97 6.15 9.03
9/2/2023 11:30:00 AM 19.76 67.568 0.69 7.98 5.79 9.03
9/2/2023 11:45:00 AM 19.84 67.712 0.69 7.99 5.75 9.06
9/2/2023 12:00:00 PM 19.86 67.748 0.69 7.94 5.94 9.05
9/2/2023 12:15:00 PM 19.89 67.802 0.69 7.99 5.39 9.04
9/2/2023 12:30:00 PM 19.91 67.838 0.69 7.95 5.4 9.03
9/2/2023 12:45:00 PM 20 68 0.69 8 5.35 9.03
9/2/2023 1:00:00 PM 20 68 0.69 7.99 5.43 8.98
9/2/2023 1:15:00 PM 20.02 68.036 0.69 7.99 5.1 8.94
9/2/2023 1:30:00 PM 19.99 67.982 0.691 7.98 5.72 8.92
9/2/2023 1:45:00 PM 19.99 67.982 0.69 7.99 5.3 8.92
9/2/2023 2:00:00 PM 19.86 67.748 0.691 7.98 5.1 8.84
9/2/2023 2:15:00 PM 19.82 67.676 0.691 7.94 5.45 8.83
9/2/2023 2:30:00 PM 19.85 67.73 0.692 7.99 5.68 8.85
9/2/2023 2:45:00 PM 19.85 67.73 0.692 7.97 5.2 8.81
9/2/2023 3:00:00 PM 19.84 67.712 0.692 7.99 5.38 8.81
9/2/2023 3:15:00 PM 19.78 67.604 0.693 7.99 5.28 8.78
9/2/2023 3:30:00 PM 19.76 67.568 0.693 7.99 5.7 8.75
9/2/2023 3:45:00 PM 19.72 67.496 0.694 7.96 5.27 8.71
9/2/2023 4:00:00 PM 19.73 67.514 0.694 7.97 5.07 8.69
9/2/2023 4:15:00 PM 19.77 67.586 0.694 7.96 4.87 8.65
9/2/2023 4:30:00 PM 19.78 67.604 0.694 7.97 4.84 8.54
9/2/2023 4:45:00 PM 19.78 67.604 0.695 7.92 4.82 8.49
9/2/2023 5:00:00 PM 19.81 67.658 0.695 7.92 4.68 8.45
9/2/2023 5:15:00 PM 19.78 67.604 0.696 7.95 4.96 8.39
9/2/2023 5:30:00 PM 19.74 67.532 0.697 7.95 4.64 8.37
9/2/2023 5:45:00 PM 19.69 67.442 0.698 7.95 4.73 8.35
9/2/2023 6:00:00 PM 19.65 67.37 0.7 7.94 4.67 8.33
9/2/2023 6:15:00 PM 19.64 67.352 0.701 7.88 4.76 8.32
9/2/2023 6:30:00 PM 19.62 67.316 0.702 7.93 5.33 8.31
9/2/2023 6:45:00 PM 19.62 67.316 0.702 7.94 4.45 8.28
9/2/2023 7:00:00 PM 19.64 67.352 0.703 7.92 4.44 8.26
9/2/2023 7:15:00 PM 19.65 67.37 0.703 7.93 4.13 8.25
9/2/2023 7:30:00 PM 19.67 67.406 0.704 7.92 4.15 8.23
9/2/2023 7:45:00 PM 19.71 67.478 0.703 7.92 4.21 8.19
9/2/2023 8:00:00 PM 19.79 67.622 0.703 7.94 4.42 8.18
9/2/2023 8:15:00 PM 19.89 67.802 0.703 7.95 4.25 8.15
9/2/2023 8:30:00 PM 19.98 67.964 0.703 7.94 4.54 8.15
9/2/2023 8:45:00 PM 20.02 68.036 0.703 7.94 4.15 8.14
9/2/2023 9:00:00 PM 20.03 68.054 0.702 7.91 4.45 8.13
9/2/2023 9:15:00 PM 20.03 68.054 0.702 7.94 4.42 8.13
9/2/2023 9:30:00 PM 20.01 68.018 0.702 7.94 4.99 8.14
9/2/2023 9:45:00 PM 20 68 0.702 7.96 4.2 8.14
9/2/2023 10:00:00 PM 19.97 67.946 0.703 7.93 4.7 8.16
9/2/2023 10:15:00 PM 19.93 67.874 0.703 7.96 3.94 8.17
9/2/2023 10:30:00 PM 19.89 67.802 0.703 7.96 3.97 8.19
9/2/2023 10:45:00 PM 19.84 67.712 0.703 7.96 3.75 8.21
9/2/2023 11:00:00 PM 19.81 67.658 0.703 7.94 3.92 8.24
9/2/2023 11:15:00 PM 19.8 67.64 0.703 7.96 3.6 8.23
9/2/2023 11:30:00 PM 19.8 67.64 0.703 7.94 3.89 8.21
9/2/2023 11:45:00 PM 19.79 67.622 0.703 7.94 3.92 8.21
9/3/2023 12:00:00 AM 19.78 67.604 0.703 7.87 3.93 8.21
9/3/2023 12:15:00 AM 19.77 67.586 0.703 7.87 4.03 8.2
9/3/2023 12:30:00 AM 19.77 67.586 0.703 7.87 3.88 8.2
9/3/2023 12:45:00 AM 19.78 67.604 0.703 7.88 4.08 8.2
9/3/2023 1:00:00 AM 19.8 67.64 0.702 7.88 4.55 8.19
9/3/2023 1:15:00 AM 19.81 67.658 0.702 7.88 4.13 8.19
9/3/2023 1:30:00 AM 19.78 67.604 0.702 7.88 4.43 8.2
9/3/2023 1:45:00 AM 19.74 67.532 0.702 7.82 5.08 8.22
9/3/2023 2:00:00 AM 19.71 67.478 0.702 7.89 4.1 8.22
9/3/2023 2:15:00 AM 19.68 67.424 0.702 7.89 4.67 8.23
9/3/2023 2:30:00 AM 19.65 67.37 0.702 7.86 4.61 8.22
9/3/2023 2:45:00 AM 19.63 67.334 0.702 7.93 4.11 8.22
9/3/2023 3:00:00 AM 19.61 67.298 0.702 7.92 3.93 8.23
9/3/2023 3:15:00 AM 19.58 67.244 0.702 7.92 3.98 8.23
9/3/2023 3:30:00 AM 19.57 67.226 0.702 7.92 4.41 8.23
9/3/2023 3:45:00 AM 19.56 67.208 0.702 7.93 4.09 8.22
9/3/2023 4:00:00 AM 19.54 67.172 0.702 7.92 4.35 8.21
9/3/2023 4:15:00 AM 19.52 67.136 0.702 7.89 4.23 8.21
9/3/2023 4:30:00 AM 19.5 67.1 0.702 7.87 4.92 8.19
9/3/2023 4:45:00 AM 19.48 67.064 0.701 7.87 3.98 8.21
9/3/2023 5:00:00 AM 19.45 67.01 0.702 7.86 4.77 8.22
9/3/2023 5:15:00 AM 19.43 66.974 0.701 7.87 4.11 8.19
9/3/2023 5:30:00 AM 19.41 66.938 0.701 7.86 4.45 8.21
9/3/2023 5:45:00 AM 19.38 66.884 0.701 7.86 4.28 8.21
9/3/2023 6:00:00 AM 19.35 66.83 0.7 7.9 4.35 8.23
9/3/2023 6:15:00 AM 19.32 66.776 0.7 7.84 3.83 8.23
9/3/2023 6:30:00 AM 19.29 66.722 0.7 7.86 4.02 8.24
9/3/2023 6:45:00 AM 19.26 66.668 0.7 7.85 4.15 8.22
9/3/2023 7:00:00 AM 19.23 66.614 0.7 7.85 4.4 8.25
9/3/2023 7:15:00 AM 19.2 66.56 0.7 7.85 4.42 8.25
9/3/2023 7:30:00 AM 19.18 66.524 0.7 7.85 4.5 8.29
9/3/2023 7:45:00 AM 19.17 66.506 0.7 7.86 4.03 8.32
9/3/2023 8:00:00 AM 19.17 66.506 0.7 7.85 4.47 8.34
9/3/2023 8:15:00 AM 19.17 66.506 0.7 7.87 3.96 8.35
9/3/2023 8:30:00 AM 19.2 66.56 0.699 7.9 4.36 8.4
9/3/2023 8:45:00 AM 19.24 66.632 0.699 7.89 3.99 8.45
9/3/2023 9:00:00 AM 19.28 66.704 0.699 7.92 4.31 8.52
9/3/2023 9:15:00 AM 19.36 66.848 0.699 7.93 3.85 8.61
9/3/2023 9:30:00 AM 19.44 66.992 0.698 7.94 3.91 8.68
9/3/2023 9:45:00 AM 19.54 67.172 0.698 7.96 4.48 8.76
9/3/2023 10:00:00 AM 19.62 67.316 0.698 7.95 4.21 8.81
9/3/2023 10:15:00 AM 19.73 67.514 0.698 7.93 3.93 8.87
9/3/2023 10:30:00 AM 19.86 67.748 0.698 7.95 3.7 8.96
9/3/2023 10:45:00 AM 20 68 0.697 7.96 3.78 9.04
9/3/2023 11:00:00 AM 20.1 68.18 0.698 7.95 3.86 9.08
9/3/2023 11:15:00 AM 20.18 68.324 0.697 7.96 3.95 9.1
9/3/2023 11:30:00 AM 20.26 68.468 0.696 7.88 3.75 9.11
9/3/2023 11:45:00 AM 20.34 68.612 0.697 7.96 4.04 9.12
9/3/2023 12:00:00 PM 20.36 68.648 0.696 7.97 3.76 9.1
9/3/2023 12:15:00 PM 20.39 68.702 0.697 7.96 3.88 9.09
9/3/2023 12:30:00 PM 20.41 68.738 0.696 7.96 4.03 9.09
9/3/2023 12:45:00 PM 20.43 68.774 0.696 7.94 4.36 9.06
9/3/2023 1:00:00 PM 20.46 68.828 0.696 7.95 4.13 9.05
9/3/2023 1:15:00 PM 20.46 68.828 0.696 7.95 4.36 9.02
9/3/2023 1:30:00 PM 20.46 68.828 0.696 7.95 4.48 8.99
9/3/2023 1:45:00 PM 20.45 68.81 0.696 7.93 4.56 8.95
9/3/2023 2:00:00 PM 20.45 68.81 0.697 7.9 5.33 8.9
9/3/2023 2:15:00 PM 20.47 68.846 0.696 7.91 5.26 8.92
9/3/2023 2:30:00 PM 20.41 68.738 0.696 7.89 5.33 8.84
9/3/2023 2:45:00 PM 20.47 68.846 0.696 7.9 4.79 8.88
9/3/2023 3:00:00 PM 20.48 68.864 0.696 7.91 4.44 8.88
9/3/2023 3:15:00 PM 20.46 68.828 0.696 7.92 4.66 8.83
9/3/2023 3:30:00 PM 20.46 68.828 0.696 7.93 4.39 8.82
9/3/2023 3:45:00 PM 20.49 68.882 0.695 7.93 6.25 8.79
9/3/2023 4:00:00 PM 20.44 68.792 0.696 7.94 6.72 8.7
9/3/2023 4:15:00 PM 20.53 68.954 0.696 7.95 5.9 8.69
9/3/2023 4:30:00 PM 20.55 68.99 0.696 7.89 6.35 8.63
9/3/2023 4:45:00 PM 20.55 68.99 0.697 7.94 5.48 8.56
9/3/2023 5:00:00 PM 20.55 68.99 0.697 7.94 6.08 8.54
9/3/2023 5:15:00 PM 20.55 68.99 0.697 7.94 4.66 8.51
9/3/2023 5:30:00 PM 20.53 68.954 0.697 7.93 4.44 8.49
9/3/2023 5:45:00 PM 20.54 68.972 0.697 7.93 4.35 8.45
9/3/2023 6:00:00 PM 20.55 68.99 0.697 7.94 4.47 8.4
9/3/2023 6:15:00 PM 20.58 69.044 0.697 7.94 4.01 8.37
9/3/2023 6:30:00 PM 20.61 69.098 0.697 7.96 4.09 8.34
9/3/2023 6:45:00 PM 20.62 69.116 0.697 7.97 4.67 8.32
9/3/2023 7:00:00 PM 20.63 69.134 0.697 7.95 3.99 8.29
9/3/2023 7:15:00 PM 20.67 69.206 0.697 7.96 3.94 8.27
9/3/2023 7:30:00 PM 20.74 69.332 0.698 7.98 4.23 8.22
9/3/2023 7:45:00 PM 20.82 69.476 0.698 7.97 4.24 8.19
9/3/2023 8:00:00 PM 20.9 69.62 0.698 7.97 3.91 8.15
9/3/2023 8:15:00 PM 20.96 69.728 0.698 7.98 4.12 8.11
9/3/2023 8:30:00 PM 21.01 69.818 0.698 7.97 4.13 8.12
9/3/2023 8:45:00 PM 21.05 69.89 0.698 7.96 4.21 8.11
9/3/2023 9:00:00 PM 21.09 69.962 0.698 7.97 4.36 8.09
9/3/2023 9:15:00 PM 21.13 70.034 0.698 7.97 4 8.06
9/3/2023 9:30:00 PM 21.15 70.07 0.698 7.95 4.56 8.08
9/3/2023 9:45:00 PM 21.16 70.088 0.698 7.95 3.97 8.05
9/3/2023 10:00:00 PM 21.18 70.124 0.698 7.96 3.93 8.05
9/3/2023 10:15:00 PM 21.2 70.16 0.698 7.96 3.5 8.05
9/3/2023 10:30:00 PM 21.2 70.16 0.698 7.96 3.84 8.04
9/3/2023 10:45:00 PM 21.2 70.16 0.698 7.97 3.67 8.05
9/3/2023 11:00:00 PM 21.19 70.142 0.698 7.97 3.74 8.03
9/3/2023 11:15:00 PM 21.17 70.106 0.698 7.96 3.9 8.05
9/3/2023 11:30:00 PM 21.16 70.088 0.698 7.96 3.81 8.04
9/3/2023 11:45:00 PM 21.14 70.052 0.698 7.95 3.83 8.04
9/4/2023 12:00:00 AM 21.11 69.998 0.697 7.94 3.64 8.05
9/4/2023 12:15:00 AM 21.07 69.926 0.698 7.96 3.57 8.06
9/4/2023 12:30:00 AM 21.04 69.872 0.698 7.93 3.99 8.05
9/4/2023 12:45:00 AM 21.01 69.818 0.697 7.96 3.58 8.04
9/4/2023 1:00:00 AM 20.98 69.764 0.697 7.95 3.65 8.06
9/4/2023 1:15:00 AM 20.95 69.71 0.697 7.96 3.77 8.06
9/4/2023 1:30:00 AM 20.92 69.656 0.697 7.94 3.75 8.08
9/4/2023 1:45:00 AM 20.9 69.62 0.697 7.95 3.78 8.08
9/4/2023 2:00:00 AM 20.87 69.566 0.696 7.96 6.7 8.08
9/4/2023 2:15:00 AM 20.85 69.53 0.696 7.95 4.45 8.05
9/4/2023 2:30:00 AM 20.82 69.476 0.696 7.95 3.48 8.07
9/4/2023 2:45:00 AM 20.79 69.422 0.696 7.95 3.6 8.08
9/4/2023 3:00:00 AM 20.77 69.386 0.695 7.95 3.39 8.09
9/4/2023 3:15:00 AM 20.75 69.35 0.695 7.95 3.68 8.09
9/4/2023 3:30:00 AM 20.73 69.314 0.695 7.95 3.61 8.07
9/4/2023 3:45:00 AM 20.7 69.26 0.695 7.95 3.6 8.1
9/4/2023 4:00:00 AM 20.67 69.206 0.694 7.95 3.68 8.08
9/4/2023 4:15:00 AM 20.64 69.152 0.695 7.96 3.55 8.1
9/4/2023 4:30:00 AM 20.62 69.116 0.694 7.93 3.57 8.11
9/4/2023 4:45:00 AM 20.6 69.08 0.694 7.94 3.63 8.1
9/4/2023 5:00:00 AM 20.58 69.044 0.694 7.95 3.97 8.12
9/4/2023 5:15:00 AM 20.57 69.026 0.694 7.93 3.91 8.12
9/4/2023 5:30:00 AM 20.56 69.008 0.694 7.93 3.48 8.1
9/4/2023 5:45:00 AM 20.55 68.99 0.693 7.93 3.64 8.12
9/4/2023 6:00:00 AM 20.55 68.99 0.693 7.93 3.8 8.1
9/4/2023 6:15:00 AM 20.54 68.972 0.693 7.93 3.7 8.09
9/4/2023 6:30:00 AM 20.54 68.972 0.693 7.93 3.53 8.09
9/4/2023 6:45:00 AM 20.53 68.954 0.693 7.93 3.32 8.08
9/4/2023 7:00:00 AM 20.52 68.936 0.693 7.94 3.3 8.07
9/4/2023 7:15:00 AM 20.51 68.918 0.693 7.95 3.48 8.09
9/4/2023 7:30:00 AM 20.51 68.918 0.693 7.94 3.25 8.11
9/4/2023 7:45:00 AM 20.52 68.936 0.692 7.95 3.46 8.17
9/4/2023 8:00:00 AM 20.54 68.972 0.692 7.91 3.34 8.23
9/4/2023 8:15:00 AM 20.55 68.99 0.692 7.91 3.17 8.24
9/4/2023 8:30:00 AM 20.56 69.008 0.691 7.9 3.24 8.27
9/4/2023 8:45:00 AM 20.61 69.098 0.691 7.93 3.22 8.39
9/4/2023 9:00:00 AM 20.65 69.17 0.691 7.93 3.41 8.41
9/4/2023 9:15:00 AM 20.74 69.332 0.691 7.95 3.29 8.56
9/4/2023 9:30:00 AM 20.89 69.602 0.69 7.95 3.36 8.73
9/4/2023 9:45:00 AM 21.01 69.818 0.69 7.93 3.09 8.79
9/4/2023 10:00:00 AM 21.08 69.944 0.69 7.96 3.51 8.79
9/4/2023 10:15:00 AM 21.16 70.088 0.69 7.99 3.23 8.84
9/4/2023 10:30:00 AM 21.29 70.32201 0.689 7.99 3.49 8.94
9/4/2023 10:45:00 AM 21.4 70.52 0.689 8 3.14 8.98
9/4/2023 11:00:00 AM 21.51 70.718 0.689 7.98 3.41 9.05
9/4/2023 11:15:00 AM 21.58 70.844 0.689 7.95 3.15 9.07
9/4/2023 11:30:00 AM 21.63 70.934 0.689 7.97 3.41 9.04
9/4/2023 11:45:00 AM 21.68 71.024 0.689 7.97 3.29 9.07
9/4/2023 12:00:00 PM 21.66 70.988 0.689 7.98 3.87 8.99
9/4/2023 12:15:00 PM 21.61 70.898 0.688 7.97 4.03 9
9/4/2023 12:30:00 PM 21.5 70.7 0.688 7.96 3.87 8.96
9/4/2023 12:45:00 PM 21.58 70.844 0.688 7.96 3.58 8.98
9/4/2023 1:00:00 PM 21.67 71.006 0.688 7.97 3.87 8.92
9/4/2023 1:15:00 PM 21.75 71.15 0.689 7.95 3.65 8.95
9/4/2023 1:30:00 PM 21.79 71.222 0.688 7.94 3.79 8.88
9/4/2023 1:45:00 PM 21.82 71.276 0.688 7.95 3.64 8.9
9/4/2023 2:00:00 PM 21.84 71.312 0.688 7.95 3.8 8.85
9/4/2023 2:15:00 PM 21.93 71.474 0.688 7.95 3.55 8.9
9/4/2023 2:30:00 PM 21.97 71.546 0.687 7.97 3.43 8.87
9/4/2023 2:45:00 PM 22.01 71.618 0.687 7.97 3.43 8.82
9/4/2023 3:00:00 PM 22.01 71.618 0.687 7.96 3.49 8.78
9/4/2023 3:15:00 PM 22.03 71.654 0.687 7.95 3.45 8.71
9/4/2023 3:30:00 PM 22.04 71.672 0.687 7.96 3.45 8.67
9/4/2023 3:45:00 PM 22.07 71.726 0.687 7.95 3.53 8.65
9/4/2023 4:00:00 PM 22.07 71.726 0.687 7.96 3.55 8.61
9/4/2023 4:15:00 PM 22.05 71.69 0.687 7.95 3.32 8.55
9/4/2023 4:30:00 PM 22.06 71.708 0.687 7.96 3.26 8.5
9/4/2023 4:45:00 PM 22.05 71.69 0.687 7.95 3.41 8.45
9/4/2023 5:00:00 PM 22.02 71.636 0.687 7.93 3.33 8.39
9/4/2023 5:15:00 PM 22.02 71.636 0.687 7.93 3.27 8.35
9/4/2023 5:30:00 PM 22.02 71.636 0.687 7.94 3.26 8.28
9/4/2023 5:45:00 PM 22.04 71.672 0.688 7.94 3.35 8.24
9/4/2023 6:00:00 PM 22.04 71.672 0.688 7.94 3.64 8.18
9/4/2023 6:15:00 PM 22.08 71.744 0.688 7.94 3.17 8.14
9/4/2023 6:30:00 PM 22.15 71.87 0.688 7.92 3.25 8.09
9/4/2023 6:45:00 PM 22.21 71.978 0.688 7.92 3.34 8.03
9/4/2023 7:00:00 PM 22.27 72.086 0.688 7.92 3.31 8.01
9/4/2023 7:15:00 PM 22.34 72.212 0.688 7.91 3.44 7.99
9/4/2023 7:30:00 PM 22.39 72.302 0.688 7.91 3.33 7.94
9/4/2023 7:45:00 PM 22.45 72.41 0.689 7.92 3.32 7.89
9/4/2023 8:00:00 PM 22.52 72.536 0.688 7.92 3.75 7.86
9/4/2023 8:15:00 PM 22.57 72.626 0.689 7.92 3.7 7.83
9/4/2023 8:30:00 PM 22.62 72.716 0.689 7.91 4.21 7.8
9/4/2023 8:45:00 PM 22.65 72.77 0.689 7.92 3.53 7.81
9/4/2023 9:00:00 PM 22.66 72.788 0.689 7.91 3.39 7.79
9/4/2023 9:15:00 PM 22.67 72.806 0.689 7.93 3.81 7.79
9/4/2023 9:30:00 PM 22.68 72.824 0.689 7.92 3.28 7.81
9/4/2023 9:45:00 PM 22.67 72.806 0.689 7.92 3.63 7.8
9/4/2023 10:00:00 PM 22.67 72.806 0.689 7.93 3.65 7.8
9/4/2023 10:15:00 PM 22.66 72.788 0.69 7.94 3.42 7.8
9/4/2023 10:30:00 PM 22.65 72.77 0.69 7.93 3.35 7.78
9/4/2023 10:45:00 PM 22.65 72.77 0.69 7.92 3.31 7.79
9/4/2023 11:00:00 PM 22.64 72.752 0.69 7.86 3.34 7.78
9/4/2023 11:15:00 PM 22.65 72.77 0.69 7.91 3.84 7.77
9/4/2023 11:30:00 PM 22.63 72.734 0.691 7.91 3.84 7.75
9/4/2023 11:45:00 PM 22.6 72.68 0.691 7.92 3.63 7.76
9/5/2023 12:00:00 AM 22.58 72.644 0.691 7.92 3.44 7.73
9/5/2023 12:15:00 AM 22.56 72.608 0.691 7.91 4.11 7.78
9/5/2023 12:30:00 AM 22.53 72.554 0.691 7.91 3.08 7.76
9/5/2023 12:45:00 AM 22.51 72.518 0.691 7.9 3.49 7.75
9/5/2023 1:00:00 AM 22.5 72.5 0.691 7.91 3.39 7.71
9/5/2023 1:15:00 AM 22.47 72.446 0.691 7.88 3.57 7.74
9/5/2023 1:30:00 AM 22.45 72.41 0.691 7.9 3.41 7.77
9/5/2023 1:45:00 AM 22.42 72.356 0.692 7.89 3.53 7.77
9/5/2023 2:00:00 AM 22.4 72.32 0.691 7.88 3.1 7.66
9/5/2023 2:15:00 AM 22.38 72.284 0.692 7.9 3.18 7.75
9/5/2023 2:30:00 AM 22.36 72.248 0.692 7.9 3.35 7.72
9/5/2023 2:45:00 AM 22.34 72.212 0.692 7.89 3.31 7.73
9/5/2023 3:00:00 AM 22.34 72.212 0.692 7.89 3.07 7.76
9/5/2023 3:15:00 AM 22.33 72.194 0.692 7.88 3.43 7.71
9/5/2023 3:30:00 AM 22.32 72.176 0.692 7.88 3.17 7.72
9/5/2023 3:45:00 AM 22.32 72.176 0.693 7.87 3.34 7.71
9/5/2023 4:00:00 AM 22.3 72.14 0.693 7.87 3.23 7.69
9/5/2023 4:15:00 AM 22.28 72.104 0.693 7.89 3.32 7.72
9/5/2023 4:30:00 AM 22.26 72.068 0.693 7.88 3.34 7.68
9/5/2023 4:45:00 AM 22.23 72.014 0.693 7.87 3.3 7.74
9/5/2023 5:00:00 AM 22.21 71.978 0.693 7.88 3.28 7.67
9/5/2023 5:15:00 AM 22.17 71.906 0.693 7.88 3.27 7.69
9/5/2023 5:30:00 AM 22.13 71.834 0.694 7.9 3.34 7.69
9/5/2023 5:45:00 AM 22.09 71.762 0.694 7.89 3.49 7.72
9/5/2023 6:00:00 AM 22.05 71.69 0.694 7.88 3.49 7.72
9/5/2023 6:15:00 AM 22.02 71.636 0.694 7.88 3.85 7.64
9/5/2023 6:30:00 AM 21.98 71.564 0.694 7.88 3.46 7.71
9/5/2023 6:45:00 AM 21.95 71.51 0.695 7.87 4.17 7.69
9/5/2023 7:00:00 AM 21.92 71.456 0.695 7.87 3.27 7.68
9/5/2023 7:15:00 AM 21.89 71.402 0.695 7.88 3.34 7.75
9/5/2023 7:30:00 AM 21.87 71.366 0.695 7.86 3.35 7.78
9/5/2023 7:45:00 AM 21.87 71.366 0.695 7.87 3.77 7.76
9/5/2023 8:00:00 AM 21.87 71.366 0.695 7.87 3.33 7.84
9/5/2023 8:15:00 AM 21.88 71.384 0.695 7.87 3.69 7.88
9/5/2023 8:30:00 AM 21.91 71.438 0.695 7.89 3.54 7.97
9/5/2023 8:45:00 AM 21.93 71.474 0.695 7.9 3.81 7.99
9/5/2023 9:00:00 AM 21.97 71.546 0.695 7.9 3.76 8.03
9/5/2023 9:15:00 AM 22.01 71.618 0.695 7.92 3.44 8.07
9/5/2023 9:30:00 AM 22.08 71.744 0.696 7.91 3.77 8.27
9/5/2023 9:45:00 AM 22.15 71.87 0.696 7.93 3.21 8.39
9/5/2023 10:00:00 AM 22.24 72.032 0.696 7.94 3.41 8.42
9/5/2023 10:15:00 AM 22.33 72.194 0.696 7.94 3.22 8.47
9/5/2023 10:30:00 AM 22.48 72.464 0.697 7.94 3.25 8.62
9/5/2023 10:45:00 AM 22.62 72.716 0.697 7.97 3.35 8.7
9/5/2023 11:00:00 AM 22.75 72.95 0.697 7.96 3.46 8.66
9/5/2023 11:15:00 AM 22.84 73.112 0.697 7.97 3.34 8.71
9/5/2023 11:30:00 AM 22.95 73.31 0.697 7.97 3.26 8.84
9/5/2023 11:45:00 AM 23.03 73.454 0.698 7.98 3.24 8.8
9/5/2023 12:00:00 PM 23.11 73.598 0.697 7.96 3.31 8.82
9/5/2023 12:15:00 PM 23.16 73.688 0.698 7.95 3.07 8.75
9/5/2023 12:30:00 PM 23.21 73.778 0.698 7.96 3.3 8.71
9/5/2023 12:45:00 PM 23.27 73.886 0.698 7.97 3.33 8.72
9/5/2023 1:00:00 PM 23.29 73.922 0.698 7.95 3.44 8.7
9/5/2023 1:15:00 PM 23.28 73.904 0.698 7.96 3.3 8.7
9/5/2023 1:30:00 PM 23.29 73.922 0.698 7.93 3.74 8.74
9/5/2023 1:45:00 PM 23.3 73.94 0.698 7.98 3.71 8.67
9/5/2023 2:00:00 PM 23.3 73.94 0.699 7.97 4.43 8.63
9/5/2023 2:15:00 PM 23.33 73.994 0.699 7.95 4.86 8.6
9/5/2023 2:30:00 PM 23.34 74.012 0.699 7.96 3.57 8.58
9/5/2023 2:45:00 PM 23.4 74.12 0.699 7.94 3.41 8.55
9/5/2023 3:00:00 PM 23.44 74.192 0.7 7.96 3.38 8.5
9/5/2023 3:15:00 PM 23.49 74.282 0.699 7.97 3.54 8.49
9/5/2023 3:30:00 PM 23.51 74.318 0.7 7.94 3.35 8.49
9/5/2023 3:45:00 PM 23.52 74.336 0.699 7.95 3.31 8.43
9/5/2023 4:00:00 PM 23.54 74.372 0.699 7.92 3.6 8.37
9/5/2023 4:15:00 PM 23.54 74.372 0.699 7.88 3.43 8.28
9/5/2023 4:30:00 PM 23.54 74.372 0.7 7.95 3.18 8.22
9/5/2023 4:45:00 PM 23.56 74.408 0.7 7.94 3.3 8.17
9/5/2023 5:00:00 PM 23.63 74.534 0.7 7.94 3.42 8.12
9/5/2023 5:15:00 PM 23.66 74.588 0.7 7.97 3.15 8.02
9/5/2023 5:30:00 PM 23.77 74.786 0.701 7.96 3.16 7.96
9/5/2023 5:45:00 PM 23.88 74.984 0.701 7.93 3.35 7.88
9/5/2023 6:00:00 PM 24 75.2 0.701 7.94 3.65 7.83
9/5/2023 6:15:00 PM 24.17 75.506 0.701 7.94 3.15 7.77
9/5/2023 6:30:00 PM 24.29 75.722 0.701 7.96 3.14 7.7
9/5/2023 6:45:00 PM 24.37 75.866 0.701 7.85 3.38 7.64
9/5/2023 7:00:00 PM 24.42 75.956 0.702 7.95 3.15 7.58
9/5/2023 7:15:00 PM 24.46 76.028 0.702 7.93 3.29 7.54
9/5/2023 7:30:00 PM 24.46 76.028 0.702 7.93 3.52 7.47
9/5/2023 7:45:00 PM 24.46 76.028 0.702 7.92 3.43 7.42
9/5/2023 8:00:00 PM 24.44 75.992 0.702 7.92 3.29 7.39
9/5/2023 8:15:00 PM 24.42 75.956 0.702 7.92 3.72 7.35
9/5/2023 8:30:00 PM 24.41 75.938 0.702 7.89 4.19 7.34
9/5/2023 8:45:00 PM 24.39 75.902 0.702 7.9 3.32 7.36
9/5/2023 9:00:00 PM 24.36 75.848 0.701 7.89 3.65 7.33
9/5/2023 9:15:00 PM 24.33 75.794 0.701 7.9 3.77 7.36
9/5/2023 9:30:00 PM 24.29 75.722 0.702 7.91 3.21 7.35
9/5/2023 9:45:00 PM 24.24 75.632 0.701 7.9 3.67 7.39
9/5/2023 10:00:00 PM 24.2 75.56 0.701 7.9 3.75 7.37
9/5/2023 10:15:00 PM 24.15 75.47 0.701 7.85 3.53 7.4
9/5/2023 10:30:00 PM 24.11 75.398 0.701 7.88 3.59 7.38
9/5/2023 10:45:00 PM 24.05 75.29 0.701 7.87 4.62 7.4
9/5/2023 11:00:00 PM 24 75.2 0.701 7.87 3.79 7.4
9/5/2023 11:15:00 PM 23.94 75.092 0.701 7.88 3.37 7.4
9/5/2023 11:30:00 PM 23.88 74.984 0.701 7.87 3.37 7.4
9/5/2023 11:45:00 PM 23.82 74.876 0.701 7.86 3.36 7.42
9/6/2023 12:00:00 AM 23.76 74.768 0.701 7.88 3.55 7.42
9/6/2023 12:15:00 AM 23.7 74.66 0.701 7.88 3.37 7.43
9/6/2023 12:30:00 AM 23.65 74.57 0.701 7.86 3.58 7.43
9/6/2023 12:45:00 AM 23.58 74.444 0.701 7.84 3.25 7.43
9/6/2023 1:00:00 AM 23.53 74.354 0.701 7.81 3.52 7.44
9/6/2023 1:15:00 AM 23.48 74.264 0.701 7.87 3.57 7.43
9/6/2023 1:30:00 AM 23.43 74.174 0.701 7.88 3.21 7.45
9/6/2023 1:45:00 AM 23.37 74.066 0.701 7.88 3.66 7.4
9/6/2023 2:00:00 AM 23.34 74.012 0.701 7.86 3.69 7.47
9/6/2023 2:15:00 AM 23.3 73.94 0.701 7.88 3.61 7.47
9/6/2023 2:30:00 AM 23.25 73.85 0.701 7.87 3.55 7.49
9/6/2023 2:45:00 AM 23.21 73.778 0.701 7.88 3.8 7.46
9/6/2023 3:00:00 AM 23.17 73.706 0.701 7.87 3.3 7.45
9/6/2023 3:15:00 AM 23.13 73.634 0.701 7.87 3.2 7.46
9/6/2023 3:30:00 AM 23.08 73.544 0.701 7.84 3.41 7.43
9/6/2023 3:45:00 AM 23.03 73.454 0.702 7.85 3.26 7.47
9/6/2023 4:00:00 AM 22.99 73.382 0.702 7.84 3.38 7.44
9/6/2023 4:15:00 AM 22.96 73.328 0.702 7.84 3.71 7.42
9/6/2023 4:30:00 AM 22.91 73.238 0.702 7.84 3.67 7.46
9/6/2023 4:45:00 AM 22.87 73.166 0.702 7.84 3.37 7.42
9/6/2023 5:00:00 AM 22.85 73.13 0.702 7.83 3.91 7.46
9/6/2023 5:15:00 AM 22.82 73.076 0.703 7.85 3.73 7.45
9/6/2023 5:30:00 AM 22.78 73.004 0.703 7.83 3.66 7.45
9/6/2023 5:45:00 AM 22.75 72.95 0.703 7.85 3.99 7.47
9/6/2023 6:00:00 AM 22.72 72.896 0.703 7.76 4.26 7.44
9/6/2023 6:15:00 AM 22.69 72.842 0.703 7.82 3.71 7.44
9/6/2023 6:30:00 AM 22.66 72.788 0.703 7.85 4.03 7.45
9/6/2023 6:45:00 AM 22.63 72.734 0.703 7.81 3.91 7.44
9/6/2023 7:00:00 AM 22.6 72.68 0.704 7.85 3.75 7.46
9/6/2023 7:15:00 AM 22.58 72.644 0.704 7.83 3.66 7.44
9/6/2023 7:30:00 AM 22.59 72.662 0.704 7.84 4.45 7.5
9/6/2023 7:45:00 AM 22.58 72.644 0.704 7.85 3.5 7.54
9/6/2023 8:00:00 AM 22.57 72.626 0.704 7.85 4.11 7.53
9/6/2023 8:15:00 AM 22.59 72.662 0.704 7.85 3.68 7.46
9/6/2023 8:30:00 AM 22.62 72.716 0.704 7.85 3.67 7.59
9/6/2023 8:45:00 AM 22.67 72.806 0.704 7.87 3.47 7.66
9/6/2023 9:00:00 AM 22.72 72.896 0.704 7.87 3.29 7.68
9/6/2023 9:15:00 AM 22.77 72.986 0.703 7.85 3.6 7.87
9/6/2023 9:30:00 AM 22.85 73.13 0.704 7.88 3.53 7.95
9/6/2023 9:45:00 AM 22.91 73.238 0.703 7.9 3.14 8.11
9/6/2023 10:00:00 AM 23.03 73.454 0.703 7.93 3.3 8.17
9/6/2023 10:15:00 AM 23.16 73.688 0.703 7.93 3.06 8.32
9/6/2023 10:30:00 AM 23.28 73.904 0.704 7.88 3.35 8.39
9/6/2023 10:45:00 AM 23.4 74.12 0.704 7.96 3.33 8.42
9/6/2023 11:00:00 AM 23.52 74.336 0.704 7.94 3.58 8.48
9/6/2023 11:15:00 AM 23.59 74.462 0.704 7.94 3.62 8.58
9/6/2023 11:30:00 AM 23.67 74.606 0.704 7.96 3.52 8.55
9/6/2023 11:45:00 AM 23.67 74.606 0.704 7.97 3.51 8.44
9/6/2023 12:00:00 PM 23.53 74.354 0.705 7.95 3.65 8.27
9/6/2023 12:15:00 PM 23.61 74.498 0.706 7.94 3.57 8.31
9/6/2023 12:30:00 PM 23.68 74.624 0.706 7.95 3.21 8.33
9/6/2023 12:45:00 PM 23.65 74.57 0.707 7.94 3.2 8.35
9/6/2023 1:00:00 PM 23.49 74.282 0.708 7.95 3.48 8.2
9/6/2023 1:15:00 PM 23.54 74.372 0.708 7.92 3.43 8.2
9/6/2023 1:30:00 PM 23.68 74.624 0.709 7.94 3.32 8.36
9/6/2023 1:45:00 PM 23.77 74.786 0.709 7.94 4.19 8.33
9/6/2023 2:00:00 PM 23.86 74.948 0.71 7.94 3.4 8.34
9/6/2023 2:15:00 PM 23.86 74.948 0.71 7.95 3.35 8.26
9/6/2023 2:30:00 PM 23.79 74.82201 0.711 7.94 3.45 8.16
9/6/2023 2:45:00 PM 23.81 74.858 0.711 7.94 3.23 8.09
9/6/2023 3:00:00 PM 23.91 75.038 0.711 7.94 3.37 8.21
9/6/2023 3:15:00 PM 23.99 75.182 0.711 7.94 3.25 8.22
9/6/2023 3:30:00 PM 24.06 75.308 0.711 7.95 3.46 8.18
9/6/2023 3:45:00 PM 24.04 75.272 0.712 7.94 3.3 8.13
9/6/2023 4:00:00 PM 24 75.2 0.712 7.92 3.41 8.01
9/6/2023 4:15:00 PM 23.98 75.164 0.714 7.92 3.22 7.97
9/6/2023 4:30:00 PM 23.97 75.146 0.714 7.94 3.5 7.88
9/6/2023 4:45:00 PM 23.95 75.11 0.714 7.95 3.5 7.81
9/6/2023 5:00:00 PM 23.93 75.074 0.715 7.91 3.11 7.77
9/6/2023 5:15:00 PM 23.94 75.092 0.715 7.92 3.44 7.59
9/6/2023 5:30:00 PM 23.95 75.11 0.716 7.91 3.48 7.6
9/6/2023 5:45:00 PM 23.96 75.128 0.716 7.92 3.32 7.54
9/6/2023 6:00:00 PM 23.99 75.182 0.717 7.91 3.12 7.42
9/6/2023 6:15:00 PM 24.01 75.218 0.717 7.9 3.4 7.38
9/6/2023 6:30:00 PM 24.05 75.29 0.717 7.91 3.43 7.3
9/6/2023 6:45:00 PM 24.1 75.38 0.718 7.9 3.51 7.17
9/6/2023 7:00:00 PM 24.14 75.452 0.718 7.89 3.32 7.26
9/6/2023 7:15:00 PM 24.18 75.524 0.718 7.9 3.25 7.16
9/6/2023 7:30:00 PM 24.23 75.614 0.718 7.88 3.41 7.21
9/6/2023 7:45:00 PM 24.28 75.704 0.718 7.89 3.59 7.12
9/6/2023 8:00:00 PM 24.33 75.794 0.718 7.82 3.42 7.08
9/6/2023 8:15:00 PM 24.36 75.848 0.718 7.9 4.01 7.08
9/6/2023 8:30:00 PM 24.39 75.902 0.718 7.88 4.13 7.08
9/6/2023 8:45:00 PM 24.38 75.884 0.718 7.89 3.63 7.08
9/6/2023 9:00:00 PM 24.38 75.884 0.718 7.88 3.56 7.07
9/6/2023 9:15:00 PM 24.37 75.866 0.718 7.79 3.51 7.02
9/6/2023 9:30:00 PM 24.35 75.83 0.718 7.87 3.95 7.03
9/6/2023 9:45:00 PM 24.33 75.794 0.718 7.88 4.08 7.1
9/6/2023 10:00:00 PM 24.31 75.758 0.719 7.88 3.72 7.1
9/6/2023 10:15:00 PM 24.28 75.704 0.718 7.87 3.65 7.07
9/6/2023 10:30:00 PM 24.26 75.668 0.718 7.87 3.51 7.01
9/6/2023 10:45:00 PM 24.23 75.614 0.719 7.87 3.94 7.1
9/6/2023 11:00:00 PM 24.19 75.542 0.718 7.87 3.74 7.12
9/6/2023 11:15:00 PM 24.14 75.452 0.718 7.87 3.9 7.14
9/6/2023 11:30:00 PM 24.1 75.38 0.718 7.87 3.45 7.13
9/6/2023 11:45:00 PM 24.06 75.308 0.719 7.83 6.19 7.11
9/7/2023 12:00:00 AM 24 75.2 0.719 7.87 3.47 7.07
9/7/2023 12:15:00 AM 23.96 75.128 0.719 7.81 3.83 7.12
9/7/2023 12:30:00 AM 23.91 75.038 0.719 7.85 3.51 7.02
9/7/2023 12:45:00 AM 23.85 74.93 0.719 7.85 3.55 7.08
9/7/2023 1:00:00 AM 23.81 74.858 0.719 7.85 3.84 7.04
9/7/2023 1:15:00 AM 23.78 74.804 0.719 7.8 3.83 7.09
9/7/2023 1:30:00 AM 23.74 74.732 0.719 7.86 3.49 7.17
9/7/2023 1:45:00 AM 23.71 74.67799 0.719 7.86 3.37 7.17
9/7/2023 2:00:00 AM 23.66 74.588 0.719 7.85 4.15 7.11
9/7/2023 2:15:00 AM 23.62 74.516 0.718 7.85 3.79 7.1
9/7/2023 2:30:00 AM 23.57 74.426 0.718 7.87 4.1 7.09
9/7/2023 2:45:00 AM 23.53 74.354 0.718 7.77 3.73 6.92
9/7/2023 3:00:00 AM 23.49 74.282 0.718 7.86 3.46 7.14
9/7/2023 3:15:00 AM 23.45 74.21 0.718 7.85 3.73 7.12
9/7/2023 3:30:00 AM 23.41 74.138 0.719 7.87 3.71 7.11
9/7/2023 3:45:00 AM 23.37 74.066 0.719 7.85 3.42 7.15
9/7/2023 4:00:00 AM 23.34 74.012 0.719 7.84 3.73 6.98
9/7/2023 4:15:00 AM 23.31 73.958 0.719 7.86 3.66 7.13
9/7/2023 4:30:00 AM 23.28 73.904 0.72 7.86 3.81 7.1
9/7/2023 4:45:00 AM 23.25 73.85 0.719 7.85 3.79 7.18
9/7/2023 5:00:00 AM 23.23 73.814 0.72 7.84 3.58 7.04
9/7/2023 5:15:00 AM 23.22 73.796 0.72 7.78 3.72 7.14
9/7/2023 5:30:00 AM 23.19 73.742 0.72 7.85 3.95 7.01
9/7/2023 5:45:00 AM 23.16 73.688 0.72 7.86 3.8 7.16
9/7/2023 6:00:00 AM 23.13 73.634 0.721 7.86 3.89 7.09
9/7/2023 6:15:00 AM 23.1 73.58 0.721 7.84 4.15 7.19
9/7/2023 6:30:00 AM 23.07 73.526 0.721 7.85 3.89 7.14
9/7/2023 6:45:00 AM 23.04 73.472 0.721 7.85 4.4 7.13
9/7/2023 7:00:00 AM 23.02 73.436 0.721 7.84 4.17 7.16
9/7/2023 7:15:00 AM 23.01 73.418 0.721 7.84 4.11 7.17
9/7/2023 7:30:00 AM 23 73.4 0.721 7.85 3.7 7.26
9/7/2023 7:45:00 AM 22.99 73.382 0.721 7.86 3.63 7.32
9/7/2023 8:00:00 AM 22.99 73.382 0.722 7.86 3.87 7.23
9/7/2023 8:15:00 AM 22.99 73.382 0.721 7.87 3.96 7.34
9/7/2023 8:30:00 AM 23.01 73.418 0.722 7.86 3.66 7.32
9/7/2023 8:45:00 AM 23.05 73.49 0.722 7.84 3.87 7.47
9/7/2023 9:00:00 AM 23.09 73.562 0.722 7.87 3.58 7.61
9/7/2023 9:15:00 AM 23.14 73.652 0.722 7.88 3.59 7.71
9/7/2023 9:30:00 AM 23.2 73.76 0.723 7.88 3.62 7.82
9/7/2023 9:45:00 AM 23.29 73.922 0.723 7.86 3.13 7.93
9/7/2023 10:00:00 AM 23.37 74.066 0.723 7.91 3.43 8
9/7/2023 10:15:00 AM 23.46 74.228 0.724 7.92 3.57 8.1
9/7/2023 10:30:00 AM 23.52 74.336 0.724 7.93 3.91 8.16
9/7/2023 10:45:00 AM 23.63 74.534 0.724 7.95 3.52 8.25
9/7/2023 11:00:00 AM 23.76 74.768 0.724 7.94 3.29 8.38
9/7/2023 11:15:00 AM 23.88 74.984 0.724 7.95 3.22 8.41
9/7/2023 11:30:00 AM 23.87 74.966 0.725 7.95 3.23 8.36
9/7/2023 11:45:00 AM 23.93 75.074 0.725 7.95 3.35 8.39
9/7/2023 12:00:00 PM 24.03 75.254 0.726 7.94 3.35 8.39
9/7/2023 12:15:00 PM 24.1 75.38 0.726 7.96 3.06 8.37
9/7/2023 12:30:00 PM 24.12 75.416 0.727 7.96 3.48 8.42
9/7/2023 12:45:00 PM 24.16 75.488 0.727 7.95 3.92 8.37
9/7/2023 1:00:00 PM 24.25 75.65 0.727 7.97 2.97 8.42
9/7/2023 1:15:00 PM 24.31 75.758 0.728 7.96 3.44 8.38
9/7/2023 1:30:00 PM 24.37 75.866 0.729 7.95 3.03 8.36
9/7/2023 1:45:00 PM 24.33 75.794 0.729 7.81 2.98 8.25
9/7/2023 2:00:00 PM 24.28 75.704 0.729 7.95 3.02 8.13
9/7/2023 2:15:00 PM 24.27 75.686 0.729 7.95 3.06 7.99
9/7/2023 2:30:00 PM 24.33 75.794 0.73 7.95 3.32 8.02
9/7/2023 2:45:00 PM 24.35 75.83 0.73 7.95 3.1 7.94
9/7/2023 3:00:00 PM 24.27 75.686 0.73 7.89 3.04 7.69
9/7/2023 3:15:00 PM 24.22 75.596 0.731 7.92 3.31 7.65
9/7/2023 3:30:00 PM 24.22 75.596 0.731 7.92 3.42 7.72
9/7/2023 3:45:00 PM 24.28 75.704 0.731 7.94 3.34 7.78
9/7/2023 4:00:00 PM 24.27 75.686 0.731 7.94 3.48 7.65
9/7/2023 4:15:00 PM 24.2 75.56 0.731 7.91 3.95 7.57
9/7/2023 4:30:00 PM 24.06 75.308 0.727 7.93 3.88 7.27
9/7/2023 4:45:00 PM 23.9 75.02 0.721 7.9 4.45 7.2
9/7/2023 5:00:00 PM 23.74 74.732 0.72 7.9 4.07 7.12
9/7/2023 5:15:00 PM 23.62 74.516 0.72 7.9 3.95 7.06
9/7/2023 5:30:00 PM 23.52 74.336 0.723 7.86 3.92 6.98
9/7/2023 5:45:00 PM 23.44 74.192 0.723 7.84 4.26 7
9/7/2023 6:00:00 PM 23.38 74.084 0.723 7.89 3.65 6.95
9/7/2023 6:15:00 PM 23.31 73.958 0.724 7.87 3.67 7.04
9/7/2023 6:30:00 PM 23.23 73.814 0.724 7.87 3.41 7.02
9/7/2023 6:45:00 PM 23.15 73.67 0.724 7.85 3.82 6.99
9/7/2023 7:00:00 PM 23.05 73.49 0.72 7.78 3.7 7.05
9/7/2023 7:15:00 PM 22.96 73.328 0.71 7.85 4.36 7.11
9/7/2023 7:30:00 PM 22.96 73.328 0.714 7.87 4.39 7.09
9/7/2023 7:45:00 PM 22.96 73.328 0.715 7.86 4.31 7.1
9/7/2023 8:00:00 PM 22.95 73.31 0.716 7.86 4.34 7.12
9/7/2023 8:15:00 PM 22.95 73.31 0.717 7.86 5.86 7.12
9/7/2023 8:30:00 PM 22.95 73.31 0.717 7.86 4.62 7.17
9/7/2023 8:45:00 PM 22.94 73.292 0.717 7.85 4.77 7.21
9/7/2023 9:00:00 PM 22.94 73.292 0.717 7.87 2.31 7.22
9/7/2023 9:15:00 PM 22.93 73.274 0.717 7.82 4.22 7.23
9/7/2023 9:30:00 PM 22.92 73.256 0.717 7.83 4.12 7.26
9/7/2023 9:45:00 PM 22.92 73.256 0.718 7.84 4.43 7.29
9/7/2023 10:00:00 PM 22.91 73.238 0.718 7.85 4.11 7.32
9/7/2023 10:15:00 PM 22.92 73.256 0.718 7.84 4.94 7.37
9/7/2023 10:30:00 PM 22.93 73.274 0.719 7.84 4.74 7.39
9/7/2023 10:45:00 PM 22.93 73.274 0.72 7.85 4.65 7.39
9/7/2023 11:00:00 PM 22.93 73.274 0.721 7.85 7.99 7.41
9/7/2023 11:15:00 PM 22.93 73.274 0.721 7.83 5.04 7.42
9/7/2023 11:30:00 PM 22.93 73.274 0.721 7.77 4.35 7.41
9/7/2023 11:45:00 PM 22.93 73.274 0.721 7.85 4.84 7.42
9/8/2023 12:00:00 AM 22.93 73.274 0.721 7.87 5.35 7.42
9/8/2023 12:15:00 AM 22.92 73.256 0.722 7.85 4.76 7.4
9/8/2023 12:30:00 AM 22.93 73.274 0.722 7.85 4.25 7.41
9/8/2023 12:45:00 AM 22.92 73.256 0.722 7.83 4.67 7.39
9/8/2023 1:00:00 AM 22.91 73.238 0.723 7.85 4.55 7.39
9/8/2023 1:15:00 AM 22.9 73.22 0.723 7.85 4.85 7.4
9/8/2023 1:30:00 AM 22.89 73.202 0.722 7.86 4.31 7.4
9/8/2023 1:45:00 AM 22.87 73.166 0.722 7.85 4.03 7.38
9/8/2023 2:00:00 AM 22.85 73.13 0.722 7.86 5.31 7.37
9/8/2023 2:15:00 AM 22.84 73.112 0.722 7.86 3.95 7.38
9/8/2023 2:30:00 AM 22.82 73.076 0.721 7.86 4.78 7.37
9/8/2023 2:45:00 AM 22.8 73.04 0.721 7.86 4.54 7.36
9/8/2023 3:00:00 AM 22.79 73.022 0.721 7.86 4.75 7.38
9/8/2023 3:15:00 AM 22.78 73.004 0.72 7.84 6.92 7.44
9/8/2023 3:30:00 AM 22.77 72.986 0.72 7.77 9.34 7.48
9/8/2023 3:45:00 AM 22.76 72.968 0.72 7.85 11.69 7.52
9/8/2023 4:00:00 AM 22.74 72.932 0.719 7.83 9.35 7.54
9/8/2023 4:15:00 AM 22.71 72.878 0.719 7.83 8.35 7.53
9/8/2023 4:30:00 AM 22.67 72.806 0.719 7.82 9.32 7.53
9/8/2023 4:45:00 AM 22.64 72.752 0.719 7.82 6.82 7.51
9/8/2023 5:00:00 AM 22.6 72.68 0.718 7.79 7.42 7.5
9/8/2023 5:15:00 AM 22.56 72.608 0.718 7.8 7.13 7.47
9/8/2023 5:30:00 AM 22.52 72.536 0.718 7.8 5.86 7.45
9/8/2023 5:45:00 AM 22.47 72.446 0.718 7.8 7.03 7.44
9/8/2023 6:00:00 AM 22.43 72.374 0.718 7.8 6.98 7.44
9/8/2023 6:15:00 AM 22.39 72.302 0.718 7.8 6.48 7.42
9/8/2023 6:30:00 AM 22.35 72.23 0.717 7.8 7.52 7.41
9/8/2023 6:45:00 AM 22.32 72.176 0.717 7.8 7.14 7.42
9/8/2023 7:00:00 AM 22.29 72.122 0.717 7.8 6.63 7.44
9/8/2023 7:15:00 AM 22.26 72.068 0.717 7.81 6.44 7.46
9/8/2023 7:30:00 AM 22.24 72.032 0.716 7.81 6.46 7.48
9/8/2023 7:45:00 AM 22.22 71.996 0.716 7.81 5.52 7.51
9/8/2023 8:00:00 AM 22.21 71.978 0.716 7.81 6.34 7.56
9/8/2023 8:15:00 AM 22.2 71.96 0.716 7.81 5.67 7.58
9/8/2023 8:30:00 AM 22.18 71.924 0.715 7.81 5.92 7.61
9/8/2023 8:45:00 AM 22.17 71.906 0.715 7.81 5.82 7.65
9/8/2023 9:00:00 AM 22.17 71.906 0.715 7.82 6.06 7.68
9/8/2023 9:15:00 AM 22.18 71.924 0.715 7.82 6.42 7.72
9/8/2023 9:30:00 AM 22.21 71.978 0.715 7.83 6.24 7.77
9/8/2023 9:45:00 AM 22.25 72.05 0.715 7.83 5.91 7.85
9/8/2023 10:00:00 AM 22.32 72.176 0.715 7.83 5.28 7.92
9/8/2023 10:15:00 AM 22.38 72.284 0.715 7.84 6.11 7.98
9/8/2023 10:30:00 AM 22.46 72.42799 0.714 7.85 5.17 8.03
9/8/2023 10:45:00 AM 22.52 72.536 0.714 7.85 5.29 8.07
9/8/2023 11:00:00 AM 22.58 72.644 0.714 7.86 5.47 8.1
9/8/2023 11:15:00 AM 22.65 72.77 0.714 7.87 5.38 8.16
9/8/2023 11:30:00 AM 22.69 72.842 0.714 7.88 5.7 8.17
9/8/2023 11:45:00 AM 22.63 72.734 0.713 7.86 5.44 8.1
9/8/2023 12:00:00 PM 22.58 72.644 0.712 7.86 5.36 8.05
9/8/2023 12:15:00 PM 22.58 72.644 0.712 7.87 5.52 8.1
9/8/2023 12:30:00 PM 22.55 72.59 0.711 7.85 5.58 8.06
9/8/2023 12:45:00 PM 22.5 72.5 0.711 7.85 4.97 7.98
9/8/2023 1:00:00 PM 22.53 72.554 0.709 7.86 4.79 8.04
9/8/2023 1:15:00 PM 22.56 72.608 0.708 7.88 5.04 8.05
9/8/2023 1:30:00 PM 22.72 72.896 0.707 7.86 5.65 8.13
9/8/2023 1:45:00 PM 22.82 73.076 0.706 7.88 5.01 8.12
9/8/2023 2:00:00 PM 22.86 73.148 0.704 7.87 5.15 8.09
9/8/2023 2:15:00 PM 22.87 73.166 0.702 7.87 5 8.06
9/8/2023 2:30:00 PM 22.9 73.22 0.7 7.88 5.04 8.05
9/8/2023 2:45:00 PM 22.99 73.382 0.699 7.88 5 8.06
9/8/2023 3:00:00 PM 23.01 73.418 0.698 7.89 5.42 7.96
9/8/2023 3:15:00 PM 23.1 73.58 0.697 7.89 5.28 7.97
9/8/2023 3:30:00 PM 23.19 73.742 0.696 7.89 4.82 7.99
9/8/2023 3:45:00 PM 23.13 73.634 0.693 7.89 4.85 7.91
9/8/2023 4:00:00 PM 23.01 73.418 0.69 7.86 4.97 7.81
9/8/2023 4:15:00 PM 22.91 73.238 0.69 7.84 4.91 7.74
9/8/2023 4:30:00 PM 22.89 73.202 0.688 7.84 4.93 7.78
9/8/2023 4:45:00 PM 22.9 73.22 0.688 7.84 5.06 7.77
9/8/2023 5:00:00 PM 22.88 73.184 0.687 7.85 4.99 7.7
9/8/2023 5:15:00 PM 22.86 73.148 0.686 7.84 4.83 7.65
9/8/2023 5:30:00 PM 22.86 73.148 0.686 7.84 4.53 7.58
9/8/2023 5:45:00 PM 22.88 73.184 0.685 7.84 4.96 7.59
9/8/2023 6:00:00 PM 22.9 73.22 0.684 7.83 4.75 7.55
9/8/2023 6:15:00 PM 22.91 73.238 0.684 7.83 4.39 7.51
9/8/2023 6:30:00 PM 22.92 73.256 0.684 7.83 4.68 7.54
9/8/2023 6:45:00 PM 22.97 73.346 0.684 7.83 4.54 7.56
9/8/2023 7:00:00 PM 23.03 73.454 0.685 7.84 4.25 7.5
9/8/2023 7:15:00 PM 23.1 73.58 0.686 7.82 4.48 7.42
9/8/2023 7:30:00 PM 23.16 73.688 0.688 7.83 4.49 7.35
9/8/2023 7:45:00 PM 23.22 73.796 0.689 7.78 5.1 7.33
9/8/2023 8:00:00 PM 23.27 73.886 0.689 7.83 4.5 7.32
9/8/2023 8:15:00 PM 23.3 73.94 0.689 7.83 5.15 7.3
9/8/2023 8:30:00 PM 23.33 73.994 0.69 7.83 4.74 7.3
9/8/2023 8:45:00 PM 23.35 74.03 0.69 7.83 4.34 7.29
9/8/2023 9:00:00 PM 23.35 74.03 0.689 7.83 4.28 7.3
9/8/2023 9:15:00 PM 23.35 74.03 0.687 7.83 4.22 7.31
9/8/2023 9:30:00 PM 23.34 74.012 0.687 7.84 4.47 7.32
9/8/2023 9:45:00 PM 23.32 73.976 0.687 7.84 4.82 7.35
9/8/2023 10:00:00 PM 23.26 73.868 0.687 7.83 4.86 7.34
9/8/2023 10:15:00 PM 23.22 73.796 0.687 7.83 4.91 7.33
9/8/2023 10:30:00 PM 23.18 73.724 0.687 7.83 4.7 7.36
9/8/2023 10:45:00 PM 23.13 73.634 0.689 7.83 4.83 7.38
9/8/2023 11:00:00 PM 23.1 73.58 0.689 7.85 4.84 7.37
9/8/2023 11:15:00 PM 23.07 73.526 0.691 7.83 4.49 7.39
9/8/2023 11:30:00 PM 23 73.4 0.692 7.84 4.33 7.42
9/8/2023 11:45:00 PM 22.92 73.256 0.693 7.84 4.92 7.43
9/9/2023 12:00:00 AM 22.85 73.13 0.694 7.83 5.01 7.44
9/9/2023 12:15:00 AM 22.8 73.04 0.695 7.83 4.67 7.46
9/9/2023 12:30:00 AM 22.77 72.986 0.696 7.83 5.12 7.47
9/9/2023 12:45:00 AM 22.74 72.932 0.696 7.83 5.13 7.47
9/9/2023 1:00:00 AM 22.73 72.914 0.697 7.83 4.52 7.5
9/9/2023 1:15:00 AM 22.73 72.914 0.698 7.83 4.98 7.5
9/9/2023 1:30:00 AM 22.71 72.878 0.698 7.83 4.55 7.5
9/9/2023 1:45:00 AM 22.68 72.824 0.699 7.84 4.78 7.5
9/9/2023 2:00:00 AM 22.65 72.77 0.7 7.84 5.05 7.51
9/9/2023 2:15:00 AM 22.61 72.698 0.701 7.84 4.78 7.51
9/9/2023 2:30:00 AM 22.56 72.608 0.702 7.84 5.13 7.51
9/9/2023 2:45:00 AM 22.54 72.57201 0.703 7.83 5.05 7.51
9/9/2023 3:00:00 AM 22.52 72.536 0.704 7.83 7.51 7.52
9/9/2023 3:15:00 AM 22.51 72.518 0.705 7.83 5.17 7.53
9/9/2023 3:30:00 AM 22.49 72.482 0.706 7.83 5.01 7.53
9/9/2023 3:45:00 AM 22.46 72.42799 0.707 7.83 5.05 7.55
9/9/2023 4:00:00 AM 22.44 72.392 0.708 7.84 5.25 7.55
9/9/2023 4:15:00 AM 22.41 72.338 0.71 7.84 5.33 7.55
9/9/2023 4:30:00 AM 22.39 72.302 0.71 7.83 5.05 7.55
9/9/2023 4:45:00 AM 22.37 72.266 0.711 7.83 5.59 7.56
9/9/2023 5:00:00 AM 22.35 72.23 0.712 7.84 5.17 7.56
9/9/2023 5:15:00 AM 22.34 72.212 0.713 7.84 5.01 7.56
9/9/2023 5:30:00 AM 22.34 72.212 0.713 7.85 4.92 7.57
9/9/2023 5:45:00 AM 22.33 72.194 0.714 7.84 7.7 7.56
9/9/2023 6:00:00 AM 22.32 72.176 0.715 7.84 5.6 7.57
9/9/2023 6:15:00 AM 22.3 72.14 0.715 7.84 4.58 7.58
9/9/2023 6:30:00 AM 22.29 72.122 0.715 7.84 5.41 7.56
9/9/2023 6:45:00 AM 22.28 72.104 0.715 7.83 5.05 7.55
9/9/2023 7:00:00 AM 22.28 72.104 0.716 7.83 5.1 7.55
9/9/2023 7:15:00 AM 22.28 72.104 0.716 7.84 4.88 7.55
9/9/2023 7:30:00 AM 22.28 72.104 0.716 7.81 4.75 7.58
9/9/2023 7:45:00 AM 22.28 72.104 0.716 7.85 3.94 7.6
9/9/2023 8:00:00 AM 22.29 72.122 0.716 7.85 3.93 7.65
9/9/2023 8:15:00 AM 22.31 72.158 0.717 7.85 4.19 7.72
9/9/2023 8:30:00 AM 22.32 72.176 0.717 7.85 4.24 7.75
9/9/2023 8:45:00 AM 22.33 72.194 0.718 7.86 4.22 7.76
9/9/2023 9:00:00 AM 22.36 72.248 0.72 7.84 4.03 7.82
9/9/2023 9:15:00 AM 22.38 72.284 0.722 7.84 4.2 7.88
9/9/2023 9:30:00 AM 22.44 72.392 0.724 7.86 4.06 7.96
9/9/2023 9:45:00 AM 22.51 72.518 0.726 7.88 4.07 8.03
9/9/2023 10:00:00 AM 22.52 72.536 0.727 7.88 4.08 8.03
9/9/2023 10:15:00 AM 22.6 72.68 0.727 7.89 4.22 8.08
9/9/2023 10:30:00 AM 22.72 72.896 0.728 7.91 4.11 8.15
9/9/2023 10:45:00 AM 22.77 72.986 0.729 7.91 4.07 8.16
9/9/2023 11:00:00 AM 22.81 73.058 0.733 7.89 3.94 8.14
9/9/2023 11:15:00 AM 22.96 73.328 0.735 7.93 3.81 8.2
9/9/2023 11:30:00 AM 23.09 73.562 0.737 7.91 4.08 8.24
9/9/2023 11:45:00 AM 23.21 73.778 0.74 7.92 3.87 8.23
9/9/2023 12:00:00 PM 23.35 74.03 0.741 7.92 4.01 8.23
9/9/2023 12:15:00 PM 23.46 74.228 0.742 7.91 4.07 8.24
9/9/2023 12:30:00 PM 23.51 74.318 0.743 7.93 3.86 8.21
9/9/2023 12:45:00 PM 23.51 74.318 0.743 7.95 3.84 8.16
9/9/2023 1:00:00 PM 23.61 74.498 0.745 7.95 4.1 8.15
9/9/2023 1:15:00 PM 23.7 74.66 0.744 7.95 3.7 8.14
9/9/2023 1:30:00 PM 23.76 74.768 0.746 7.95 3.5 8.09
9/9/2023 1:45:00 PM 23.82 74.876 0.746 7.95 4.07 8.08
9/9/2023 2:00:00 PM 23.89 75.002 0.746 7.94 3.51 8.09
9/9/2023 2:15:00 PM 23.87 74.966 0.746 7.94 3.58 8.06
9/9/2023 2:30:00 PM 23.94 75.092 0.746 7.94 3.8 8.03
9/9/2023 2:45:00 PM 23.99 75.182 0.747 7.9 3.63 8.04
9/9/2023 3:00:00 PM 24.03 75.254 0.748 7.92 3.48 8
9/9/2023 3:15:00 PM 24.04 75.272 0.749 7.87 3.65 8
9/9/2023 3:30:00 PM 24.12 75.416 0.75 7.93 3.58 7.94
9/9/2023 3:45:00 PM 24.21 75.578 0.751 7.92 3.61 7.89
9/9/2023 4:00:00 PM 24.2 75.56 0.752 7.9 3.44 7.81
9/9/2023 4:15:00 PM 24.18 75.524 0.753 7.92 3.73 7.81
9/9/2023 4:30:00 PM 24.14 75.452 0.753 7.91 3.64 7.8
9/9/2023 4:45:00 PM 24.08 75.344 0.753 7.9 3.6 7.71
9/9/2023 5:00:00 PM 24.05 75.29 0.753 7.91 3.88 7.66
9/9/2023 5:15:00 PM 24.02 75.236 0.754 7.89 3.5 7.61
9/9/2023 5:30:00 PM 23.99 75.182 0.754 7.86 3.58 7.56
9/9/2023 5:45:00 PM 23.98 75.164 0.755 7.88 3.51 7.52
9/9/2023 6:00:00 PM 23.97 75.146 0.756 7.89 3.54 7.48
9/9/2023 6:15:00 PM 23.94 75.092 0.756 7.9 3.72 7.45
9/9/2023 6:30:00 PM 23.9 75.02 0.756 7.9 3.52 7.45
9/9/2023 6:45:00 PM 23.86 74.948 0.756 7.89 3.68 7.43
9/9/2023 7:00:00 PM 23.81 74.858 0.756 7.88 3.47 7.42
9/9/2023 7:15:00 PM 23.76 74.768 0.757 7.86 3.77 7.4
9/9/2023 7:30:00 PM 23.71 74.67799 0.757 7.88 3.57 7.39
9/9/2023 7:45:00 PM 23.61 74.498 0.756 7.82 3.63 7.38
9/9/2023 8:00:00 PM 23.5 74.3 0.754 7.88 3.71 7.38
9/9/2023 8:15:00 PM 23.42 74.156 0.754 7.85 4.53 7.38
9/9/2023 8:30:00 PM 23.37 74.066 0.753 7.84 4.95 7.39
9/9/2023 8:45:00 PM 23.32 73.976 0.752 7.87 4.66 7.39
9/9/2023 9:00:00 PM 23.29 73.922 0.753 7.87 5.81 7.41
9/9/2023 9:15:00 PM 23.25 73.85 0.752 7.77 4.08 7.39
9/9/2023 9:30:00 PM 23.21 73.778 0.753 7.86 4.25 7.4
9/9/2023 9:45:00 PM 23.2 73.76 0.753 7.86 4.61 7.41
9/9/2023 10:00:00 PM 23.18 73.724 0.754 7.86 4.5 7.4
9/9/2023 10:15:00 PM 23.19 73.742 0.755 7.84 4.52 7.39
9/9/2023 10:30:00 PM 23.21 73.778 0.756 7.86 5.06 7.42
9/9/2023 10:45:00 PM 23.22 73.796 0.757 7.86 4.09 7.42
9/9/2023 11:00:00 PM 23.23 73.814 0.757 7.84 3.88 7.42
9/9/2023 11:15:00 PM 23.23 73.814 0.758 7.85 4.02 7.41
9/9/2023 11:30:00 PM 23.24 73.832 0.758 7.84 4.51 7.41
9/9/2023 11:45:00 PM 23.25 73.85 0.759 7.85 4.72 7.41
9/10/2023 12:00:00 AM 23.25 73.85 0.759 7.86 4.17 7.42
9/10/2023 12:15:00 AM 23.23 73.814 0.76 7.86 5.07 7.41
9/10/2023 12:30:00 AM 23.21 73.778 0.759 7.84 4.81 7.4
9/10/2023 12:45:00 AM 23.19 73.742 0.759 7.86 4.49 7.4
9/10/2023 1:00:00 AM 23.18 73.724 0.76 7.85 4.32 7.41
9/10/2023 1:15:00 AM 23.16 73.688 0.76 7.86 4.65 7.4
9/10/2023 1:30:00 AM 23.15 73.67 0.76 7.85 4.21 7.43
9/10/2023 1:45:00 AM 23.12 73.616 0.76 7.86 3.92 7.42
9/10/2023 2:00:00 AM 23.09 73.562 0.76 7.86 4.1 7.41
9/10/2023 2:15:00 AM 23.07 73.526 0.76 7.89 3.64 7.43
9/10/2023 2:30:00 AM 23.05 73.49 0.76 7.76 3.91 7.42
9/10/2023 2:45:00 AM 23.03 73.454 0.76 7.86 3.51 7.43
9/10/2023 3:00:00 AM 23.02 73.436 0.76 7.83 3.74 7.45
9/10/2023 3:15:00 AM 23.01 73.418 0.76 7.85 3.42 7.44
9/10/2023 3:30:00 AM 22.99 73.382 0.76 7.73 4.42 7.42
9/10/2023 3:45:00 AM 22.98 73.364 0.761 7.87 7.48 7.45
9/10/2023 4:00:00 AM 22.96 73.328 0.761 7.84 3.95 7.45
9/10/2023 4:15:00 AM 22.94 73.292 0.761 7.73 3.76 7.44
9/10/2023 4:30:00 AM 22.93 73.274 0.76 7.69 3.9 7.44
9/10/2023 4:45:00 AM 22.91 73.238 0.76 7.85 3.71 7.42
9/10/2023 5:00:00 AM 22.9 73.22 0.76 7.83 4.09 7.42
9/10/2023 5:15:00 AM 22.89 73.202 0.76 7.83 4.03 7.42
9/10/2023 5:30:00 AM 22.87 73.166 0.76 7.83 3.88 7.41
9/10/2023 5:45:00 AM 22.86 73.148 0.76 7.88 3.88 7.43
9/10/2023 6:00:00 AM 22.84 73.112 0.76 7.86 4.3 7.43
9/10/2023 6:15:00 AM 22.83 73.094 0.759 7.83 4.18 7.43
9/10/2023 6:30:00 AM 22.81 73.058 0.759 7.83 8.41 7.43
9/10/2023 6:45:00 AM 22.8 73.04 0.759 7.82 5.02 7.42
9/10/2023 7:00:00 AM 22.78 73.004 0.759 7.87 4.61 7.43
9/10/2023 7:15:00 AM 22.77 72.986 0.759 7.86 4.18 7.43
9/10/2023 7:30:00 AM 22.75 72.95 0.759 7.83 4.42 7.45
9/10/2023 7:45:00 AM 22.75 72.95 0.758 7.82 4 7.47
9/10/2023 8:00:00 AM 22.75 72.95 0.758 7.84 3.88 7.52
9/10/2023 8:15:00 AM 22.76 72.968 0.757 7.83 3.7 7.57
9/10/2023 8:30:00 AM 22.76 72.968 0.757 7.84 3.88 7.57
9/10/2023 8:45:00 AM 22.76 72.968 0.757 7.72 3.85 7.57
9/10/2023 9:00:00 AM 22.76 72.968 0.757 7.85 3.98 7.61
9/10/2023 9:15:00 AM 22.76 72.968 0.757 7.82 3.87 7.63
9/10/2023 9:30:00 AM 22.79 73.022 0.756 7.84 12.47 7.71
9/10/2023 9:45:00 AM 22.82 73.076 0.751 7.86 20.73 7.79
9/10/2023 10:00:00 AM 22.89 73.202 0.743 7.87 2.81 7.88
9/10/2023 10:15:00 AM 22.89 73.202 0.711 7.88 2.34 7.83
9/10/2023 10:30:00 AM 23.02 73.436 0.652 7.89 2.28 8.01
9/10/2023 10:45:00 AM 23.01 73.418 0.653 7.88 2.37 7.97
9/10/2023 11:00:00 AM 23.05 73.49 0.628 7.89 2.36 8
9/10/2023 11:15:00 AM 23.18 73.724 0.625 7.9 2.21 8.09
9/10/2023 11:30:00 AM 23.39 74.102 0.61 7.92 2.17 8.17
9/10/2023 11:45:00 AM 23.48 74.264 0.6 7.95 2.45 8.2
9/10/2023 12:00:00 PM 23.51 74.318 0.611 7.94 2.07 8.13
9/10/2023 12:15:00 PM 23.51 74.318 0.545 7.87 1.89 8.1
9/10/2023 12:30:00 PM 23.53 74.354 0.542 7.95 1.81 8.06
9/10/2023 12:45:00 PM 23.65 74.57 0.536 7.94 1.79 8.11
9/10/2023 1:00:00 PM 23.8 74.84 0.528 7.96 1.92 8.19
9/10/2023 1:15:00 PM 23.85 74.93 0.546 7.97 1.77 8.21
9/10/2023 1:30:00 PM 23.85 74.93 0.529 7.96 1.92 8.15
9/10/2023 1:45:00 PM 23.94 75.092 0.563 7.89 1.86 8.17
9/10/2023 2:00:00 PM 24.06 75.308 0.519 7.96 1.72 8.14
9/10/2023 2:15:00 PM 24.1 75.38 0.53 7.98 1.84 8.11
9/10/2023 2:30:00 PM 24.1 75.38 0.497 7.98 1.74 8.04
9/10/2023 2:45:00 PM 24.17 75.506 0.494 7.99 1.87 8.12
9/10/2023 3:00:00 PM 24.19 75.542 0.505 7.97 1.77 8.08
9/10/2023 3:15:00 PM 24.2 75.56 0.494 8.01 1.77 8.01
9/10/2023 3:30:00 PM 24.11 75.398 0.497 7.95 1.66 7.79
9/10/2023 3:45:00 PM 23.96 75.128 0.507 7.97 1.74 7.6
9/10/2023 4:00:00 PM 23.77 74.786 0.484 7.96 2.36 7.51
9/10/2023 4:15:00 PM 23.63 74.534 0.499 7.94 2.17 7.5
9/10/2023 4:30:00 PM 23.56 74.408 0.494 7.94 2.37 7.61
9/10/2023 4:45:00 PM 23.55 74.39 0.501 7.9 2.45 7.65
9/10/2023 5:00:00 PM 23.52 74.336 0.495 7.93 2.18 7.52
9/10/2023 5:15:00 PM 23.53 74.354 0.475 7.88 2.09 7.46
9/10/2023 5:30:00 PM 23.53 74.354 0.417 7.89 5.02 7.45
9/10/2023 5:45:00 PM 23.55 74.39 0.439 7.91 1.95 7.42
9/10/2023 6:00:00 PM 23.58 74.444 0.425 7.9 2.17 7.44
9/10/2023 6:15:00 PM 23.6 74.48 0.44 7.91 2.12 7.49
9/10/2023 6:30:00 PM 23.61 74.498 0.434 7.92 2.02 7.53
9/10/2023 6:45:00 PM 23.6 74.48 0.457 7.89 2.11 7.56
9/10/2023 7:00:00 PM 23.59 74.462 0.436 7.89 2.13 7.5
9/10/2023 7:15:00 PM 23.58 74.444 0.467 7.92 2.06 7.41
9/10/2023 7:30:00 PM 23.57 74.426 0.501 7.89 2.04 7.38
9/10/2023 7:45:00 PM 23.54 74.372 0.419 7.89 2.42 7.4
9/10/2023 8:00:00 PM 23.51 74.318 0.269 7.87 105.89 7.36
9/10/2023 8:15:00 PM 23.48 74.264 0.699 7.85 5.77 7.39
9/10/2023 8:30:00 PM 23.45 74.21 0.671 7.86 5.06 7.4
9/10/2023 8:45:00 PM 23.44 74.192 0.67 7.86 4.85 7.4
9/10/2023 9:00:00 PM 23.43 74.174 0.669 7.86 4.56 7.4
9/10/2023 9:15:00 PM 23.4 74.12 0.668 7.89 4.95 7.39
9/10/2023 9:30:00 PM 23.37 74.066 0.668 7.85 4.49 7.4
9/10/2023 9:45:00 PM 23.34 74.012 0.665 7.83 4.31 7.4
9/10/2023 10:00:00 PM 23.3 73.94 0.664 7.84 4.27 7.39
9/10/2023 10:15:00 PM 23.25 73.85 0.661 7.86 4.46 7.38
9/10/2023 10:30:00 PM 23.21 73.778 0.658 7.84 4.86 7.38
9/10/2023 10:45:00 PM 23.18 73.724 0.657 7.86 4.33 7.38
9/10/2023 11:00:00 PM 23.14 73.652 0.655 7.83 4.26 7.37
9/10/2023 11:15:00 PM 23.11 73.598 0.652 7.85 4.45 7.37
9/10/2023 11:30:00 PM 23.08 73.544 0.65 7.83 4.47 7.37
9/10/2023 11:45:00 PM 23.05 73.49 0.649 7.82 4.17 7.36
9/11/2023 12:00:00 AM 23.01 73.418 0.644 7.85 4.29 7.36
9/11/2023 12:15:00 AM 22.98 73.364 0.641 7.72 4.6 7.36
9/11/2023 12:30:00 AM 22.94 73.292 0.639 7.83 4.34 7.36
9/11/2023 12:45:00 AM 22.91 73.238 0.636 7.84 5.42 7.38
9/11/2023 1:00:00 AM 22.87 73.166 0.635 7.82 5.01 7.37
9/11/2023 1:15:00 AM 22.84 73.112 0.634 7.83 4.31 7.35
9/11/2023 1:30:00 AM 22.8 73.04 0.63 7.82 4.41 7.38
9/11/2023 1:45:00 AM 22.78 73.004 0.629 7.83 3.95 7.38
9/11/2023 2:00:00 AM 22.76 72.968 0.628 7.83 4.47 7.38
9/11/2023 2:15:00 AM 22.74 72.932 0.627 7.81 4.43 7.4
9/11/2023 2:30:00 AM 22.72 72.896 0.625 7.83 5.02 7.4
9/11/2023 2:45:00 AM 22.7 72.86 0.624 7.81 6.88 7.4
9/11/2023 3:00:00 AM 22.68 72.824 0.622 7.76 4.33 7.4
9/11/2023 3:15:00 AM 22.65 72.77 0.621 7.78 5.19 7.42
9/11/2023 3:30:00 AM 22.63 72.734 0.619 7.78 4.46 7.43
9/11/2023 3:45:00 AM 22.6 72.68 0.616 7.75 5.4 7.42
9/11/2023 4:00:00 AM 22.57 72.626 0.614 7.74 6.04 7.43
9/11/2023 4:15:00 AM 22.54 72.57201 0.614 7.77 5.61 7.43
9/11/2023 4:30:00 AM 22.51 72.518 0.612 7.74 5.96 7.44
9/11/2023 4:45:00 AM 22.47 72.446 0.61 7.75 5.42 7.42
9/11/2023 5:00:00 AM 22.44 72.392 0.608 7.66 5.71 7.42
9/11/2023 5:15:00 AM 22.41 72.338 0.605 7.76 5.73 7.41
9/11/2023 5:30:00 AM 22.38 72.284 0.603 7.76 6.38 7.42
9/11/2023 5:45:00 AM 22.34 72.212 0.6 7.74 6.47 7.42
9/11/2023 6:00:00 AM 22.31 72.158 0.596 7.73 8.72 7.45
9/11/2023 6:15:00 AM 22.28 72.104 0.592 7.75 12.73 7.56
9/11/2023 6:30:00 AM 22.25 72.05 0.589 7.72 12.66 7.61
9/11/2023 6:45:00 AM 22.18 71.924 0.575 7.75 11.8 7.74
9/11/2023 7:00:00 AM 22.14 71.852 0.57 7.75 9.85 7.8
9/11/2023 7:15:00 AM 22.13 71.834 0.57 7.75 9.62 7.87
9/11/2023 7:30:00 AM 22.12 71.816 0.571 7.78 8.93 7.88
9/11/2023 7:45:00 AM 22.11 71.798 0.573 7.76 8.51 7.9
9/11/2023 8:00:00 AM 22.09 71.762 0.575 7.79 13.1 7.91
9/11/2023 8:15:00 AM 22.05 71.69 0.577 7.77 7.57 7.89
9/11/2023 8:30:00 AM 21.99 71.582 0.578 7.77 8.48 7.86
9/11/2023 8:45:00 AM 21.94 71.492 0.578 7.65 9.53 7.9
9/11/2023 9:00:00 AM 21.88 71.384 0.578 7.77 8.9 7.87
9/11/2023 9:15:00 AM 21.83 71.294 0.577 7.77 7.66 7.89
9/11/2023 9:30:00 AM 21.79 71.222 0.576 7.76 7.54 7.89
9/11/2023 9:45:00 AM 21.75 71.15 0.575 7.77 7.9 7.88
9/11/2023 10:00:00 AM 21.74 71.132 0.575 7.78 7.97 7.94
9/11/2023 10:15:00 AM 21.77 71.186 0.575 7.79 7.34 8
9/11/2023 10:30:00 AM 21.83 71.294 0.576 7.8 7.37 8.05
9/11/2023 10:45:00 AM 21.81 71.258 0.577 7.81 7.25 8.01
9/11/2023 11:00:00 AM 21.82 71.276 0.579 7.8 8.26 8.02
9/11/2023 11:15:00 AM 21.82 71.276 0.581 7.79 7.83 8.01
9/11/2023 11:30:00 AM 21.84 71.312 0.583 7.84 7.7 8
9/11/2023 11:45:00 AM 21.9 71.42 0.585 7.84 7.63 8.08
9/11/2023 12:00:00 PM 21.97 71.546 0.588 7.82 7.9 8.1
9/11/2023 12:15:00 PM 22.01 71.618 0.591 7.84 6.91 8.09
9/11/2023 12:30:00 PM 22.05 71.69 0.593 7.85 7.2 8.08
9/11/2023 12:45:00 PM 22.09 71.762 0.596 7.85 7.63 8.06
9/11/2023 1:00:00 PM 22.18 71.924 0.599 7.85 6.82 8.07
9/11/2023 1:15:00 PM 22.18 71.924 0.601 7.86 7.36 8.02
9/11/2023 1:30:00 PM 22.33 72.194 0.603 7.86 7.14 8.1
9/11/2023 1:45:00 PM 22.35 72.23 0.604 7.87 6.63 8.02
9/11/2023 2:00:00 PM 22.39 72.302 0.605 7.85 7.12 8.07
9/11/2023 2:15:00 PM 22.49 72.482 0.606 7.86 7.34 8.09
9/11/2023 2:30:00 PM 22.47 72.446 0.606 7.85 7.79 7.99
9/11/2023 2:45:00 PM 22.47 72.446 0.604 7.89 7.21 8
9/11/2023 3:00:00 PM 22.45 72.41 0.598 7.86 7.76 8.01
9/11/2023 3:15:00 PM 22.45 72.41 0.595 7.88 7.38 8.04
9/11/2023 3:30:00 PM 22.5 72.5 0.601 7.87 7.4 8.06
9/11/2023 3:45:00 PM 22.51 72.518 0.597 7.87 7.38 8.09
9/11/2023 4:00:00 PM 22.51 72.518 0.593 7.78 7.8 8.08
9/11/2023 4:15:00 PM 22.57 72.626 0.599 7.88 8.31 8.08
9/11/2023 4:30:00 PM 22.6 72.68 0.603 7.88 7.51 8.09
9/11/2023 4:45:00 PM 22.63 72.734 0.604 7.89 7.82 8.11
9/11/2023 5:00:00 PM 22.67 72.806 0.603 7.89 7.9 8.16
9/11/2023 5:15:00 PM 22.7 72.86 0.603 7.88 8.12 8.16
9/11/2023 5:30:00 PM 22.72 72.896 0.602 7.88 8.14 8.15
9/11/2023 5:45:00 PM 22.72 72.896 0.601 7.89 7.65 8.12
9/11/2023 6:00:00 PM 22.73 72.914 0.599 7.89 7.72 8.1
9/11/2023 6:15:00 PM 22.76 72.968 0.598 7.89 8.66 8.1
9/11/2023 6:30:00 PM 22.78 73.004 0.595 7.79 7.54 8.08
9/11/2023 6:45:00 PM 22.79 73.022 0.591 7.89 7.68 8.05
9/11/2023 7:00:00 PM 22.81 73.058 0.587 7.8 8.93 8.05

These are provisional data and have not been subject to a quality assurance process, but rather are the raw data reported by the instrument.
H: value is above sensor operating range
L: value is below sensor operating range
Offline: station is not reporting data
NC: parameter is not collected at site

Data Availability & Limitations

Uncertainty and potential for error can be associated with environmental monitoring data. Provisional data have not been subject to a quality assurance process, but rather are the raw data reported by the instrument. Data users are cautioned to consider carefully the provisional nature of the information before using it for decisions that concern personal or public safety or the conduct of business that involves substantial monetary or operational consequences.

Approved data are currently available by request by emailing: [email protected]. Approved data have been subject to a quality assurance process to correct for equipment or fouling drift. Data recorded during equipment malfunctions have been removed.

View Historical Stations that have been discontinued.